Provisional Data: Portage Creek near Emporium, PA


Please select a monitoring station.
Please select start date.
Please select start date.

Toggle Unit: C/F Toggle Unit: C/F
Sample Time Temperature (C) Temperature (F) Specific Conductivity (mS/cm) pH   Turbidity (NTU+) DO (mg/L)
3/23/2021 12:00:00 AM 6.54 43.772 0.049 7.11 31.93 11.85
3/23/2021 12:15:00 AM 6.44 43.592 0.049 7.11 32.46 11.88
3/23/2021 12:30:00 AM 6.35 43.43 0.049 7.11 32.62 11.91
3/23/2021 12:45:00 AM 6.26 43.268 0.049 7.11 33.51 11.95
3/23/2021 1:00:00 AM 6.16 43.088 0.049 7.11 31.87 11.98
3/23/2021 1:15:00 AM 6.07 42.926 0.049 7.11 33.32 12.02
3/23/2021 1:30:00 AM 5.98 42.764 0.049 7.11 32.41 12.04
3/23/2021 1:45:00 AM 5.87 42.566 0.049 7.11 33.48 12.07
3/23/2021 2:00:00 AM 5.78 42.404 0.049 7.11 32.08 12.1
3/23/2021 2:15:00 AM 5.67 42.206 0.049 7.11 38.6 12.15
3/23/2021 2:30:00 AM 5.57 42.026 0.049 7.11 41.6 12.18
3/23/2021 2:45:00 AM 5.47 41.846 0.049 7.11 45.58 12.21
3/23/2021 3:00:00 AM 5.38 41.684 0.049 7.1 37.84 12.23
3/23/2021 3:15:00 AM 5.28 41.504 0.049 7.11 37.94 12.27
3/23/2021 3:30:00 AM 5.18 41.324 0.049 7.1 34.57 12.29
3/23/2021 3:45:00 AM 5.09 41.162 0.049 7.11 38.14 12.33
3/23/2021 4:00:00 AM 5 41 0.049 7.11 38.49 12.36
3/23/2021 4:15:00 AM 4.91 40.838 0.049 7.11 30.65 12.4
3/23/2021 4:30:00 AM 4.83 40.694 0.049 7.1 67.39 12.43
3/23/2021 4:45:00 AM 4.74 40.532 0.049 7.1 56.14 12.45
3/23/2021 5:00:00 AM 4.66 40.388 0.049 7.1 52.75 12.48
3/23/2021 5:15:00 AM 4.58 40.244 0.049 7.1 63.92 12.5
3/23/2021 5:30:00 AM 4.5 40.1 0.049 7.1 62.97 12.53
3/23/2021 5:45:00 AM 4.43 39.974 0.049 7.1 60.66 12.57
3/23/2021 6:00:00 AM 4.35 39.83 0.049 7.1 60.14 12.59
3/23/2021 6:15:00 AM 4.28 39.704 0.049 7.1 59.98 12.62
3/23/2021 6:30:00 AM 4.2 39.56 0.049 7.1 60.49 12.64
3/23/2021 6:45:00 AM 4.14 39.452 0.049 7.1 73.26 12.66
3/23/2021 7:00:00 AM 4.07 39.326 0.049 7.1 48.91 12.68
3/23/2021 7:15:00 AM 4 39.2 0.049 7.1 40.44 12.72
3/23/2021 7:30:00 AM 3.94 39.092 0.049 7.1 28.83 12.75
3/23/2021 7:45:00 AM 3.89 39.002 0.049 7.11 30.39 12.83
3/23/2021 8:00:00 AM 3.84 38.912 0.049 7.13 33.51 12.9
3/23/2021 8:15:00 AM 3.8 38.84 0.049 7.14 32.44 13
3/23/2021 8:30:00 AM 3.77 38.786 0.049 7.16 31.89 13.07
3/23/2021 8:45:00 AM 3.76 38.768 0.049 7.18 31.07 13.15
3/23/2021 9:00:00 AM 3.76 38.768 0.049 7.19 31.19 13.19
3/23/2021 9:15:00 AM 3.78 38.804 0.049 7.21 30.75 13.25
3/23/2021 9:30:00 AM 3.8 38.84 0.049 7.23 32.72 13.28
3/23/2021 9:45:00 AM 3.83 38.894 0.049 7.24 32.49 13.31
3/23/2021 10:00:00 AM 3.86 38.948 0.049 7.25 32.64 13.33
3/23/2021 10:15:00 AM 3.93 39.074 0.049 7.26 33.11 13.34
3/23/2021 10:30:00 AM 4.03 39.254 0.048 7.27 36.58 13.34
3/23/2021 10:45:00 AM 4.15 39.47 0.048 7.29 37.43 13.33
3/23/2021 11:00:00 AM 4.29 39.722 0.048 7.29 56.56 13.31
3/23/2021 11:15:00 AM 4.45 40.01 0.048 7.3 39.84 13.29
3/23/2021 11:30:00 AM 4.65 40.37 0.048 7.32 40.09 13.24
3/23/2021 11:45:00 AM 4.86 40.748 0.048 7.33 42.95 13.21
3/23/2021 12:00:00 PM 5.06 41.108 0.048 7.34 44.71 13.16
3/23/2021 12:15:00 PM 5.29 41.522 0.048 7.35 45.17 13.11
3/23/2021 12:30:00 PM 5.54 41.972 0.048 7.35 43.18 13.04
3/23/2021 12:45:00 PM 5.78 42.404 0.048 7.37 43.07 12.97
3/23/2021 1:00:00 PM 5.98 42.764 0.048 7.37 44.86 12.9
3/23/2021 1:15:00 PM 6.23 43.214 0.048 7.39 50.68 12.84
3/23/2021 1:30:00 PM 6.47 43.646 0.048 7.39 46.46 12.74
3/23/2021 1:45:00 PM 6.69 44.042 0.048 7.39 47.27 12.66
3/23/2021 2:00:00 PM 6.87 44.366 0.048 7.39 53.15 12.6
3/23/2021 2:15:00 PM 7.04 44.672 0.048 7.4 53.83 12.53
3/23/2021 2:30:00 PM 7.24 45.032 0.047 7.42 54.77 12.46
3/23/2021 2:45:00 PM 7.42 45.356 0.047 7.43 54.81 12.41
3/23/2021 3:00:00 PM 7.56 45.608 0.047 7.45 55.09 12.35
3/23/2021 3:15:00 PM 7.76 45.968 0.047 7.45 55.56 12.29
3/23/2021 3:30:00 PM 7.87 46.166 0.047 7.47 259.48 12.24
3/23/2021 3:45:00 PM 7.98 46.364 0.047 7.46 597.43 12.19
3/23/2021 4:00:00 PM 8.12 46.616 0.047 7.46 59.32 12.15
3/23/2021 4:15:00 PM 8.18 46.724 0.047 7.47 60.75 12.12
3/23/2021 4:30:00 PM 8.26 46.868 0.047 7.47 60.42 12.09
3/23/2021 4:45:00 PM 8.31 46.958 0.047 7.48 60.07 12.05
3/23/2021 5:00:00 PM 8.31 46.958 0.047 7.47 103.57 12.01
3/23/2021 5:15:00 PM 8.35 47.03 0.047 7.47 343.26 11.99
3/23/2021 5:30:00 PM 8.38 47.084 0.047 7.46 93.93 11.94
3/23/2021 5:45:00 PM 8.4 47.12 0.047 7.45 97.92 11.95
3/23/2021 6:00:00 PM 8.39 47.102 0.047 7.43 89.05 11.91
3/23/2021 6:15:00 PM 8.37 47.066 0.047 7.41 88.71 11.87
3/23/2021 6:30:00 PM 8.36 47.048 0.047 7.4 105.91 11.84
3/23/2021 6:45:00 PM 8.34 47.012 0.047 7.38 117.8 11.81
3/23/2021 7:00:00 PM 8.3 46.94 0.047 7.35 115.5 11.75
3/23/2021 7:15:00 PM 8.27 46.886 0.047 7.31 134.4 11.67
3/23/2021 7:30:00 PM 8.24 46.832 0.047 7.28 193.97 11.59
3/23/2021 7:45:00 PM 8.2 46.76 0.048 7.24 550.22 11.51
3/23/2021 8:00:00 PM 8.16 46.688 0.048 7.21 876.14 11.46
3/23/2021 8:15:00 PM 8.14 46.652 0.048 7.2 104.48 11.43
3/23/2021 8:30:00 PM 8.11 46.598 0.048 7.17 108.09 11.39
3/23/2021 8:45:00 PM 8.08 46.544 0.048 7.16 94.83 11.37
3/23/2021 9:00:00 PM 8.05 46.49 0.048 7.16 102.61 11.36
3/23/2021 9:15:00 PM 8.01 46.418 0.048 7.14 95.42 11.33
3/23/2021 9:30:00 PM 7.96 46.328 0.048 7.14 92.33 11.35
3/23/2021 9:45:00 PM 7.9 46.22 0.048 7.14 123.46 11.38
3/23/2021 10:00:00 PM 7.84 46.112 0.048 7.13 117.81 11.41
3/23/2021 10:15:00 PM 7.79 46.022 0.048 7.13 116.13 11.41
3/23/2021 10:30:00 PM 7.73 45.914 0.048 7.13 116.92 11.44
3/23/2021 10:45:00 PM 7.67 45.806 0.048 7.13 117.34 11.46
3/23/2021 11:00:00 PM 7.61 45.698 0.048 7.13 128.59 11.47
3/23/2021 11:15:00 PM 7.56 45.608 0.048 7.13 123.95 11.5
3/23/2021 11:30:00 PM 7.5 45.5 0.048 7.12 125.91 11.52
3/23/2021 11:45:00 PM 7.45 45.41 0.048 7.13 125.39 11.52
3/24/2021 12:00:00 AM 7.4 45.32 0.048 7.12 101.63 11.54
3/24/2021 12:15:00 AM 7.36 45.248 0.048 7.12 99.95 11.57
3/24/2021 12:30:00 AM 7.33 45.194 0.048 7.12 100.19 11.57
3/24/2021 12:45:00 AM 7.29 45.122 0.048 7.12 97.67 11.59
3/24/2021 1:00:00 AM 7.25 45.05 0.048 7.12 99.36 11.6
3/24/2021 1:15:00 AM 7.22 44.996 0.048 7.12 97.6 11.62
3/24/2021 1:30:00 AM 7.18 44.924 0.048 7.13 94.65 11.62
3/24/2021 1:45:00 AM 7.14 44.852 0.048 7.13 92.05 11.64
3/24/2021 2:00:00 AM 7.09 44.762 0.048 7.12 95.61 11.65
3/24/2021 2:15:00 AM 7.03 44.654 0.048 7.12 96.62 11.67
3/24/2021 2:30:00 AM 6.98 44.564 0.049 7.12 95.74 11.68
3/24/2021 2:45:00 AM 6.94 44.492 0.049 7.12 99.48 11.7
3/24/2021 3:00:00 AM 6.9 44.42 0.049 7.13 99.3 11.72
3/24/2021 3:15:00 AM 6.87 44.366 0.048 7.12 98.93 11.73
3/24/2021 3:30:00 AM 6.85 44.33 0.048 7.12 97.64 11.75
3/24/2021 3:45:00 AM 6.82 44.276 0.048 7.12 106.09 11.76
3/24/2021 4:00:00 AM 6.8 44.24 0.048 7.12 140.27 11.76
3/24/2021 4:15:00 AM 6.78 44.204 0.048 7.12 213.07 11.76
3/24/2021 4:30:00 AM 6.76 44.168 0.048 7.12 203.05 11.77
3/24/2021 4:45:00 AM 6.74 44.132 0.048 7.12 185.79 11.77
3/24/2021 5:00:00 AM 6.73 44.114 0.048 7.12 156.23 11.77
3/24/2021 5:15:00 AM 6.72 44.096 0.048 7.12 186.79 11.77
3/24/2021 5:30:00 AM 6.71 44.078 0.048 7.12 195.94 11.78
3/24/2021 5:45:00 AM 6.7 44.06 0.048 7.12 133.08 11.78
3/24/2021 6:00:00 AM 6.68 44.024 0.048 7.12 264.82 11.78
3/24/2021 6:15:00 AM 6.67 44.006 0.048 7.12 139.34 11.79
3/24/2021 6:30:00 AM 6.66 43.988 0.048 7.12 140.12 11.78
3/24/2021 6:45:00 AM 6.65 43.97 0.048 7.11 148.36 11.79
3/24/2021 7:00:00 AM 6.64 43.952 0.048 7.11 157.47 11.8
3/24/2021 7:15:00 AM 6.63 43.934 0.048 7.12 141.04 11.8
3/24/2021 7:30:00 AM 6.61 43.898 0.048 7.11 98.53 11.81
3/24/2021 7:45:00 AM 6.61 43.898 0.048 7.12 185.41 11.81
3/24/2021 8:00:00 AM 6.61 43.898 0.048 7.11 123.33 11.83
3/24/2021 8:15:00 AM 6.6 43.88 0.048 7.13 126.35 11.87
3/24/2021 8:30:00 AM 6.6 43.88 0.048 7.15 116.57 11.92
3/24/2021 8:45:00 AM 6.6 43.88 0.048 7.15 117.2 11.96
3/24/2021 9:00:00 AM 6.6 43.88 0.048 7.17 123.44 12.02
3/24/2021 9:15:00 AM 6.61 43.898 0.048 7.18 100.15 12.08
3/24/2021 9:30:00 AM 6.63 43.934 0.048 7.2 114.45 12.14
3/24/2021 9:45:00 AM 6.65 43.97 0.048 7.22 118.59 12.19
3/24/2021 10:00:00 AM 6.68 44.024 0.048 7.25 105.57 12.24
3/24/2021 10:15:00 AM 6.72 44.096 0.048 7.28 109.46 12.31
3/24/2021 10:30:00 AM 6.75 44.15 0.048 7.3 111.5 12.32
3/24/2021 10:45:00 AM 6.77 44.186 0.048 7.31 113.77 12.34
3/24/2021 11:00:00 AM 6.82 44.276 0.047 7.34 112.87 12.35
3/24/2021 11:15:00 AM 6.86 44.348 0.047 7.35 108.93 12.37
3/24/2021 11:30:00 AM 6.95 44.51 0.047 7.37 109.22 12.38
3/24/2021 11:45:00 AM 7.04 44.672 0.047 7.39 110.3 12.39
3/24/2021 12:00:00 PM 7.12 44.816 0.047 7.4 138.19 12.38
3/24/2021 12:15:00 PM 7.19 44.942 0.047 7.42 110.87 12.37
3/24/2021 12:30:00 PM 7.26 45.068 0.047 7.43 110.7 12.36
3/24/2021 12:45:00 PM 7.35 45.23 0.047 7.45 108.13 12.35
3/24/2021 1:00:00 PM 7.44 45.392 0.047 7.47 107.83 12.35
3/24/2021 1:15:00 PM 7.52 45.536 0.047 7.49 115.81 12.33
3/24/2021 1:30:00 PM 7.62 45.716 0.047 7.48 123.27 12.31
3/24/2021 1:45:00 PM 7.72 45.896 0.047 7.5 106.95 12.28
3/24/2021 2:00:00 PM 7.78 46.004 0.046 7.52 116.72 12.26
3/24/2021 2:15:00 PM 7.85 46.13 0.046 7.51 117.32 12.23
3/24/2021 2:30:00 PM 7.95 46.31 0.046 7.53 106.04 12.21
3/24/2021 2:45:00 PM 8.07 46.526 0.046 7.53 107.96 12.19
3/24/2021 3:00:00 PM 8.19 46.742 0.046 7.55 108.8 12.16
3/24/2021 3:15:00 PM 8.28 46.904 0.046 7.55 105.26 12.12
3/24/2021 3:30:00 PM 8.46 47.228 0.046 7.56 105.65 12.1
3/24/2021 3:45:00 PM 8.53 47.354 0.046 7.56 104.79 12.08
3/24/2021 4:00:00 PM 8.71 47.678 0.046 7.59 107.52 12.06
3/24/2021 4:15:00 PM 8.83 47.894 0.046 7.58 104.14 12.02
3/24/2021 4:30:00 PM 8.83 47.894 0.046 7.56 104.55 11.98
3/24/2021 4:45:00 PM 8.9 48.02 0.047 7.58 107.03 11.96
3/24/2021 5:00:00 PM 8.93 48.074 0.046 7.57 105.63 11.91
3/24/2021 5:15:00 PM 8.97 48.146 0.047 7.55 107.45 11.87
3/24/2021 5:30:00 PM 9.06 48.308 0.046 7.53 106.35 11.81
3/24/2021 5:45:00 PM 9.09 48.362 0.046 7.49 108.54 11.76
3/24/2021 6:00:00 PM 9.08 48.344 0.046 7.5 98.5 11.75
3/24/2021 6:15:00 PM 9.03 48.254 0.047 7.47 106.66 11.71
3/24/2021 6:30:00 PM 9.01 48.218 0.047 7.42 108.47 11.65
3/24/2021 6:45:00 PM 8.99 48.182 0.047 7.38 107.1 11.57
3/24/2021 7:00:00 PM 8.98 48.164 0.047 7.35 98.19 11.49
3/24/2021 7:15:00 PM 8.99 48.182 0.047 7.31 101.48 11.41
3/24/2021 7:30:00 PM 8.99 48.182 0.047 7.28 98.84 11.31
3/24/2021 7:45:00 PM 8.98 48.164 0.047 7.25 101.41 11.24
3/24/2021 8:00:00 PM 8.98 48.164 0.047 7.22 103.33 11.19
3/24/2021 8:15:00 PM 8.96 48.128 0.047 7.2 103.05 11.13
3/24/2021 8:30:00 PM 8.93 48.074 0.047 7.18 78.84 11.12
3/24/2021 8:45:00 PM 8.91 48.038 0.047 7.17 76.43 11.11
3/24/2021 9:00:00 PM 8.89 48.002 0.047 7.16 76.41 11.08
3/24/2021 9:15:00 PM 8.87 47.966 0.047 7.16 512.55 11.09
3/24/2021 9:30:00 PM 8.84 47.912 0.047 7.15 256.9 11.1
3/24/2021 9:45:00 PM 8.82 47.876 0.047 7.14 246.93 11.1
3/24/2021 10:00:00 PM 8.8 47.84 0.047 7.13 229.92 11.1
3/24/2021 10:15:00 PM 8.78 47.804 0.047 7.13 244.8 11.11
3/24/2021 10:30:00 PM 8.76 47.768 0.047 7.12 233.75 11.11
3/24/2021 10:45:00 PM 8.74 47.732 0.047 7.12 230.96 11.11
3/24/2021 11:00:00 PM 8.73 47.714 0.047 7.12 220.2 11.12
3/24/2021 11:15:00 PM 8.72 47.696 0.047 7.12 220.67 11.13
3/24/2021 11:30:00 PM 8.71 47.678 0.047 7.12 223.87 11.13
3/24/2021 11:45:00 PM 8.69 47.642 0.047 7.11 227.42 11.12
3/25/2021 12:00:00 AM 8.67 47.606 0.047 7.11 228.02 11.13
3/25/2021 12:15:00 AM 8.65 47.57 0.047 7.11 228.17 11.14
3/25/2021 12:30:00 AM 8.63 47.534 0.047 7.11 225.24 11.15
3/25/2021 12:45:00 AM 8.61 47.498 0.047 7.11 218.72 11.16
3/25/2021 1:00:00 AM 8.58 47.444 0.047 7.11 232.52 11.15
3/25/2021 1:15:00 AM 8.55 47.39 0.047 7.11 225.53 11.16
3/25/2021 1:30:00 AM 8.53 47.354 0.047 7.11 222.84 11.17
3/25/2021 1:45:00 AM 8.51 47.318 0.047 7.1 224.41 11.17
3/25/2021 2:00:00 AM 8.48 47.264 0.047 7.11 221.85 11.18
3/25/2021 2:15:00 AM 8.45 47.21 0.047 7.1 210.41 11.19
3/25/2021 2:30:00 AM 8.43 47.174 0.047 7.1 223.2 11.21
3/25/2021 2:45:00 AM 8.4 47.12 0.047 7.1 217.31 11.21
3/25/2021 3:00:00 AM 8.37 47.066 0.047 7.09 214.13 11.21
3/25/2021 3:15:00 AM 8.35 47.03 0.047 7.1 209.11 11.23
3/25/2021 3:30:00 AM 8.31 46.958 0.047 7.1 206.85 11.24
3/25/2021 3:45:00 AM 8.28 46.904 0.047 7.09 219.46 11.26
3/25/2021 4:00:00 AM 8.26 46.868 0.047 7.1 225.44 11.27
3/25/2021 4:15:00 AM 8.24 46.832 0.048 7.1 214.97 11.28
3/25/2021 4:30:00 AM 8.21 46.778 0.048 7.09 208.67 11.28
3/25/2021 4:45:00 AM 8.18 46.724 0.048 7.09 203.81 11.29
3/25/2021 5:00:00 AM 8.15 46.67 0.047 7.09 201.17 11.31
3/25/2021 5:15:00 AM 8.12 46.616 0.047 7.09 201.99 11.32
3/25/2021 5:30:00 AM 8.1 46.58 0.047 7.09 201.41 11.32
3/25/2021 5:45:00 AM 8.08 46.544 0.047 7.08 204.63 11.32
3/25/2021 6:00:00 AM 8.05 46.49 0.047 7.08 196.38 11.34
3/25/2021 6:15:00 AM 8.03 46.454 0.047 7.08 196.85 11.34
3/25/2021 6:30:00 AM 8 46.4 0.047 7.08 196.74 11.35
3/25/2021 6:45:00 AM 7.98 46.364 0.047 7.08 208.56 11.35
3/25/2021 7:00:00 AM 7.96 46.328 0.047 7.08 196.72 11.35
3/25/2021 7:15:00 AM 7.93 46.274 0.047 7.08 196.27 11.38
3/25/2021 7:30:00 AM 7.91 46.238 0.047 7.08 193.43 11.41
3/25/2021 7:45:00 AM 7.89 46.202 0.047 7.1 193.46 11.48
3/25/2021 8:00:00 AM 7.88 46.184 0.047 7.11 195.43 11.56
3/25/2021 8:15:00 AM 7.88 46.184 0.047 7.14 199.47 11.64
3/25/2021 8:30:00 AM 7.89 46.202 0.047 7.17 195.3 11.75
3/25/2021 8:45:00 AM 7.92 46.256 0.047 7.2 194.15 11.84
3/25/2021 9:00:00 AM 7.97 46.346 0.047 7.25 186.46 11.94
3/25/2021 9:15:00 AM 8.02 46.436 0.047 7.29 189.21 11.99
3/25/2021 9:30:00 AM 8.04 46.472 0.047 7.32 191.73 12.03
3/25/2021 9:45:00 AM 8.08 46.544 0.047 7.35 209.92 12.05
3/25/2021 10:00:00 AM 8.15 46.67 0.047 7.38 215.36 12.09
3/25/2021 10:15:00 AM 8.24 46.832 0.047 7.4 205.41 12.12
3/25/2021 10:30:00 AM 8.35 47.03 0.047 7.43 195.92 12.12
3/25/2021 10:45:00 AM 8.48 47.264 0.047 7.46 194.32 12.1
3/25/2021 11:00:00 AM 8.62 47.516 0.047 7.48 200.31 12.08
3/25/2021 11:15:00 AM 8.79 47.822 0.046 7.49 202.79 12.07
3/25/2021 11:30:00 AM 8.94 48.092 0.046 7.5 202.67 12.03
3/25/2021 11:45:00 AM 9.12 48.416 0.046 7.53 200.65 11.99
3/25/2021 12:00:00 PM 9.33 48.794 0.046 7.52 222.98 11.96
3/25/2021 12:15:00 PM 9.52 49.136 0.046 7.53 221.94 11.91
3/25/2021 12:30:00 PM 9.72 49.496 0.046 7.58 222.96 11.86
3/25/2021 12:45:00 PM 9.93 49.874 0.046 7.52 222.38 11.8
3/25/2021 1:00:00 PM 10.12 50.216 0.046 7.51 204.21 11.76
3/25/2021 1:15:00 PM 10.31 50.558 0.046 7.56 229.44 11.7
3/25/2021 1:30:00 PM 10.51 50.918 0.046 7.59 216.39 11.65
3/25/2021 1:45:00 PM 10.71 51.278 0.046 7.58 233.46 11.6
3/25/2021 2:00:00 PM 10.9 51.62 0.046 7.63 229.73 11.54
3/25/2021 2:15:00 PM 11.09 51.962 0.046 7.65 246.17 11.45
3/25/2021 2:30:00 PM 11.3 52.34 0.046 7.7 254.57 11.44
3/25/2021 2:45:00 PM 11.49 52.682 0.046 7.68 268.78 11.36
3/25/2021 3:00:00 PM 11.65 52.97 0.046 7.7 269.37 11.32
3/25/2021 3:15:00 PM 11.75 53.15 0.046 7.7 261.62 11.26
3/25/2021 3:30:00 PM 11.84 53.312 0.046 7.72 246.49 11.2
3/25/2021 3:45:00 PM 11.9 53.42 0.046 7.73 270.58 11.17
3/25/2021 4:00:00 PM 11.95 53.51 0.046 7.73 271.81 11.17
3/25/2021 4:15:00 PM 11.97 53.546 0.046 7.69 302.48 11.12
3/25/2021 4:30:00 PM 11.99 53.582 0.046 7.7 253.1 11.1
3/25/2021 4:45:00 PM 11.99 53.582 0.046 7.69 277.14 11.07
3/25/2021 5:00:00 PM 11.98 53.564 0.046 7.6 290.33 11.08
3/25/2021 5:15:00 PM 11.95 53.51 0.046 7.65 296.23 11.03
3/25/2021 5:30:00 PM 11.92 53.456 0.046 7.59 298.92 11.02
3/25/2021 5:45:00 PM 11.87 53.366 0.046 7.57 315.78 10.91
3/25/2021 6:00:00 PM 11.82 53.276 0.046 7.52 342.75 10.91
3/25/2021 6:15:00 PM 11.77 53.186 0.046 7.46 340.05 10.85
3/25/2021 6:30:00 PM 11.72 53.096 0.046 7.39 328.69 10.77
3/25/2021 6:45:00 PM 11.67 53.006 0.046 7.38 285.11 10.71
3/25/2021 7:00:00 PM 11.62 52.916 0.047 7.3 522.03 10.64
3/25/2021 7:15:00 PM 11.57 52.826 0.047 7.31 459.93 10.61
3/25/2021 7:30:00 PM 11.51 52.718 0.047 7.22 373.15 10.53
3/25/2021 7:45:00 PM 11.47 52.646 0.047 7.22 1455.97 10.49
3/25/2021 8:00:00 PM 11.42 52.556 0.047 7.19 1329.67 10.45
3/25/2021 8:15:00 PM 11.37 52.466 0.047 7.17 1372.12 10.42
3/25/2021 8:30:00 PM 11.32 52.376 0.047 7.15 1000 10.4
3/25/2021 8:45:00 PM 11.28 52.304 0.047 7.15 852.88 10.4
3/25/2021 9:00:00 PM 11.23 52.214 0.047 7.14 948.55 10.39
3/25/2021 9:15:00 PM 11.2 52.16 0.048 7.14 1425.84 10.39
3/25/2021 9:30:00 PM 11.16 52.088 0.048 7.12 715.78 10.4
3/25/2021 9:45:00 PM 11.13 52.034 0.048 6.94 5641.13 10.41
3/25/2021 10:00:00 PM 11.11 51.998 0.048 6.91 1201.63 10.4
3/25/2021 10:15:00 PM 11.09 51.962 0.048 6.79 1067.75 10.41
3/25/2021 10:30:00 PM 11.05 51.89 0.048 6.8 897.34 10.42
3/25/2021 10:45:00 PM 11.04 51.872 0.054 6.94 3125.26 8.1
3/25/2021 11:00:00 PM 11.02 51.836 0.059 7.09 2976.75 7.17
3/25/2021 11:15:00 PM 10.99 51.782 0.061 7.1 3588.43 6.47
3/25/2021 11:30:00 PM 10.97 51.746 0.063 7.09 4927.23 6.3
3/25/2021 11:45:00 PM 10.93 51.674 0.064 7.12 5749.58 6.67
3/26/2021 12:00:00 AM 10.9 51.62 0.064 7.12 6452.98 7.38
3/26/2021 12:15:00 AM 10.87 51.566 0.064 7.12 6752.11 8.02
3/26/2021 12:30:00 AM 10.84 51.512 0.064 7.13 6741.31 8.47
3/26/2021 12:45:00 AM 10.81 51.458 0.063 7.13 7004.34 8.82
3/26/2021 1:00:00 AM 10.78 51.404 0.064 7.14 7287.88 8.98
3/26/2021 1:15:00 AM 10.75 51.35 0.064 7.14 7389.62 8.99
3/26/2021 1:30:00 AM 10.73 51.314 0.063 7.14 7572.62 9.01
3/26/2021 1:45:00 AM 10.7 51.26 0.063 7.14 7831.46 9.03
3/26/2021 2:00:00 AM 10.68 51.224 0.063 7.14 8122.36 9.32
3/26/2021 2:15:00 AM 10.65 51.17 0.063 7.14 8108.47 9.4
3/26/2021 2:30:00 AM 10.62 51.116 0.063 7.15 8148.31 9.66
3/26/2021 2:45:00 AM 10.61 51.098 0.063 7.15 8264.18 9.86
3/26/2021 3:00:00 AM 10.59 51.062 0.063 7.15 8447.33 9.66
3/26/2021 3:15:00 AM 10.57 51.026 0.063 7.15 8500.78 9.76
3/26/2021 3:30:00 AM 10.55 50.99 0.063 7.15 8522.01 9.78
3/26/2021 3:45:00 AM 10.53 50.954 0.063 7.15 8297.28 9.81
3/26/2021 4:00:00 AM 10.5 50.9 0.063 7.16 8243.79 9.78
3/26/2021 4:15:00 AM 10.47 50.846 0.062 7.16 8363.23 9.84
3/26/2021 4:30:00 AM 10.45 50.81 0.062 7.16 8306.04 9.88
3/26/2021 4:45:00 AM 10.43 50.774 0.062 7.15 8265.96 9.85
3/26/2021 5:00:00 AM 10.4 50.72 0.061 7.15 8174.24 10.06
3/26/2021 5:15:00 AM 10.36 50.648 0.061 7.15 8057.03 10.01
3/26/2021 5:30:00 AM 10.33 50.594 0.061 7.15 8247.57 10.02
3/26/2021 5:45:00 AM 10.32 50.576 0.061 7.15 8700.33 10.13
3/26/2021 6:00:00 AM 10.3 50.54 0.061 7.15 8820.24 10.2
3/26/2021 6:15:00 AM 10.26 50.468 0.06 7.15 8882.61 10.33
3/26/2021 6:30:00 AM 10.22 50.396 0.06 7.15 9030.19 10.35
3/26/2021 6:45:00 AM 10.2 50.36 0.06 7.15 9124.04 10.37
3/26/2021 7:00:00 AM 10.19 50.342 0.059 7.15 9159.52 10.44
3/26/2021 7:15:00 AM 10.15 50.27 0.059 7.15 8947.41 10.5
3/26/2021 7:30:00 AM 10.11 50.198 0.059 7.16 8934.45 10.51
3/26/2021 7:45:00 AM 10.1 50.18 0.059 7.17 8982.24 10.51
3/26/2021 8:00:00 AM 10.08 50.144 0.059 7.18 9136.22 10.61
3/26/2021 8:15:00 AM 10.07 50.126 0.058 7.21 9296.82 10.71
3/26/2021 8:30:00 AM 10.07 50.126 0.058 7.22 9568.8 10.83
3/26/2021 8:45:00 AM 10.07 50.126 0.058 7.27 9581.2 10.83
3/26/2021 9:00:00 AM 10.09 50.162 0.058 7.29 9550.64 10.99
3/26/2021 9:15:00 AM 10.13 50.234 0.057 7.31 9373.3 11.06
3/26/2021 9:30:00 AM 10.16 50.288 0.057 7.33 9742.58 11.13
3/26/2021 9:45:00 AM 10.16 50.288 0.056 7.34 9597.59 11.11
3/26/2021 10:00:00 AM 10.2 50.36 0.056 7.36 9659.79 11.22
3/26/2021 10:15:00 AM 10.28 50.504 0.056 7.39 7890.38 11.27
3/26/2021 10:30:00 AM 10.31 50.558 0.056 7.38 6058.81 11.28
3/26/2021 10:45:00 AM 10.32 50.576 0.056 7.43 5885.03 11.25
3/26/2021 11:00:00 AM 10.32 50.576 0.057 7.4 5336.54 11.27
3/26/2021 11:15:00 AM 10.31 50.558 0.057 7.4 1854.36 11.3
3/26/2021 11:30:00 AM 10.3 50.54 0.058 7.45 1674.25 11.28
3/26/2021 11:45:00 AM 10.27 50.486 0.058 7.43 1558.8 11.23
3/26/2021 12:00:00 PM 10.25 50.45 0.059 7.4 2758.74 11.19
3/26/2021 12:15:00 PM 10.23 50.414 0.058 7.43 2780.29 11.25
3/26/2021 12:30:00 PM 10.22 50.396 0.059 7.37 2428.58 11.18
3/26/2021 12:45:00 PM 10.2 50.36 0.059 7.36 2080.58 11.27
3/26/2021 1:00:00 PM 10.21 50.378 0.059 7.26 2000.27 11.34
3/26/2021 1:15:00 PM 10.21 50.378 0.058 7.21 1878.68 11.37
3/26/2021 1:30:00 PM 10.2 50.36 0.058 7.14 1848.74 11.32
3/26/2021 1:45:00 PM 10.2 50.36 0.057 7.17 1774 11.36
3/26/2021 2:00:00 PM 10.17 50.306 0.058 7.35 1743.63 11.45
3/26/2021 2:15:00 PM 10.17 50.306 0.058 7.18 1719.12 11.31
3/26/2021 2:30:00 PM 10.15 50.27 0.058 7.14 1708.76 11.45
3/26/2021 2:45:00 PM 10.14 50.252 0.058 7.11 1697.25 11.38
3/26/2021 3:00:00 PM 10.12 50.216 0.057 7.2 1655.05 11.51
3/26/2021 3:15:00 PM 10.11 50.198 0.057 7.17 1606.44 11.53
3/26/2021 3:30:00 PM 10.07 50.126 0.056 7.11 1576.38 11.36
3/26/2021 3:45:00 PM 10.04 50.072 0.055 7.16 1568.33 11.37
3/26/2021 4:00:00 PM 10.02 50.036 0.054 7.18 1569.71 11.42
3/26/2021 4:15:00 PM 10.02 50.036 0.054 7.16 1558.67 11.44
3/26/2021 4:30:00 PM 10.01 50.018 0.054 7.19 1565.77 11.48
3/26/2021 4:45:00 PM 9.99 49.982 0.054 7.17 1548.1 11.51
3/26/2021 5:00:00 PM 9.97 49.946 0.054 7.18 1529.85 11.5
3/26/2021 5:15:00 PM 9.94 49.892 0.054 7.16 1528.98 11.46
3/26/2021 5:30:00 PM 9.92 49.856 0.054 7.2 1515.79 11.49
3/26/2021 5:45:00 PM 9.88 49.784 0.055 7.17 1537.83 11.41
3/26/2021 6:00:00 PM 9.84 49.712 0.055 7.15 1589.46 11.36
3/26/2021 6:15:00 PM 9.81 49.658 0.055 7.15 1578.81 11.36
3/26/2021 6:30:00 PM 9.77 49.586 0.055 7.19 1652.54 11.34
3/26/2021 6:45:00 PM 9.72 49.496 0.055 7.1 1650.91 11.28
3/26/2021 7:00:00 PM 9.66 49.388 0.055 7.1 1659.61 11.24
3/26/2021 7:15:00 PM 9.6 49.28 0.055 7.09 1715.91 11.14
3/26/2021 7:30:00 PM 9.54 49.172 0.055 7.1 1717.09 11.12
3/26/2021 7:45:00 PM 9.47 49.046 0.055 7.09 1745.97 11.05
3/26/2021 8:00:00 PM 9.4 48.92 0.055 7.08 1716.87 11.01
3/26/2021 8:15:00 PM 9.31 48.758 0.055 7.09 1713.85 10.93
3/26/2021 8:30:00 PM 9.24 48.632 0.054 7.07 1703.89 10.95
3/26/2021 8:45:00 PM 9.18 48.524 0.054 7.08 1702.52 10.94
3/26/2021 9:00:00 PM 9.12 48.416 0.054 7.06 1693.15 10.95
3/26/2021 9:15:00 PM 9.07 48.326 0.054 7.07 1710.16 10.97
3/26/2021 9:30:00 PM 9.02 48.236 0.055 7.07 1689.9 10.96
3/26/2021 9:45:00 PM 8.97 48.146 0.056 7.11 1661.19 11
3/26/2021 10:00:00 PM 8.91 48.038 0.055 7.07 1667.07 11.01
3/26/2021 10:15:00 PM 8.86 47.948 0.055 7.06 1665.49 11.03
3/26/2021 10:30:00 PM 8.83 47.894 0.055 7.02 1667.86 10.99
3/26/2021 10:45:00 PM 8.78 47.804 0.055 7.04 1655.41 10.99
3/26/2021 11:00:00 PM 8.74 47.732 0.056 7.01 1646.61 11.06
3/26/2021 11:15:00 PM 8.69 47.642 0.056 7.03 1635.8 11.02
3/26/2021 11:30:00 PM 8.64 47.552 0.056 7.05 1637.21 11.03
3/26/2021 11:45:00 PM 8.6 47.48 0.055 7.05 1623.24 11.07
3/27/2021 12:00:00 AM 8.56 47.408 0.055 7.05 1621.49 11.11
3/27/2021 12:15:00 AM 8.52 47.336 0.055 7.04 1628.58 11.1
3/27/2021 12:30:00 AM 8.47 47.246 0.054 7.04 696.13 11.12
3/27/2021 12:45:00 AM 8.44 47.192 0.054 7.06 1596.43 11.13
3/27/2021 1:00:00 AM 8.4 47.12 0.054 7.03 1648.58 11.14
3/27/2021 1:15:00 AM 8.37 47.066 0.053 7.02 1647.48 11.12
3/27/2021 1:30:00 AM 8.33 46.994 0.053 7.03 1594.1 11.12
3/27/2021 1:45:00 AM 8.3 46.94 0.053 7.02 2134.93 11.16
3/27/2021 2:00:00 AM 8.27 46.886 0.053 7.04 1075.99 11.2
3/27/2021 2:15:00 AM 8.24 46.832 0.053 7.03 1095.76 11.16
3/27/2021 2:30:00 AM 8.21 46.778 0.053 7.03 1424.82 11.2
3/27/2021 2:45:00 AM 8.17 46.706 0.052 7.01 1821.11 11.19
3/27/2021 3:00:00 AM 8.14 46.652 0.052 7.02 1816.49 11.23
3/27/2021 3:15:00 AM 8.11 46.598 0.052 7.02 1791.43 11.22
3/27/2021 3:30:00 AM 8.09 46.562 0.052 6.99 1767.39 11.23
3/27/2021 3:45:00 AM 8.06 46.508 0.052 7.02 1742.1 11.24
3/27/2021 4:00:00 AM 8.04 46.472 0.052 7.01 1769.38 11.27
3/27/2021 4:15:00 AM 8.02 46.436 0.052 7.01 1766.46 11.19
3/27/2021 4:30:00 AM 7.99 46.382 0.052 7.01 1608.68 11.16
3/27/2021 4:45:00 AM 7.98 46.364 0.052 7.01 1733.99 11.08
3/27/2021 5:00:00 AM 7.95 46.31 0.052 7 1681.48 11.19
3/27/2021 5:15:00 AM 7.92 46.256 0.052 7 1725.95 11.19
3/27/2021 5:30:00 AM 7.89 46.202 0.052 7 1685.91 11.25
3/27/2021 5:45:00 AM 7.87 46.166 0.052 7 1620.75 11.25
3/27/2021 6:00:00 AM 7.84 46.112 0.052 6.96 1618.66 11.16
3/27/2021 6:15:00 AM 7.81 46.058 0.052 6.98 1237.09 11.24
3/27/2021 6:30:00 AM 7.78 46.004 0.052 6.99 1661.15 11.23
3/27/2021 6:45:00 AM 7.75 45.95 0.052 6.98 1659.92 11.27
3/27/2021 7:00:00 AM 7.71 45.878 0.052 7 1663.24 11.31
3/27/2021 7:15:00 AM 7.68 45.824 0.052 7.03 1660.76 11.34
3/27/2021 7:30:00 AM 7.65 45.77 0.052 7.03 1695.83 11.37
3/27/2021 7:45:00 AM 7.62 45.716 0.051 7.06 1665.16 11.49
3/27/2021 8:00:00 AM 7.6 45.68 0.051 7.08 1665.08 11.62
3/27/2021 8:15:00 AM 7.58 45.644 0.051 7.08 1654.74 11.7
3/27/2021 8:30:00 AM 7.58 45.644 0.051 7.13 1648.71 11.84
3/27/2021 8:45:00 AM 7.58 45.644 0.051 7.17 1647.61 11.97
3/27/2021 9:00:00 AM 7.6 45.68 0.05 7.17 1653.76 12.08
3/27/2021 9:15:00 AM 7.64 45.752 0.05 7.19 1647.71 12.18
3/27/2021 9:30:00 AM 7.7 45.86 0.05 7.27 1629.05 12.24
3/27/2021 9:45:00 AM 7.74 45.932 0.05 7.17 1637.51 11.87
3/27/2021 10:00:00 AM 7.78 46.004 0.05 7.18 1642.59 12.25
3/27/2021 10:15:00 AM 7.83 46.094 0.05 7.16 1642.31 12.28
3/27/2021 10:30:00 AM 7.91 46.238 0.05 7.27 1595.86 12.3
3/27/2021 10:45:00 AM 7.99 46.382 0.05 7.29 1587.16 12.32
3/27/2021 11:00:00 AM 8.09 46.562 0.05 7.27 1590.96 12.33
3/27/2021 11:15:00 AM 8.25 46.85 0.05 7.22 1600.2 12.32
3/27/2021 11:30:00 AM 8.47 47.246 0.05 7.3 1594.72 12.29
3/27/2021 11:45:00 AM 8.6 47.48 0.05 7.25 1585.07 12.23
3/27/2021 12:00:00 PM 8.74 47.732 0.051 7.43 1585.34 12.19
3/27/2021 12:15:00 PM 8.83 47.894 0.051 7.48 1584.11 12.14
3/27/2021 12:30:00 PM 8.9 48.02 0.051 7.23 1581.67 12.08
3/27/2021 12:45:00 PM 9.06 48.308 0.051 7.32 1570.6 12.1
3/27/2021 1:00:00 PM 9.27 48.686 0.051 7.23 1559.75 12.08
3/27/2021 1:15:00 PM 9.5 49.1 0.051 7.49 1548.77 12.01
3/27/2021 1:30:00 PM 9.66 49.388 0.051 7.39 1562.15 11.93
3/27/2021 1:45:00 PM 9.83 49.694 0.051 7.43 1549.77 11.89
3/27/2021 2:00:00 PM 10.01 50.018 0.052 7.45 1552.59 11.82
3/27/2021 2:15:00 PM 10.22 50.396 0.052 7.51 1553.71 11.8
3/27/2021 2:30:00 PM 10.43 50.774 0.051 7.59 1558.86 11.75
3/27/2021 2:45:00 PM 10.6 51.08 0.051 7.78 1561.13 11.72
3/27/2021 3:00:00 PM 10.75 51.35 0.051 7.55 1562.81 11.66
3/27/2021 3:15:00 PM 10.85 51.53 0.051 7.3 1560.95 11.58
3/27/2021 3:30:00 PM 10.97 51.746 0.051 7.41 1565.06 11.57
3/27/2021 3:45:00 PM 11.08 51.944 0.051 7.27 1555.3 11.53
3/27/2021 4:00:00 PM 11.19 52.142 0.051 7.4 1550.97 11.45
3/27/2021 4:15:00 PM 11.29 52.322 0.051 7.27 1596.32 11.45
3/27/2021 4:30:00 PM 11.39 52.502 0.051 7.33 1594.93 11.4
3/27/2021 4:45:00 PM 11.43 52.574 0.052 7.28 1573.92 11.33
3/27/2021 5:00:00 PM 11.52 52.736 0.052 7.21 1668.39 11.28
3/27/2021 5:15:00 PM 11.57 52.826 0.052 7.22 1655.82 11.27
3/27/2021 5:30:00 PM 11.55 52.79 0.051 7.34 1673.75 11.23
3/27/2021 5:45:00 PM 11.52 52.736 0.051 7.21 1580.22 11.22
3/27/2021 6:00:00 PM 11.49 52.682 0.051 7.25 1571.47 11.15
3/27/2021 6:15:00 PM 11.44 52.592 0.051 7.2 1573.35 11.05
3/27/2021 6:30:00 PM 11.38 52.484 0.051 7.23 1564.99 10.95
3/27/2021 6:45:00 PM 11.32 52.376 0.051 7.21 1618.09 10.89
3/27/2021 7:00:00 PM 11.25 52.25 0.051 7.14 1561.57 10.83
3/27/2021 7:15:00 PM 11.17 52.106 0.051 7.1 1574.85 10.74
3/27/2021 7:30:00 PM 11.1 51.98 0.051 7.11 1615.09 10.68
3/27/2021 7:45:00 PM 11.03 51.854 0.051 7.09 1603.83 10.58
3/27/2021 8:00:00 PM 10.96 51.728 0.051 7.12 1596.72 10.55
3/27/2021 8:15:00 PM 10.89 51.602 0.051 7.09 1589.71 10.49
3/27/2021 8:30:00 PM 10.82 51.476 0.052 7.07 1589.36 10.27
3/27/2021 8:45:00 PM 10.72 51.296 0.052 7.07 1550.02 9.88
3/27/2021 9:00:00 PM 10.62 51.116 0.052 7.08 1587.07 10.3
3/27/2021 9:15:00 PM 10.52 50.936 0.053 7.03 1477.99 9.82
3/27/2021 9:30:00 PM 10.42 50.756 0.053 7 1486.57 9.74
3/27/2021 9:45:00 PM 10.32 50.576 0.053 7.05 1512.31 10.31
3/27/2021 10:00:00 PM 10.22 50.396 0.053 7.02 1640.01 9.81
3/27/2021 10:15:00 PM 10.13 50.234 0.053 7.02 1577.76 9.95
3/27/2021 10:30:00 PM 10.03 50.054 0.052 7 749.04 10.13
3/27/2021 10:45:00 PM 9.94 49.892 0.052 7.01 1521.26 10.06
3/27/2021 11:00:00 PM 9.85 49.73 0.052 7 1619.04 10.19
3/27/2021 11:15:00 PM 9.77 49.586 0.052 7 1599.91 10.13
3/27/2021 11:30:00 PM 9.68 49.424 0.051 7 1597.02 10.16
3/27/2021 11:45:00 PM 9.59 49.262 0.051 6.99 1596.69 9.83
3/28/2021 12:00:00 AM 9.52 49.136 0.051 6.98 1598.93 9.55
3/28/2021 12:15:00 AM 9.43 48.974 0.051 6.99 1607.11 10.12
3/28/2021 12:30:00 AM 9.33 48.794 0.051 7 1629.89 10.72
3/28/2021 12:45:00 AM 9.24 48.632 0.05 7.01 1617.09 10.74
3/28/2021 1:00:00 AM 9.17 48.506 0.05 7.01 1830.79 10.67
3/28/2021 1:15:00 AM 9.1 48.38 0.051 7.01 816.93 10.49
3/28/2021 1:30:00 AM 9.02 48.236 0.051 7 1567.76 10.4
3/28/2021 1:45:00 AM 8.92 48.056 0.051 7 1570.12 10.78
3/28/2021 2:00:00 AM 8.85 47.93 0.05 7.01 1566.21 10.84
3/28/2021 2:15:00 AM 8.77 47.786 0.05 7.01 931.97 10.53
3/28/2021 2:30:00 AM 8.69 47.642 0.051 7.03 1558.85 10.84
3/28/2021 2:45:00 AM 8.61 47.498 0.051 7.01 1745.54 10.86
3/28/2021 3:00:00 AM 8.52 47.336 0.051 7.01 1698.86 10.98
3/28/2021 3:15:00 AM 8.45 47.21 0.051 6.99 1654.64 10.95
3/28/2021 3:30:00 AM 8.36 47.048 0.05 6.99 1646.05 10.95
3/28/2021 3:45:00 AM 8.28 46.904 0.05 7 1691.82 11.01
3/28/2021 4:00:00 AM 8.21 46.778 0.05 7.02 1585.32 10.99
3/28/2021 4:15:00 AM 8.14 46.652 0.05 6.99 1572.79 11.08
3/28/2021 4:30:00 AM 8.06 46.508 0.05 7 1565.93 11.09
3/28/2021 4:45:00 AM 8 46.4 0.049 7.03 1555.16 11.12
3/28/2021 5:00:00 AM 7.93 46.274 0.049 7.01 1551.68 11.14
3/28/2021 5:15:00 AM 7.87 46.166 0.049 7.03 1658.27 11.15
3/28/2021 5:30:00 AM 7.81 46.058 0.049 6.99 1557.22 11.11
3/28/2021 5:45:00 AM 7.75 45.95 0.048 7.01 1566.74 11.18
3/28/2021 6:00:00 AM 7.7 45.86 0.048 7.01 1576.54 11.18
3/28/2021 6:15:00 AM 7.67 45.806 0.048 7.02 1575.37 11.21
3/28/2021 6:30:00 AM 7.63 45.734 0.048 7 1576.2 11.17
3/28/2021 6:45:00 AM 7.6 45.68 0.048 7 1589.91 11.19
3/28/2021 7:00:00 AM 7.57 45.626 0.047 6.97 1600.73 11.18
3/28/2021 7:15:00 AM 7.54 45.572 0.047 7.01 1582.63 11.24
3/28/2021 7:30:00 AM 7.52 45.536 0.047 7.02 1535.66 11.21
3/28/2021 7:45:00 AM 7.49 45.482 0.047 7.03 1534.7 11.23
3/28/2021 8:00:00 AM 7.47 45.446 0.047 7.02 1530.12 11.24
3/28/2021 8:15:00 AM 7.46 45.428 0.047 7.03 1529.7 11.36
3/28/2021 8:30:00 AM 7.46 45.428 0.046 7.02 1523.96 11.45
3/28/2021 8:45:00 AM 7.47 45.446 0.046 7 1516.61 11.53
3/28/2021 9:00:00 AM 7.48 45.464 0.046 6.99 1552.41 11.57
3/28/2021 9:15:00 AM 7.5 45.5 0.046 7 1527.82 11.59
3/28/2021 9:30:00 AM 7.52 45.536 0.046 7.03 1545.04 11.5
3/28/2021 9:45:00 AM 7.56 45.608 0.046 7.02 1540.41 11.64
3/28/2021 10:00:00 AM 7.59 45.662 0.046 6.99 1541.97 11.67
3/28/2021 10:15:00 AM 7.63 45.734 0.045 7.01 1543.37 11.72
3/28/2021 10:30:00 AM 7.67 45.806 0.043 7.05 1546.07 11.8
3/28/2021 10:45:00 AM 7.73 45.914 0.042 7.04 1559.27 11.86
3/28/2021 11:00:00 AM 7.81 46.058 0.06 7 2480.15 11.88
3/28/2021 11:15:00 AM 7.89 46.202 0.059 7.01 2749.95 11.71
3/28/2021 11:30:00 AM 7.94 46.292 0.058 7.07 2843.48 11.78
3/28/2021 11:45:00 AM 8.01 46.418 0.058 7.08 2989.26 11.66
3/28/2021 12:00:00 PM 8.09 46.562 0.058 7.09 2994.22 11.7
3/28/2021 12:15:00 PM 8.15 46.67 0.058 7.17 2943.92 11.73
3/28/2021 12:30:00 PM 8.23 46.814 0.058 7.12 3117.11 11.59
3/28/2021 12:45:00 PM 8.31 46.958 0.057 7.13 3002.01 11.62
3/28/2021 1:00:00 PM 8.41 47.138 0.057 7.15 3068.48 11.41
3/28/2021 1:15:00 PM 8.48 47.264 0.057 7.21 3027.39 11.24
3/28/2021 1:30:00 PM 8.55 47.39 0.057 7.18 3037.19 11.35
3/28/2021 1:45:00 PM 8.61 47.498 0.056 7.17 3029.84 11.47
3/28/2021 2:00:00 PM 8.68 47.624 0.056 7.16 2983.19 11.1
3/28/2021 2:15:00 PM 8.7 47.66 0.056 7.12 2984.27 11.16
3/28/2021 2:30:00 PM 8.72 47.696 0.056 7.11 2988.29 10.93
3/28/2021 2:45:00 PM 8.72 47.696 0.056 7.12 3023.88 11.03
3/28/2021 3:00:00 PM 8.76 47.768 0.056 7.14 3026.38 11.32
3/28/2021 3:15:00 PM 8.77 47.786 0.056 7.13 3031.99 11.1
3/28/2021 3:30:00 PM 8.78 47.804 0.056 7.1 3038.3 11.03
3/28/2021 3:45:00 PM 8.8 47.84 0.056 7.12 3047.54 10.72
3/28/2021 4:00:00 PM 8.82 47.876 0.056 7.1 3054.48 10.87
3/28/2021 4:15:00 PM 8.82 47.876 0.056 7.09 3057.41 10.82
3/28/2021 4:30:00 PM 8.83 47.894 0.056 7.07 3077.95 10.75
3/28/2021 4:45:00 PM 8.87 47.966 0.056 7 3079.9 11.07
3/28/2021 5:00:00 PM 8.86 47.948 0.056 7.06 3104.63 10.25
3/28/2021 5:15:00 PM 8.84 47.912 0.056 7.11 3128.67 10.75
3/28/2021 5:30:00 PM 8.85 47.93 0.057 7 3027.03 11.31
3/28/2021 5:45:00 PM 8.85 47.93 0.057 7.01 3028.59 10.82
3/28/2021 6:00:00 PM 8.83 47.894 0.057 6.98 3023.5 11.15
3/28/2021 6:15:00 PM 8.81 47.858 0.057 6.96 3036.81 11.1
3/28/2021 6:30:00 PM 8.77 47.786 0.057 6.95 3079.61 11.01
3/28/2021 6:45:00 PM 8.74 47.732 0.057 6.94 3102.64 10.96
3/28/2021 7:00:00 PM 8.72 47.696 0.057 6.93 3162.35 11.09
3/28/2021 7:15:00 PM 8.68 47.624 0.057 6.9 3177.42 10.85
3/28/2021 7:30:00 PM 8.63 47.534 0.057 6.9 3187.73 10.97
3/28/2021 7:45:00 PM 8.59 47.462 0.058 6.91 3365.53 10.56
3/28/2021 8:00:00 PM 8.54 47.372 0.058 6.92 3471.83 10.69
3/28/2021 8:15:00 PM 8.47 47.246 0.058 6.95 3594.01 10.54
3/28/2021 8:30:00 PM 8.41 47.138 0.058 6.94 3508.01 10.49
3/28/2021 8:45:00 PM 8.36 47.048 0.058 6.93 3598.54 10.51
3/28/2021 9:00:00 PM 8.29 46.922 0.058 6.99 3608.57 10.55
3/28/2021 9:15:00 PM 8.24 46.832 0.058 7.02 3751.23 10.81
3/28/2021 9:30:00 PM 8.19 46.742 0.058 7.02 3880.76 10.66
3/28/2021 9:45:00 PM 8.14 46.652 0.058 7.01 4009.17 10.71
3/28/2021 10:00:00 PM 8.08 46.544 0.058 7.03 4190.67 10.83
3/28/2021 10:15:00 PM 8.01 46.418 0.058 7.04 4252.62 10.87
3/28/2021 10:30:00 PM 7.96 46.328 0.058 7.04 4489.95 10.86
3/28/2021 10:45:00 PM 7.88 46.184 0.058 7 4555.5 11.03
3/28/2021 11:00:00 PM 7.81 46.058 0.058 7.05 3575.16 11.1
3/28/2021 11:15:00 PM 7.74 45.932 0.058 7.06 2815.16 11.05
3/28/2021 11:30:00 PM 7.68 45.824 0.058 7.04 3596.28 11.2
3/28/2021 11:45:00 PM 7.62 45.716 0.058 7.05 3657.08 10.97
3/29/2021 12:00:00 AM 7.55 45.59 0.058 7.03 3684.88 11.06
3/29/2021 12:15:00 AM 7.48 45.464 0.058 7.03 3687.57 11.13
3/29/2021 12:30:00 AM 7.41 45.338 0.058 7.03 3772.89 11.04
3/29/2021 12:45:00 AM 7.34 45.212 0.058 7.03 3822.64 11.09
3/29/2021 1:00:00 AM 7.28 45.104 0.058 7.02 3980.84 11.17
3/29/2021 1:15:00 AM 7.21 44.978 0.058 7.03 3950.48 11.25
3/29/2021 1:30:00 AM 7.15 44.87 0.058 7.03 3942.9 11.25
3/29/2021 1:45:00 AM 7.09 44.762 0.058 7.03 3911.28 11.19
3/29/2021 2:00:00 AM 7.03 44.654 0.057 7.04 3925.81 11.22
3/29/2021 2:15:00 AM 6.96 44.528 0.057 7.03 3921.48 11.24
3/29/2021 2:30:00 AM 6.9 44.42 0.057 7.04 3946.99 11.37
3/29/2021 2:45:00 AM 6.84 44.312 0.057 7.05 3964.4 11.35
3/29/2021 3:00:00 AM 6.79 44.222 0.057 7.01 4006.36 11.23
3/29/2021 3:15:00 AM 6.71 44.078 0.057 7.04 4021.48 11.39
3/29/2021 3:30:00 AM 6.66 43.988 0.057 7.04 4039.4 11.38
3/29/2021 3:45:00 AM 6.59 43.862 0.057 7.04 4073.05 11.2
3/29/2021 4:00:00 AM 6.52 43.736 0.057 7.04 4093.48 11.52
3/29/2021 4:15:00 AM 6.47 43.646 0.057 7.04 4123.1 11.38
3/29/2021 4:30:00 AM 6.42 43.556 0.057 7.04 4143.82 11.37
3/29/2021 4:45:00 AM 6.37 43.466 0.057 7.04 4161.05 11.42
3/29/2021 5:00:00 AM 6.32 43.376 0.057 7.04 4175.5 11.39
3/29/2021 5:15:00 AM 6.27 43.286 0.057 7.03 4232.44 11.36
3/29/2021 5:30:00 AM 6.21 43.178 0.057 7.03 4248.16 11.46
3/29/2021 5:45:00 AM 6.16 43.088 0.056 7.02 4267.41 11.41
3/29/2021 6:00:00 AM 6.11 42.998 0.056 7.04 4319.49 11.59
3/29/2021 6:15:00 AM 6.06 42.908 0.057 7.04 4247.21 11.65
3/29/2021 6:30:00 AM 5.99 42.782 0.057 7.04 4250.06 11.36
3/29/2021 6:45:00 AM 5.94 42.692 0.057 7.03 4280.09 11.48
3/29/2021 7:00:00 AM 5.9 42.62 0.056 7.03 4296.31 11.42
3/29/2021 7:15:00 AM 5.85 42.53 0.056 7.03 4336.09 11.52
3/29/2021 7:30:00 AM 5.8 42.44 0.056 7.03 4335.8 11.7
3/29/2021 7:45:00 AM 5.75 42.35 0.056 7.03 4376.35 11.81
3/29/2021 8:00:00 AM 5.71 42.278 0.056 7.04 4407.25 11.9
3/29/2021 8:15:00 AM 5.68 42.224 0.056 7.04 4429.31 11.89
3/29/2021 8:30:00 AM 5.65 42.17 0.056 7.01 4438.39 12
3/29/2021 8:45:00 AM 5.63 42.134 0.056 7.05 4441.11 11.98
3/29/2021 9:00:00 AM 5.61 42.098 0.056 7.06 4452.2 12.07
3/29/2021 9:15:00 AM 5.61 42.098 0.055 7.07 4461.33 12.22
3/29/2021 9:30:00 AM 5.61 42.098 0.055 7.08 4474.85 12.31
3/29/2021 9:45:00 AM 5.61 42.098 0.055 7.09 4479.26 12.52
3/29/2021 10:00:00 AM 5.59 42.062 0.055 7.13 4557.35 12.55
3/29/2021 10:15:00 AM 5.58 42.044 0.055 7.11 4568.01 12.71
3/29/2021 10:30:00 AM 5.59 42.062 0.055 7.16 4564.83 12.84
3/29/2021 10:45:00 AM 5.61 42.098 0.055 7.16 4585.04 12.87
3/29/2021 11:00:00 AM 5.64 42.152 0.054 7.14 4583.3 12.68
3/29/2021 11:15:00 AM 5.68 42.224 0.054 7.14 4596.35 12.5
3/29/2021 11:30:00 AM 5.73 42.314 0.054 7.13 4624.65 12.54
3/29/2021 11:45:00 AM 5.75 42.35 0.054 7.12 4666.52 12.69
3/29/2021 12:00:00 PM 5.79 42.422 0.054 7.11 4685.44 12.61
3/29/2021 12:15:00 PM 5.91 42.638 0.054 7.07 4699.81 12.32
3/29/2021 12:30:00 PM 6.01 42.818 0.054 7.09 4725.82 12.48
3/29/2021 12:45:00 PM 6.13 43.034 0.054 7.1 4763.58 12.46
3/29/2021 1:00:00 PM 6.25 43.25 0.054 7.08 4771.09 12.47
3/29/2021 1:15:00 PM 6.36 43.448 0.054 7.07 4784.13 12.59
3/29/2021 1:30:00 PM 6.45 43.61 0.054 7.06 4782.11 12.23
3/29/2021 1:45:00 PM 6.51 43.718 0.054 7.08 4780.1 12.42
3/29/2021 2:00:00 PM 6.76 44.168 0.054 7.09 4816.27 12.37
3/29/2021 2:15:00 PM 7.05 44.69 0.054 7.1 4866.7 12.44
3/29/2021 2:30:00 PM 7.29 45.122 0.054 7.04 4891.88 12.25
3/29/2021 2:45:00 PM 7.48 45.464 0.054 7.1 4939.06 12.36
3/29/2021 3:00:00 PM 7.61 45.698 0.054 7.08 4991.33 12.06
3/29/2021 3:15:00 PM 7.77 45.986 0.054 7.06 4995.33 12.2
3/29/2021 3:30:00 PM 7.97 46.346 0.054 7.06 5021.13 11.94
3/29/2021 3:45:00 PM 8.15 46.67 0.054 7.08 5073.75 11.82
3/29/2021 4:00:00 PM 8.29 46.922 0.054 7.07 5108.72 12.21
3/29/2021 4:15:00 PM 8.37 47.066 0.054 7.06 5157.77 11.77
3/29/2021 4:30:00 PM 8.43 47.174 0.054 7.05 5231.86 11.82
3/29/2021 4:45:00 PM 8.48 47.264 0.054 7.04 5288.81 11.79
3/29/2021 5:00:00 PM 8.48 47.264 0.054 7.05 5148.66 11.66
3/29/2021 5:15:00 PM 8.46 47.228 0.054 7.03 5438.15 11.6
3/29/2021 5:30:00 PM 8.42 47.156 0.054 7.06 5509.6 11.54
3/29/2021 5:45:00 PM 8.38 47.084 0.054 7.04 5554.68 11.54
3/29/2021 6:00:00 PM 8.32 46.976 0.054 7.02 5606.68 11.6
3/29/2021 6:15:00 PM 8.24 46.832 0.054 7.03 5677.36 11.65
3/29/2021 6:30:00 PM 8.14 46.652 0.054 7.01 5946.28 11.53
3/29/2021 6:45:00 PM 8.02 46.436 0.054 7 6041.71 11.37
3/29/2021 7:00:00 PM 7.9 46.22 0.054 6.99 6057.08 11.57
3/29/2021 7:15:00 PM 7.78 46.004 0.054 6.96 6420.58 11.54
3/29/2021 7:30:00 PM 7.67 45.806 0.054 6.96 6597.11 11.56
3/29/2021 7:45:00 PM 7.57 45.626 0.054 6.94 6787.68 11.55
3/29/2021 8:00:00 PM 7.47 45.446 0.054 6.93 6518.5 11.49
3/29/2021 8:15:00 PM 7.35 45.23 0.054 6.93 6266.86 11.45
3/29/2021 8:30:00 PM 7.25 45.05 0.054 6.88 6331.8 11.46
3/29/2021 8:45:00 PM 7.16 44.888 0.054 6.93 6386.7 11.42
3/29/2021 9:00:00 PM 7.07 44.726 0.055 6.91 6477.39 11.42
3/29/2021 9:15:00 PM 6.99 44.582 0.054 6.88 7213.74 11.48
3/29/2021 9:30:00 PM 6.91 44.438 0.055 6.91 7357.74 11.46
3/29/2021 9:45:00 PM 6.82 44.276 0.054 6.86 7465.91 11.53
3/29/2021 10:00:00 PM 6.75 44.15 0.055 6.88 7591.89 11.37
3/29/2021 10:15:00 PM 6.67 44.006 0.055 6.86 7592.89 11.39
3/29/2021 10:30:00 PM 6.6 43.88 0.055 6.87 7784.71 11.37
3/29/2021 10:45:00 PM 6.52 43.736 0.055 6.86 7944.53 11.41
3/29/2021 11:00:00 PM 6.45 43.61 0.055 6.86 8190.6 11.4
3/29/2021 11:15:00 PM 6.41 43.538 0.06 6.86 1853.41 9.39
3/29/2021 11:30:00 PM 6.35 43.43 0.06 6.87 1145.86 10.46
3/29/2021 11:45:00 PM 6.29 43.322 0.06 6.86 1164.98 10.62
3/30/2021 12:00:00 AM 6.21 43.178 0.06 6.87 1074.16 10.88
3/30/2021 12:15:00 AM 6.14 43.052 0.06 6.88 981.56 10.79
3/30/2021 12:30:00 AM 6.07 42.926 0.06 6.89 898.16 10.77
3/30/2021 12:45:00 AM 6 42.8 0.059 6.89 829.46 10.84
3/30/2021 1:00:00 AM 5.93 42.674 0.059 6.88 793.78 11.05
3/30/2021 1:15:00 AM 5.85 42.53 0.059 6.9 771.06 11.22
3/30/2021 1:30:00 AM 5.78 42.404 0.058 6.9 749.38 11.24
3/30/2021 1:45:00 AM 5.71 42.278 0.058 6.89 730.8 11.26
3/30/2021 2:00:00 AM 5.63 42.134 0.058 6.92 707.04 11.42
3/30/2021 2:15:00 AM 5.57 42.026 0.057 6.93 683.13 11.38
3/30/2021 2:30:00 AM 5.5 41.9 0.057 6.92 653.92 11.42
3/30/2021 2:45:00 AM 5.42 41.756 0.057 6.95 642.55 11.51
3/30/2021 3:00:00 AM 5.35 41.63 0.057 6.91 630.5 11.54
3/30/2021 3:15:00 AM 5.28 41.504 0.057 6.92 618.58 11.56
3/30/2021 3:30:00 AM 5.21 41.378 0.057 6.93 622.11 11.65
3/30/2021 3:45:00 AM 5.14 41.252 0.056 6.92 614 11.71
3/30/2021 4:00:00 AM 5.06 41.108 0.055 6.91 608.16 11.75
3/30/2021 4:15:00 AM 4.99 40.982 0.055 6.92 609.07 11.81
3/30/2021 4:30:00 AM 4.93 40.874 0.054 6.9 599.73 11.83
3/30/2021 4:45:00 AM 4.86 40.748 0.054 6.9 594.1 11.81
3/30/2021 5:00:00 AM 4.8 40.64 0.054 6.92 589.82 11.77
3/30/2021 5:15:00 AM 4.74 40.532 0.054 6.92 584.79 11.81
3/30/2021 5:30:00 AM 4.68 40.424 0.054 6.91 579.18 11.78
3/30/2021 5:45:00 AM 4.62 40.316 0.053 6.92 579.17 12.01
3/30/2021 6:00:00 AM 4.56 40.208 0.053 6.91 579.16 12.03
3/30/2021 6:15:00 AM 4.51 40.118 0.052 6.92 567.14 12.07
3/30/2021 6:30:00 AM 4.45 40.01 0.052 6.86 570.09 12.09
3/30/2021 6:45:00 AM 4.4 39.92 0.052 6.93 571.98 12.11
3/30/2021 7:00:00 AM 4.34 39.812 0.052 6.92 572.29 12.17
3/30/2021 7:15:00 AM 4.29 39.722 0.051 6.93 559.43 12.1
3/30/2021 7:30:00 AM 4.24 39.632 0.051 6.92 566.69 12.12
3/30/2021 7:45:00 AM 4.2 39.56 0.05 6.93 567.64 12.16
3/30/2021 8:00:00 AM 4.15 39.47 0.05 6.93 587.7 12.05
3/30/2021 8:15:00 AM 4.11 39.398 0.049 6.93 574.6 12.2
3/30/2021 8:30:00 AM 4.08 39.344 0.049 6.93 580.86 12.41
3/30/2021 8:45:00 AM 4.07 39.326 0.049 6.89 585.1 12.37
3/30/2021 9:00:00 AM 4.08 39.344 0.048 6.91 573.41 12.53
3/30/2021 9:15:00 AM 4.09 39.362 0.048 6.92 572.94 12.61
3/30/2021 9:30:00 AM 4.11 39.398 0.048 6.92 575.03 13.1
3/30/2021 9:45:00 AM 4.15 39.47 0.047 6.91 584.64 12.93
3/30/2021 10:00:00 AM 4.19 39.542 0.047 6.93 600.71 12.94
3/30/2021 10:15:00 AM 4.27 39.686 0.046 6.93 619.81 12.93
3/30/2021 10:30:00 AM 4.37 39.866 0.046 6.93 627.19 12.93
3/30/2021 10:45:00 AM 4.51 40.118 0.045 6.89 639.08 12.91
3/30/2021 11:00:00 AM 4.69 40.442 0.045 6.94 632.02 13.01
3/30/2021 11:15:00 AM 4.88 40.784 0.044 6.94 656.74 12.93
3/30/2021 11:30:00 AM 5.08 41.144 0.043 6.96 639.88 12.87
3/30/2021 11:45:00 AM 5.29 41.522 0.041 6.95 589.63 12.76
3/30/2021 12:00:00 PM 5.5 41.9 0.055 6.84 920.48 10.68
3/30/2021 12:15:00 PM 5.75 42.35 0.052 6.87 924.15 12.31
3/30/2021 12:30:00 PM 6.01 42.818 0.052 6.88 1109.58 12.4
3/30/2021 12:45:00 PM 6.31 43.358 0.052 6.88 1170.29 12.46
3/30/2021 1:00:00 PM 6.6 43.88 0.051 6.89 1136.24 12.39
3/30/2021 1:15:00 PM 6.89 44.402 0.051 6.89 1196.9 12.3
3/30/2021 1:30:00 PM 7.19 44.942 0.051 6.91 1188.53 12.17
3/30/2021 1:45:00 PM 7.5 45.5 0.051 6.93 1207.62 12.1
3/30/2021 2:00:00 PM 7.84 46.112 0.051 6.91 1208.82 11.99
3/30/2021 2:15:00 PM 8.17 46.706 0.05 6.92 1226.64 12.03
3/30/2021 2:30:00 PM 8.5 47.3 0.05 6.92 1225.89 12.04
3/30/2021 2:45:00 PM 8.81 47.858 0.05 6.92 1166.81 11.93
3/30/2021 3:00:00 PM 9.09 48.362 0.049 6.93 1190.46 11.89
3/30/2021 3:15:00 PM 9.34 48.812 0.049 6.93 1179.4 11.65
3/30/2021 3:30:00 PM 9.57 49.226 0.049 6.94 1176.11 11.51
3/30/2021 3:45:00 PM 9.78 49.604 0.048 6.91 1145.35 11.43
3/30/2021 4:00:00 PM 9.94 49.892 0.048 6.89 1112.56 11.35
3/30/2021 4:15:00 PM 10.07 50.126 0.047 6.94 1100.19 11.33
3/30/2021 4:30:00 PM 10.18 50.324 0.047 6.94 1135.83 11.37
3/30/2021 4:45:00 PM 10.24 50.432 0.046 6.96 1132.51 11.4
3/30/2021 5:00:00 PM 10.27 50.486 0.046 6.96 1130.84 11.43
3/30/2021 5:15:00 PM 10.29 50.522 0.044 6.96 1099.95 11.38
3/30/2021 5:30:00 PM 10.26 50.468 0.043 6.96 1105.09 11.24
3/30/2021 5:45:00 PM 10.22 50.396 0.04 6.96 1139.06 11.11
3/30/2021 6:00:00 PM 10.16 50.288 0.054 6.86 1595.35 10.2
3/30/2021 6:15:00 PM 10.14 50.252 0.053 6.88 1965.89 10.44
3/30/2021 6:30:00 PM 10.09 50.162 0.053 6.88 1779.94 10.53
3/30/2021 6:45:00 PM 10.01 50.018 0.053 6.85 1638.31 10.79
3/30/2021 7:00:00 PM 9.95 49.91 0.053 6.9 1578.1 11.02
3/30/2021 7:15:00 PM 9.9 49.82 0.053 6.89 1536.53 10.95
3/30/2021 7:30:00 PM 9.83 49.694 0.052 6.84 1507.01 10.78
3/30/2021 7:45:00 PM 9.78 49.604 0.052 6.87 1525.86 10.68
3/30/2021 8:00:00 PM 9.71 49.478 0.051 6.87 1470.68 10.69
3/30/2021 8:15:00 PM 9.63 49.334 0.049 6.89 1408.48 10.65
3/30/2021 8:30:00 PM 9.55 49.19 0.047 6.84 1295.52 10.55
3/30/2021 8:45:00 PM 9.47 49.046 0.045 6.87 1195.57 10.65
3/30/2021 9:00:00 PM 9.4 48.92 0.044 6.86 1105.74 10.66
3/30/2021 9:15:00 PM 9.34 48.812 0.042 6.87 995.12 10.27
3/30/2021 9:30:00 PM 9.28 48.704 0.037 6.87 969.91 10.01
3/30/2021 9:45:00 PM 9.24 48.632 0.048 6.91 1058.85 9.37
3/30/2021 10:00:00 PM 9.19 48.542 0.046 6.96 1393.75 9.37
3/30/2021 10:15:00 PM 9.14 48.452 0.046 6.98 1807.2 9.42
3/30/2021 10:30:00 PM 9.08 48.344 0.045 7.02 2313.93 10.46
3/30/2021 10:45:00 PM 9.04 48.272 0.044 7.03 2869.92 10.62
3/30/2021 11:00:00 PM 9 48.2 0.044 7 3318.7 10.7
3/30/2021 11:15:00 PM 8.96 48.128 0.043 7.04 3389.78 10.67
3/30/2021 11:30:00 PM 8.91 48.038 0.042 7.05 3527.55 10.61
3/30/2021 11:45:00 PM 8.87 47.966 0.041 7.07 3623.84 10.51
3/31/2021 12:00:00 AM 8.82 47.876 0.044 6.98 758.52 9.38
3/31/2021 12:15:00 AM 8.78 47.804 0.042 7.19 901.11 8.44
3/31/2021 12:30:00 AM 8.73 47.714 0.041 7.18 881.33 7.92
3/31/2021 12:45:00 AM 8.68 47.624 0.041 7.18 674.4 7.33
3/31/2021 1:00:00 AM 8.63 47.534 0.04 7.17 371.55 6.97
3/31/2021 1:15:00 AM 8.59 47.462 0.04 7.16 420.2 8.23
3/31/2021 1:30:00 AM 8.55 47.39 0.04 7.16 511.76 8.78
3/31/2021 1:45:00 AM 8.5 47.3 0.04 7.15 636.83 8.58
3/31/2021 2:00:00 AM 8.46 47.228 0.04 7.15 890.03 8.75
3/31/2021 2:15:00 AM 8.42 47.156 0.04 7.13 941.24 9.03
3/31/2021 2:30:00 AM 8.37 47.066 0.039 7.15 979.88 9.18
3/31/2021 2:45:00 AM 8.32 46.976 0.039 7.15 851.95 9.04
3/31/2021 3:00:00 AM 8.28 46.904 0.039 7.14 685.45 8.83
3/31/2021 3:15:00 AM 8.23 46.814 0.039 7.14 765.04 8.86
3/31/2021 3:30:00 AM 8.18 46.724 0.039 7.15 356.68 8.97
3/31/2021 3:45:00 AM 8.13 46.634 0.039 7.15 667.25 8.82
3/31/2021 4:00:00 AM 8.07 46.526 0.039 7.16 426.97 8.63
3/31/2021 4:15:00 AM 8.02 46.436 0.039 7.15 234.76 8.82
3/31/2021 4:30:00 AM 7.98 46.364 0.039 7.15 273.65 9.21
3/31/2021 4:45:00 AM 7.93 46.274 0.039 7.15 376.29 9.29
3/31/2021 5:00:00 AM 7.89 46.202 0.039 7.12 605.68 8.81
3/31/2021 5:15:00 AM 7.86 46.148 0.039 7.11 796.17 8.81
3/31/2021 5:30:00 AM 7.82 46.076 0.039 7.03 889.25 8.75
3/31/2021 5:45:00 AM 7.79 46.022 0.039 7.07 888.52 8.21
3/31/2021 6:00:00 AM 7.76 45.968 0.039 7.1 1059.79 9.06
3/31/2021 6:15:00 AM 7.73 45.914 0.04 7.08 1784.39 9.7
3/31/2021 6:30:00 AM 7.69 45.842 0.04 7.05 2856.38 9.57
3/31/2021 6:45:00 AM 7.66 45.788 0.041 7.08 3603.42 10.31
3/31/2021 7:00:00 AM 7.64 45.752 0.042 7.07 3714.75 10.53
3/31/2021 7:15:00 AM 7.61 45.698 0.042 7.13 3726.54 10.74
3/31/2021 7:30:00 AM 7.58 45.644 0.043 7.14 4005.3 10.92
3/31/2021 7:45:00 AM 7.56 45.608 0.043 7.11 4010.51 10.87
3/31/2021 8:00:00 AM 7.54 45.572 0.043 7.07 4248.25 10.83
3/31/2021 8:15:00 AM 7.53 45.554 0.043 7.12 3140.91 10.85
3/31/2021 8:30:00 AM 7.51 45.518 0.044 7.13 2482.74 11
3/31/2021 8:45:00 AM 7.5 45.5 0.046 7.12 2457.69 11
3/31/2021 9:00:00 AM 7.49 45.482 0.048 7.13 2586.53 10.97
3/31/2021 9:15:00 AM 7.47 45.446 0.047 7.21 2890.16 10.58
3/31/2021 9:30:00 AM 7.47 45.446 0.049 7.1 3431.06 10.47
3/31/2021 9:45:00 AM 7.46 45.428 0.046 7.24 3617.05 10.75
3/31/2021 10:00:00 AM 7.46 45.428 0.046 7.26 4233.48 10.91
3/31/2021 10:15:00 AM 7.48 45.464 0.051 7.33 4899.48 10.89
3/31/2021 10:30:00 AM 7.49 45.482 0.05 7.37 5481.23 10.75
3/31/2021 10:45:00 AM 7.5 45.5 0.049 7.33 6169.81 10.66
3/31/2021 11:00:00 AM 7.51 45.518 0.052 7.23 7408.22 10.33
3/31/2021 11:15:00 AM 7.52 45.536 0.054 7.34 7757.15 10.92
3/31/2021 11:30:00 AM 7.53 45.554 0.053 7.36 7442.17 11.5
3/31/2021 11:45:00 AM 7.55 45.59 0.054 7.39 7444.11 11.6
3/31/2021 12:00:00 PM 7.57 45.626 0.053 7.37 7438.34 11.24
3/31/2021 12:15:00 PM 7.58 45.644 0.052 7.33 7741.7 11.64
3/31/2021 12:30:00 PM 7.6 45.68 0.05 7.34 7455.33 11.24
3/31/2021 12:45:00 PM 7.66 45.788 0.051 7.37 7724.72 11.64
3/31/2021 1:00:00 PM 7.72 45.896 0.051 7.41 8013.85 11.49
3/31/2021 1:15:00 PM 7.74 45.932 0.05 7.29 7999.95 11.53
3/31/2021 1:30:00 PM 7.75 45.95 0.05 7.34 8297.75 11.49
3/31/2021 1:45:00 PM 7.77 45.986 0.05 7.29 8556.43 11.62
3/31/2021 2:00:00 PM 7.79 46.022 0.049 7.36 8792.61 11.75
3/31/2021 2:15:00 PM 7.81 46.058 0.05 7.32 8514.62 11.7
3/31/2021 2:30:00 PM 7.82 46.076 0.049 7.3 8213.59 11.84
3/31/2021 2:45:00 PM 7.83 46.094 0.05 7.35 7955.93 11.71
3/31/2021 3:00:00 PM 7.83 46.094 0.051 7.33 8036.64 11.65
3/31/2021 3:15:00 PM 7.85 46.13 0.052 7.39 8019.3 11.71
3/31/2021 3:30:00 PM 7.87 46.166 0.052 7.43 8100.25 11.74
3/31/2021 3:45:00 PM 7.9 46.22 0.054 7.43 8136.63 11.72
3/31/2021 4:00:00 PM 7.93 46.274 0.052 7.36 8041.14 11.73
3/31/2021 4:15:00 PM 7.96 46.328 0.052 7.43 8264.27 11.76
3/31/2021 4:30:00 PM 7.99 46.382 0.052 7.46 8686.16 11.82
3/31/2021 4:45:00 PM 8.01 46.418 0.049 7.43 9220.84 11.41
3/31/2021 5:00:00 PM 8.02 46.436 0.047 7.46 9745.96 11.43
3/31/2021 5:15:00 PM 8.04 46.472 0.046 7.5 9109.36 11.51
3/31/2021 5:30:00 PM 8.06 46.508 0.046 7.48 8815.25 11.81
3/31/2021 5:45:00 PM 8.08 46.544 0.045 7.5 8972.47 11.83
3/31/2021 6:00:00 PM 8.08 46.544 0.047 7.48 9111.79 11.84
3/31/2021 6:15:00 PM 8.08 46.544 0.048 7.44 9461.15 11.86
3/31/2021 6:30:00 PM 8.08 46.544 0.045 7.5 9421.23 11.29
3/31/2021 6:45:00 PM 8.08 46.544 0.044 7.47 9404.55 11.46
3/31/2021 7:00:00 PM 8.06 46.508 0.045 7.47 9493.75 11.82
3/31/2021 7:15:00 PM 8.05 46.49 0.044 7.42 9586.5 11.73
3/31/2021 7:30:00 PM 8.02 46.436 0.044 7.37 9692.96 11.68
3/31/2021 7:45:00 PM 7.98 46.364 0.043 7.35 9730.34 11.58
3/31/2021 8:00:00 PM 7.94 46.292 0.043 7.34 9691.32 11.52
3/31/2021 8:15:00 PM 7.9 46.22 0.042 7.29 9430.7 11.48
3/31/2021 8:30:00 PM 7.84 46.112 0.036 7.25 9497.55 11.45
3/31/2021 8:45:00 PM 7.79 46.022 0.048 7.14 579.09 10.35
3/31/2021 9:00:00 PM 7.74 45.932 0.049 7.28 378.47 8.84
3/31/2021 9:15:00 PM 7.68 45.824 0.05 7.25 515.15 8.1
3/31/2021 9:30:00 PM 7.63 45.734 0.051 7.18 680.56 8.11
3/31/2021 9:45:00 PM 7.57 45.626 0.051 7.24 854.45 8.32
3/31/2021 10:00:00 PM 7.52 45.536 0.051 7.18 961.05 9.15
3/31/2021 10:15:00 PM 7.47 45.446 0.051 7.2 1056.38 8.95
3/31/2021 10:30:00 PM 7.43 45.374 0.051 7.22 1186.56 9.47
3/31/2021 10:45:00 PM 7.39 45.302 0.051 7.21 1332.63 10.03
3/31/2021 11:00:00 PM 7.35 45.23 0.052 7.21 1412.75 10.32
3/31/2021 11:15:00 PM 7.31 45.158 0.052 7.21 1693.8 10
3/31/2021 11:30:00 PM 7.27 45.086 0.052 7.21 1795.16 10.12
3/31/2021 11:45:00 PM 7.23 45.014 0.052 7.2 1961.79 10.79
4/1/2021 12:00:00 AM 7.19 44.942 0.052 7.18 2100.34 10.2
4/1/2021 12:15:00 AM 7.15 44.87 0.052 7.23 2381.61 10.46
4/1/2021 12:30:00 AM 7.12 44.816 0.052 7.23 2900.37 10.17
4/1/2021 12:45:00 AM 7.08 44.744 0.052 7.17 4140.88 10.35
4/1/2021 1:00:00 AM 7.03 44.654 0.052 7.22 5581.46 10.25
4/1/2021 1:15:00 AM 6.98 44.564 0.052 7.22 6965.29 10.7
4/1/2021 1:30:00 AM 6.94 44.492 0.052 7.22 7837.31 10.7
4/1/2021 1:45:00 AM 6.9 44.42 0.051 7.22 12260.71 10.58
4/1/2021 2:00:00 AM 6.85 44.33 0.051 7.22 15582.17 10.92
4/1/2021 2:15:00 AM 6.81 44.258 0.05 7.23 15958.3 10.79
4/1/2021 2:30:00 AM 6.77 44.186 0.05 7.22 16219.87 10.62
4/1/2021 2:45:00 AM 6.72 44.096 0.05 7.23 16249.01 10.72
4/1/2021 3:00:00 AM 6.69 44.042 0.049 7.18 16304.63 10.6
4/1/2021 3:15:00 AM 6.65 43.97 0.049 7.22 16373.48 10.87
4/1/2021 3:30:00 AM 6.61 43.898 0.049 7.22 16313.73 11
4/1/2021 3:45:00 AM 6.58 43.844 0.048 7.23 16248.63 11.12
4/1/2021 4:00:00 AM 6.54 43.772 0.048 7.22 16207.75 11.3
4/1/2021 4:15:00 AM 6.5 43.7 0.047 7.23 16186.13 11.12
4/1/2021 4:30:00 AM 6.46 43.628 0.047 7.23 16183.97 11.24
4/1/2021 4:45:00 AM 6.41 43.538 0.047 7.18 16209.06 11.23
4/1/2021 5:00:00 AM 6.37 43.466 0.046 7.23 16180.24 10.92
4/1/2021 5:15:00 AM 6.33 43.394 0.046 7.24 16206.61 10.97
4/1/2021 5:30:00 AM 6.28 43.304 0.046 7.19 16170.88 11.1
4/1/2021 5:45:00 AM 6.24 43.232 0.046 7.24 16190.38 11.06
4/1/2021 6:00:00 AM 6.2 43.16 0.045 7.19 16109.97 10.89
4/1/2021 6:15:00 AM 6.15 43.07 0.044 7.24 15915.02 11.11
4/1/2021 6:30:00 AM 6.1 42.98 0.043 7.23 15742.74 10.59
4/1/2021 6:45:00 AM 6.05 42.89 0.049 7.05 276.94 10.72
4/1/2021 7:00:00 AM 5.99 42.782 0.046 7.16 353.85 11.17
4/1/2021 7:15:00 AM 5.94 42.692 0.045 7.2 334.32 10.8
4/1/2021 7:30:00 AM 5.9 42.62 0.044 7.21 316.63 10.02
4/1/2021 7:45:00 AM 5.86 42.548 0.044 7.22 297.14 9.3
4/1/2021 8:00:00 AM 5.82 42.476 0.044 7.23 286.48 8.63
4/1/2021 8:15:00 AM 5.8 42.44 0.044 7.25 295.62 8.1
4/1/2021 8:30:00 AM 5.78 42.404 0.044 7.29 306.55 7.75
4/1/2021 8:45:00 AM 5.75 42.35 0.044 7.33 301.19 7.67
4/1/2021 9:00:00 AM 5.73 42.314 0.043 7.36 297.32 6.83
4/1/2021 9:15:00 AM 5.71 42.278 0.043 7.37 305.83 4.61
4/1/2021 9:30:00 AM 5.68 42.224 0.043 7.38 291.25 3.32
4/1/2021 9:45:00 AM 5.66 42.188 0.043 7.41 308.1 3.31
4/1/2021 10:00:00 AM 5.66 42.188 0.043 7.44 299.22 4.03
4/1/2021 10:15:00 AM 5.67 42.206 0.043 7.46 287.03 3.2
4/1/2021 10:30:00 AM 5.65 42.17 0.043 7.49 269.59 3.55
4/1/2021 10:45:00 AM 5.64 42.152 0.043 7.5 262.1 3.28
4/1/2021 11:00:00 AM 5.66 42.188 0.043 7.53 266.34 3.31
4/1/2021 11:15:00 AM 5.72 42.296 0.043 7.55 255.61 3.33
4/1/2021 11:30:00 AM 5.77 42.386 0.043 7.56 257.87 3.25
4/1/2021 11:45:00 AM 5.88 42.584 0.043 7.58 259.78 3.16
4/1/2021 12:00:00 PM 6.07 42.926 0.043 7.6 253.42 3.06
4/1/2021 12:15:00 PM 6.11 42.998 0.043 7.61 252.18 3.15
4/1/2021 12:30:00 PM 6.19 43.142 0.044 7.62 254.87 3.55
4/1/2021 12:45:00 PM 6.25 43.25 0.044 7.63 256.94 4.13
4/1/2021 1:00:00 PM 6.3 43.34 0.044 7.64 261.5 4.53
4/1/2021 1:15:00 PM 6.33 43.394 0.044 7.71 266.91 4.66
4/1/2021 1:30:00 PM 6.34 43.412 0.044 7.7 269.59 4.89
4/1/2021 1:45:00 PM 6.36 43.448 0.044 7.71 272.94 4.98
4/1/2021 2:00:00 PM 6.37 43.466 0.044 7.71 270.05 4.57
4/1/2021 2:15:00 PM 6.37 43.466 0.044 7.68 269.55 4.12
4/1/2021 2:30:00 PM 6.36 43.448 0.044 7.72 266.65 4.36
4/1/2021 2:45:00 PM 6.35 43.43 0.044 7.73 261.29 4.45
4/1/2021 3:00:00 PM 6.35 43.43 0.044 7.76 259.59 4.51
4/1/2021 3:15:00 PM 6.33 43.394 0.044 7.75 259.16 4.37
4/1/2021 3:30:00 PM 6.29 43.322 0.044 7.75 258.57 4.16
4/1/2021 3:45:00 PM 6.27 43.286 0.045 7.76 243.41 4.26
4/1/2021 4:00:00 PM 6.31 43.358 0.045 7.77 227.22 4.42
4/1/2021 4:15:00 PM 6.3 43.34 0.046 7.74 222.29 4.49
4/1/2021 4:30:00 PM 6.29 43.322 0.047 7.66 217.88 4.61
4/1/2021 4:45:00 PM 6.29 43.322 0.047 7.7 218.01 4.62
4/1/2021 5:00:00 PM 6.29 43.322 0.047 7.72 219.22 4.96
4/1/2021 5:15:00 PM 6.26 43.268 0.048 7.74 220.23 5.45
4/1/2021 5:30:00 PM 6.2 43.16 0.048 7.71 228.65 5.73
4/1/2021 5:45:00 PM 6.14 43.052 0.049 7.67 247.93 5.9
4/1/2021 6:00:00 PM 6.07 42.926 0.05 7.65 260.94 6.08
4/1/2021 6:15:00 PM 5.99 42.782 0.05 7.59 259.88 6.1
4/1/2021 6:30:00 PM 5.93 42.674 0.051 7.54 324.01 6.2
4/1/2021 6:45:00 PM 5.85 42.53 0.052 7.57 322.73 6.02
4/1/2021 7:00:00 PM 5.76 42.368 0.052 7.54 488.17 5.94
4/1/2021 7:15:00 PM 5.69 42.242 0.053 7.53 377.6 6.56
4/1/2021 7:30:00 PM 5.62 42.116 0.054 7.44 277.45 7.36
4/1/2021 7:45:00 PM 5.54 41.972 0.054 7.44 270.81 7.96
4/1/2021 8:00:00 PM 5.46 41.828 0.053 7.39 271.44 8.56
4/1/2021 8:15:00 PM 5.37 41.666 0.053 7.36 280.9 8.97
4/1/2021 8:30:00 PM 5.29 41.522 0.052 7.32 278.7 9.09
4/1/2021 8:45:00 PM 5.22 41.396 0.052 7.29 280.52 9.46
4/1/2021 9:00:00 PM 5.13 41.234 0.052 7.3 277.95 9.66
4/1/2021 9:15:00 PM 5.03 41.054 0.051 7.26 262.89 9.81
4/1/2021 9:30:00 PM 4.95 40.91 0.05 7.27 290.17 9.94
4/1/2021 9:45:00 PM 4.88 40.784 0.049 7.26 301.29 10.4
4/1/2021 10:00:00 PM 4.79 40.622 0.048 7.25 315.86 10.99
4/1/2021 10:15:00 PM 4.73 40.514 0.047 7.26 326.32 11.41
4/1/2021 10:30:00 PM 4.68 40.424 0.046 7.24 326.63 11.63
4/1/2021 10:45:00 PM 4.63 40.334 0.045 7.24 324 11.71
4/1/2021 11:00:00 PM 4.58 40.244 0.043 7.24 330.06 12.2
4/1/2021 11:15:00 PM 4.51 40.118 0.041 7.24 4218.68 12.4
4/1/2021 11:30:00 PM 4.44 39.992 0.049 7.14 334.21 11.9
4/1/2021 11:45:00 PM 4.36 39.848 0.05 7.23 357.18 9.66
4/2/2021 12:00:00 AM 4.3 39.74 0.05 7.17 358.65 8.59
4/2/2021 12:15:00 AM 4.25 39.65 0.049 7.23 360.4 8.5
4/2/2021 12:30:00 AM 4.19 39.542 0.048 7.23 356.76 8.91
4/2/2021 12:45:00 AM 4.13 39.434 0.047 7.23 355.34 9.24
4/2/2021 1:00:00 AM 4.07 39.326 0.046 7.23 355.15 9.89
4/2/2021 1:15:00 AM 4.02 39.236 0.043 7.23 349.89 10.46
4/2/2021 1:30:00 AM 3.97 39.146 0.048 7.05 1931.39 10.8
4/2/2021 1:45:00 AM 3.91 39.038 0.048 7.22 1333.37 9.27
4/2/2021 2:00:00 AM 3.86 38.948 0.049 7.23 830.88 9.83
4/2/2021 2:15:00 AM 3.8 38.84 0.049 7.21 880.82 9.82
4/2/2021 2:30:00 AM 3.74 38.732 0.05 7.2 935.56 9.76
4/2/2021 2:45:00 AM 3.68 38.624 0.051 7.21 1066.65 9.88
4/2/2021 3:00:00 AM 3.62 38.516 0.052 7.18 1088.92 9.53
4/2/2021 3:15:00 AM 3.55 38.39 0.052 7.15 1040.6 9.32
4/2/2021 3:30:00 AM 3.49 38.282 0.053 7.11 1056.03 9.09
4/2/2021 3:45:00 AM 3.43 38.174 0.053 7.08 1102.09 8.98
4/2/2021 4:00:00 AM 3.37 38.066 0.053 7.05 1144.97 9.05
4/2/2021 4:15:00 AM 3.31 37.958 0.054 7.1 1133.15 9.33
4/2/2021 4:30:00 AM 3.24 37.832 0.054 7.12 1112.43 9.59
4/2/2021 4:45:00 AM 3.19 37.742 0.055 7.12 1057.96 9.77
4/2/2021 5:00:00 AM 3.13 37.634 0.055 7.12 1007.32 9.96
4/2/2021 5:15:00 AM 3.06 37.508 0.055 7.13 962.53 10.11
4/2/2021 5:30:00 AM 3 37.4 0.054 7.09 936.48 10.3
4/2/2021 5:45:00 AM 2.94 37.292 0.054 7.13 906.96 10.42
4/2/2021 6:00:00 AM 2.87 37.166 0.054 7.08 896.74 10.51
4/2/2021 6:15:00 AM 2.81 37.058 0.053 7.12 882.11 10.66
4/2/2021 6:30:00 AM 2.75 36.95 0.052 7.12 819.54 10.77
4/2/2021 6:45:00 AM 2.69 36.842 0.052 7.12 738.97 10.88
4/2/2021 7:00:00 AM 2.62 36.716 0.051 7.13 670.61 11
4/2/2021 7:15:00 AM 2.56 36.608 0.05 7.15 617.93 11.21
4/2/2021 7:30:00 AM 2.51 36.518 0.05 7.15 537.49 11.54
4/2/2021 7:45:00 AM 2.45 36.41 0.049 7.16 473.06 11.76
4/2/2021 8:00:00 AM 2.4 36.32 0.048 7.18 405.81 11.96
4/2/2021 8:15:00 AM 2.35 36.23 0.047 7.21 356.45 12.15
4/2/2021 8:30:00 AM 2.32 36.176 0.046 7.25 339.21 12.19
4/2/2021 8:45:00 AM 2.32 36.176 0.045 7.29 318.57 12.26
4/2/2021 9:00:00 AM 2.35 36.23 0.044 7.17 1183.24 12.17
4/2/2021 9:15:00 AM 2.36 36.248 0.043 7.37 1328.02 10.86
4/2/2021 9:30:00 AM 2.37 36.266 0.044 7.38 1267.6 9.89
4/2/2021 9:45:00 AM 2.39 36.302 0.044 7.4 1196.1 9.57
4/2/2021 10:00:00 AM 2.43 36.374 0.045 7.38 1225.19 9.62
4/2/2021 10:15:00 AM 2.5 36.5 0.045 7.39 1245.18 10.03
4/2/2021 10:30:00 AM 2.6 36.68 0.045 7.43 1276.6 10.53
4/2/2021 10:45:00 AM 2.73 36.914 0.046 7.44 1282.05 11.06
4/2/2021 11:00:00 AM 2.88 37.184 0.046 7.44 1173.9 11.63
4/2/2021 11:15:00 AM 3.04 37.472 0.046 7.44 1077.43 12.14
4/2/2021 11:30:00 AM 3.21 37.778 0.046 7.43 978.04 12.67
4/2/2021 11:45:00 AM 3.39 38.102 0.047 7.46 833.12 12.95
4/2/2021 12:00:00 PM 3.57 38.426 0.047 7.42 548.83 13.11
4/2/2021 12:15:00 PM 3.75 38.75 0.046 7.47 347.26 13.11
4/2/2021 12:30:00 PM 3.94 39.092 0.053 7.25 1174.81 12.63
4/2/2021 12:45:00 PM 4.17 39.506 0.051 7.49 1750.93 11.23
4/2/2021 1:00:00 PM 4.4 39.92 0.051 7.52 2082.32 10.52
4/2/2021 1:15:00 PM 4.65 40.37 0.051 7.53 2122.52 10.15
4/2/2021 1:30:00 PM 4.91 40.838 0.051 7.54 1896.04 10.03
4/2/2021 1:45:00 PM 5.16 41.288 0.052 7.45 1546.83 10.37
4/2/2021 2:00:00 PM 5.4 41.72 0.053 7.55 1447.24 10.86
4/2/2021 2:15:00 PM 5.62 42.116 0.053 7.56 1489.32 11.33
4/2/2021 2:30:00 PM 5.91 42.638 0.054 7.58 1412.83 11.22
4/2/2021 2:45:00 PM 6.18 43.124 0.054 7.59 1386.44 11.11
4/2/2021 3:00:00 PM 6.4 43.52 0.054 7.59 1397.81 11.26
4/2/2021 3:15:00 PM 6.64 43.952 0.055 7.55 1339.19 11.29
4/2/2021 3:30:00 PM 6.85 44.33 0.055 7.62 1297.85 11.54
4/2/2021 3:45:00 PM 7.02 44.636 0.054 7.63 1204.14 11.64
4/2/2021 4:00:00 PM 7.15 44.87 0.053 7.66 1226.07 11.58
4/2/2021 4:15:00 PM 7.22 44.996 0.053 7.62 1187.46 11.59
4/2/2021 4:30:00 PM 7.27 45.086 0.05 7.67 1115 11.59
4/2/2021 4:45:00 PM 7.28 45.104 0.046 7.58 990.76 11.61
4/2/2021 5:00:00 PM 7.24 45.032 0.053 7.24 4608.98 11.16
4/2/2021 5:15:00 PM 7.2 44.96 0.052 7.47 6486.02 8.97
4/2/2021 5:30:00 PM 7.13 44.834 0.053 7.55 6435.46 7.76
4/2/2021 5:45:00 PM 7.04 44.672 0.052 7.56 6157.97 7.86
4/2/2021 6:00:00 PM 6.93 44.474 0.052 7.54 5827.37 8.21
4/2/2021 6:15:00 PM 6.81 44.258 0.051 7.44 5363.06 8.84
4/2/2021 6:30:00 PM 6.67 44.006 0.05 7.48 4612.7 9.39
4/2/2021 6:45:00 PM 6.51 43.718 0.047 7.47 4032.88 10.1
4/2/2021 7:00:00 PM 6.37 43.466 0.049 7.18 2182.96 10.39
4/2/2021 7:15:00 PM 6.18 43.124 0.05 7.28 2813.27 8.7
4/2/2021 7:30:00 PM 6.02 42.836 0.05 7.28 3125.96 7.74
4/2/2021 7:45:00 PM 5.9 42.62 0.051 7.18 3346.3 7.45
4/2/2021 8:00:00 PM 5.78 42.404 0.051 7.18 3549.11 7.58
4/2/2021 8:15:00 PM 5.66 42.188 0.051 7.14 3706.76 8.05
4/2/2021 8:30:00 PM 5.52 41.936 0.052 7.1 3832.2 7.88
4/2/2021 8:45:00 PM 5.39 41.702 0.052 7.11 3967.72 7.78
4/2/2021 9:00:00 PM 5.26 41.468 0.051 7.11 4025.99 7.9
4/2/2021 9:15:00 PM 5.17 41.306 0.052 7.08 3852.94 8.67
4/2/2021 9:30:00 PM 5.08 41.144 0.053 7.07 3888.88 9.28
4/2/2021 9:45:00 PM 4.99 40.982 0.054 7.03 3864.07 9.68
4/2/2021 10:00:00 PM 4.9 40.82 0.054 7.05 3873.37 9.76
4/2/2021 10:15:00 PM 4.8 40.64 0.054 7.06 3890.51 9.81
4/2/2021 10:30:00 PM 4.71 40.478 0.055 7.01 3958.46 10.06
4/2/2021 10:45:00 PM 4.62 40.316 0.054 7.04 3988.44 10.14
4/2/2021 11:00:00 PM 4.54 40.172 0.053 7.02 3958.03 10.67
4/2/2021 11:15:00 PM 4.46 40.028 0.054 7 3804.64 10.93
4/2/2021 11:30:00 PM 4.38 39.884 0.054 6.97 3546.84 11.36
4/2/2021 11:45:00 PM 4.3 39.74 0.054 6.98 3410.26 11.66
4/3/2021 12:00:00 AM 4.23 39.614 0.054 6.99 3175.56 11.64
4/3/2021 12:15:00 AM 4.16 39.488 0.049 6.91 608.17 11.53
4/3/2021 12:30:00 AM 4.07 39.326 0.049 6.96 603.24 11.43
4/3/2021 12:45:00 AM 4.01 39.218 0.049 6.97 562.57 11.3
4/3/2021 1:00:00 AM 3.94 39.092 0.048 6.94 565.14 11.21
4/3/2021 1:15:00 AM 3.86 38.948 0.049 6.96 782.36 11.03
4/3/2021 1:30:00 AM 3.79 38.822 0.048 6.99 886.32 10.82
4/3/2021 1:45:00 AM 3.72 38.696 0.048 6.91 1257.4 10.74
4/3/2021 2:00:00 AM 3.66 38.588 0.048 6.95 1419.13 10.55
4/3/2021 2:15:00 AM 3.59 38.462 0.048 6.96 1572.72 10.47
4/3/2021 2:30:00 AM 3.52 38.336 0.049 6.98 2489.54 10.25
4/3/2021 2:45:00 AM 3.45 38.21 0.049 6.99 3574.81 9.91
4/3/2021 3:00:00 AM 3.39 38.102 0.051 7.03 4854.61 9.59
4/3/2021 3:15:00 AM 3.32 37.976 0.052 6.97 4476.19 9.38
4/3/2021 3:30:00 AM 3.25 37.85 0.052 6.97 4197.02 9.23
4/3/2021 3:45:00 AM 3.19 37.742 0.053 6.96 3782.02 9
4/3/2021 4:00:00 AM 3.13 37.634 0.052 6.96 3579.25 8.77
4/3/2021 4:15:00 AM 3.06 37.508 0.052 7 3555.69 8.22
4/3/2021 4:30:00 AM 2.99 37.382 0.052 7.03 3531.22 7.46
4/3/2021 4:45:00 AM 2.93 37.274 0.053 7.02 3656.5 6.91
4/3/2021 5:00:00 AM 2.86 37.148 0.053 7.05 3809.87 6.57
4/3/2021 5:15:00 AM 2.8 37.04 0.054 7.07 3991.08 6.29
4/3/2021 5:30:00 AM 2.74 36.932 0.054 6.98 4104.38 6.06
4/3/2021 5:45:00 AM 2.68 36.824 0.054 6.98 4304.98 5.97
4/3/2021 6:00:00 AM 2.62 36.716 0.055 6.95 4413.83 5.99
4/3/2021 6:15:00 AM 2.56 36.608 0.055 6.94 4476.52 5.54
4/3/2021 6:30:00 AM 2.51 36.518 0.055 6.94 4516.79 5.63
4/3/2021 6:45:00 AM 2.45 36.41 0.055 6.95 4533.7 5.42
4/3/2021 7:00:00 AM 2.39 36.302 0.055 6.95 4582.36 5.42
4/3/2021 7:15:00 AM 2.34 36.212 0.055 6.98 4682.43 5.23
4/3/2021 7:30:00 AM 2.29 36.122 0.055 7.02 4739.98 4.81
4/3/2021 7:45:00 AM 2.25 36.05 0.056 7.03 4740.85 4.93
4/3/2021 8:00:00 AM 2.2 35.96 0.055 7.1 4891.43 5.34
4/3/2021 8:15:00 AM 2.17 35.906 0.055 7.1 5044.3 5.51
4/3/2021 8:30:00 AM 2.15 35.87 0.055 7.07 5202.54 5.71
4/3/2021 8:45:00 AM 2.15 35.87 0.055 7.15 5697.54 5.78
4/3/2021 9:00:00 AM 2.17 35.906 0.054 7.14 6312.38 5.49
4/3/2021 9:15:00 AM 2.2 35.96 0.054 7.15 7040.96 5.71
4/3/2021 9:30:00 AM 2.24 36.032 0.054 7.23 7639.68 5.76
4/3/2021 9:45:00 AM 2.3 36.14 0.054 7.19 8762.8 5.86
4/3/2021 10:00:00 AM 2.36 36.248 0.054 7.12 9368.46 5.96
4/3/2021 10:15:00 AM 2.44 36.392 0.054 7.09 9753.91 6.49
4/3/2021 10:30:00 AM 2.55 36.59 0.054 7.15 10004.2 7.02
4/3/2021 10:45:00 AM 2.71 36.878 0.055 7.15 10347.26 6.97
4/3/2021 11:00:00 AM 2.88 37.184 0.055 7.2 10506.98 7.12
4/3/2021 11:15:00 AM 3.09 37.562 0.056 7.2 10748.18 7.13
4/3/2021 11:30:00 AM 3.28 37.904 0.057 7.19 11293.92 6.77
4/3/2021 11:45:00 AM 3.45 38.21 0.057 7.13 11518.86 6.69
4/3/2021 12:00:00 PM 3.58 38.444 0.058 7.18 11638.81 6.58
4/3/2021 12:15:00 PM 3.7 38.66 0.058 7.2 11201.42 6.53
4/3/2021 12:30:00 PM 3.89 39.002 0.059 7.2 11678.53 6.62
4/3/2021 12:45:00 PM 4.11 39.398 0.059 7.21 11832.94 6.59
4/3/2021 1:00:00 PM 4.36 39.848 0.059 7.23 12139.46 6.48
4/3/2021 1:15:00 PM 4.64 40.352 0.059 7.25 12244.68 6.33
4/3/2021 1:30:00 PM 4.96 40.928 0.059 7.21 12206.42 5.99
4/3/2021 1:45:00 PM 5.27 41.486 0.058 7.2 12222.75 5.69
4/3/2021 2:00:00 PM 5.62 42.116 0.056 7.2 12222.33 5.45
4/3/2021 2:15:00 PM 5.96 42.728 0.054 7.34 12132.54 5.77
4/3/2021 2:30:00 PM 6.19 43.142 0.066 7.09 1635.75 5.45
4/3/2021 2:45:00 PM 6.5 43.7 0.063 7 1686.56 4.45
4/3/2021 3:00:00 PM 6.67 44.006 0.063 7.1 1627.68 3.58
4/3/2021 3:15:00 PM 6.79 44.222 0.065 7.15 1552.12 3.17
4/3/2021 3:30:00 PM 6.89 44.402 0.065 7.15 1564.33 2.99
4/3/2021 3:45:00 PM 7 44.6 0.065 7.1 1625.34 3.17
4/3/2021 4:00:00 PM 7.08 44.744 0.067 7.13 1716.86 3.48
4/3/2021 4:15:00 PM 7.16 44.888 0.069 7.16 1745.09 3.9
4/3/2021 4:30:00 PM 7.24 45.032 0.069 7.14 1777.62 3.8
4/3/2021 4:45:00 PM 7.3 45.14 0.069 7.15 1834.27 3.69
4/3/2021 5:00:00 PM 7.32 45.176 0.069 7.14 1937.27 3.59
4/3/2021 5:15:00 PM 7.36 45.248 0.068 7.15 2078.84 3.92
4/3/2021 5:30:00 PM 7.39 45.302 0.066 7.15 2186.26 4.11
4/3/2021 5:45:00 PM 7.37 45.266 0.06 7.16 2316.21 4.93
4/3/2021 6:00:00 PM 7.32 45.176 0.069 7.16 806.63 4.93
4/3/2021 6:15:00 PM 7.29 45.122 0.07 7.05 873.97 5.01
4/3/2021 6:30:00 PM 7.24 45.032 0.075 7.07 846.62 4.37
4/3/2021 6:45:00 PM 7.19 44.942 0.078 7.08 896.75 4
4/3/2021 7:00:00 PM 7.14 44.852 0.08 7.07 915.92 4.16
4/3/2021 7:15:00 PM 7.09 44.762 0.081 6.96 966.38 4.22
4/3/2021 7:30:00 PM 7.04 44.672 0.083 7.01 1043.01 4.56
4/3/2021 7:45:00 PM 6.99 44.582 0.083 7.01 1091.18 4.98
4/3/2021 8:00:00 PM 6.93 44.474 0.083 6.98 1144.38 5.3
4/3/2021 8:15:00 PM 6.87 44.366 0.084 6.97 1211.73 5.6
4/3/2021 8:30:00 PM 6.8 44.24 0.084 6.94 1263.72 5.28
4/3/2021 8:45:00 PM 6.73 44.114 0.084 6.94 1278.41 5.15
4/3/2021 9:00:00 PM 6.67 44.006 0.084 6.98 1306.98 4.93
4/3/2021 9:15:00 PM 6.62 43.916 0.083 6.96 1355.43 4.96
4/3/2021 9:30:00 PM 6.56 43.808 0.082 6.98 1356.19 4.97
4/3/2021 9:45:00 PM 6.52 43.736 0.082 7.01 1363.7 4.92
4/3/2021 10:00:00 PM 6.48 43.664 0.08 7.02 1301.18 5.07
4/3/2021 10:15:00 PM 6.45 43.61 0.079 7.03 1284.2 5.1
4/3/2021 10:30:00 PM 6.41 43.538 0.078 7.05 1299.23 4.93
4/3/2021 10:45:00 PM 6.38 43.484 0.077 7.04 1309.93 5.55
4/3/2021 11:00:00 PM 6.34 43.412 0.076 7.06 1317.05 6.08
4/3/2021 11:15:00 PM 6.3 43.34 0.072 7.06 1293.07 6.03
4/3/2021 11:30:00 PM 6.27 43.286 0.071 7 1323.06 5.96
4/3/2021 11:45:00 PM 6.23 43.214 0.064 7.05 1290.56 6.2
4/4/2021 12:00:00 AM 6.2 43.16 0.07 6.94 190.63 6.79
4/4/2021 12:15:00 AM 6.14 43.052 0.067 6.92 192.07 4.82
4/4/2021 12:30:00 AM 6.1 42.98 0.068 6.9 203.17 4.07
4/4/2021 12:45:00 AM 6.07 42.926 0.069 6.9 214.92 3.48
4/4/2021 1:00:00 AM 6.03 42.854 0.069 6.9 233.73 3.07
4/4/2021 1:15:00 AM 5.99 42.782 0.07 6.91 235 2.36
4/4/2021 1:30:00 AM 5.96 42.728 0.071 6.89 235.27 1.88
4/4/2021 1:45:00 AM 5.92 42.656 0.072 6.9 243.37 1.45
4/4/2021 2:00:00 AM 5.89 42.602 0.073 6.91 242.43 0.79
4/4/2021 2:15:00 AM 5.85 42.53 0.073 6.9 229.91 0.51
4/4/2021 2:30:00 AM 5.8 42.44 0.074 6.9 214.4 0.45
4/4/2021 2:45:00 AM 5.74 42.332 0.075 6.91 204.24 0.4
4/4/2021 3:00:00 AM 5.68 42.224 0.076 6.92 204.77 0.36
4/4/2021 3:15:00 AM 5.62 42.116 0.077 6.92 208.28 0.35
4/4/2021 3:30:00 AM 5.55 41.99 0.077 6.87 216.21 0.34
4/4/2021 3:45:00 AM 5.48 41.864 0.078 6.94 219.26 0.33
4/4/2021 4:00:00 AM 5.41 41.738 0.079 6.95 222.01 0.32
4/4/2021 4:15:00 AM 5.34 41.612 0.08 6.95 227.41 0.33
4/4/2021 4:30:00 AM 5.28 41.504 0.08 6.95 231.67 0.32
4/4/2021 4:45:00 AM 5.22 41.396 0.081 6.86 233.99 0.32
4/4/2021 5:00:00 AM 5.16 41.288 0.082 6.87 240 0.32
4/4/2021 5:15:00 AM 5.11 41.198 0.083 6.92 249.88 0.32
4/4/2021 5:30:00 AM 5.06 41.108 0.083 6.91 254.54 0.32
4/4/2021 5:45:00 AM 5.01 41.018 0.084 6.92 253.6 0.31
4/4/2021 6:00:00 AM 4.95 40.91 0.084 6.93 264.75 0.31
4/4/2021 6:15:00 AM 4.9 40.82 0.085 6.93 273.89 0.31
4/4/2021 6:30:00 AM 4.84 40.712 0.085 6.91 281.16 0.31
4/4/2021 6:45:00 AM 4.78 40.604 0.086 6.91 287.46 0.31
4/4/2021 7:00:00 AM 4.72 40.496 0.087 6.91 289.02 0.31
4/4/2021 7:15:00 AM 4.66 40.388 0.087 6.91 290.73 0.31
4/4/2021 7:30:00 AM 4.6 40.28 0.088 6.91 295.91 0.31
4/4/2021 7:45:00 AM 4.55 40.19 0.089 6.91 300.48 0.31
4/4/2021 8:00:00 AM 4.51 40.118 0.089 6.9 304.14 0.31
4/4/2021 8:15:00 AM 4.47 40.046 0.088 6.93 309.96 0.31
4/4/2021 8:30:00 AM 4.44 39.992 0.088 6.93 316.61 0.31
4/4/2021 8:45:00 AM 4.44 39.992 0.088 6.92 320.17 0.31
4/4/2021 9:00:00 AM 4.45 40.01 0.088 6.96 322.69 0.31
4/4/2021 9:15:00 AM 4.47 40.046 0.088 6.93 325.67 0.31
4/4/2021 9:30:00 AM 4.5 40.1 0.087 6.93 328.63 0.31
4/4/2021 9:45:00 AM 4.55 40.19 0.087 6.92 333.23 0.31
4/4/2021 10:00:00 AM 4.61 40.298 0.086 6.92 339.34 0.31
4/4/2021 10:15:00 AM 4.69 40.442 0.086 6.92 343.47 0.31
4/4/2021 10:30:00 AM 4.8 40.64 0.085 6.88 346.36 0.31
4/4/2021 10:45:00 AM 4.94 40.892 0.085 6.87 352.47 0.32
4/4/2021 11:00:00 AM 5.13 41.234 0.084 6.89 357.81 0.33
4/4/2021 11:15:00 AM 5.33 41.594 0.084 6.9 381.16 0.35
4/4/2021 11:30:00 AM 5.54 41.972 0.084 6.89 389.26 0.35
4/4/2021 11:45:00 AM 5.77 42.386 0.084 6.86 411.87 0.35
4/4/2021 12:00:00 PM 6.01 42.818 0.083 6.87 432.23 0.38
4/4/2021 12:15:00 PM 6.26 43.268 0.083 6.87 454.5 0.41
4/4/2021 12:30:00 PM 6.51 43.718 0.082 6.94 459.9 0.41
4/4/2021 12:45:00 PM 6.79 44.222 0.082 6.91 476.47 0.44
4/4/2021 1:00:00 PM 7.09 44.762 0.081 6.9 487.15 0.45
4/4/2021 1:15:00 PM 7.38 45.284 0.081 6.88 497.94 0.45
4/4/2021 1:30:00 PM 7.68 45.824 0.08 6.88 509.47 0.47
4/4/2021 1:45:00 PM 7.97 46.346 0.08 6.83 516.69 0.49
4/4/2021 2:00:00 PM 8.28 46.904 0.08 6.84 526.94 0.7
4/4/2021 2:15:00 PM 8.61 47.498 0.079 6.86 537.59 0.81
4/4/2021 2:30:00 PM 8.91 48.038 0.08 6.89 550.1 1.38
4/4/2021 2:45:00 PM 9.25 48.65 0.08 6.93 569.8 1.78
4/4/2021 3:00:00 PM 9.54 49.172 0.079 6.88 586.84 2.28
4/4/2021 3:15:00 PM 9.8 49.64 0.079 6.89 603.45 2.57
4/4/2021 3:30:00 PM 10.05 50.09 0.078 6.92 619.1 3.17
4/4/2021 3:45:00 PM 10.27 50.486 0.077 6.93 647.59 2.93
4/4/2021 4:00:00 PM 10.46 50.828 0.077 6.94 654.03 3.08
4/4/2021 4:15:00 PM 10.59 51.062 0.077 6.91 681.99 3.64
4/4/2021 4:30:00 PM 10.7 51.26 0.077 6.95 711.51 4.65
4/4/2021 4:45:00 PM 10.77 51.386 0.076 6.98 731.83 4.88
4/4/2021 5:00:00 PM 10.81 51.458 0.076 7.15 775.22 4.63
4/4/2021 5:15:00 PM 10.81 51.458 0.076 7.1 806.78 4.5
4/4/2021 5:30:00 PM 10.78 51.404 0.076 6.94 844.19 5.42
4/4/2021 5:45:00 PM 10.75 51.35 0.076 7.11 922.05 5.49
4/4/2021 6:00:00 PM 10.69 51.242 0.075 7.15 992.02 4.96
4/4/2021 6:15:00 PM 10.63 51.134 0.075 7.12 995.4 5.94
4/4/2021 6:30:00 PM 10.53 50.954 0.075 7.17 1001.39 5.81
4/4/2021 6:45:00 PM 10.42 50.756 0.074 7.17 1009.12 4.71
4/4/2021 7:00:00 PM 10.28 50.504 0.072 7.13 1020.47 4.46
4/4/2021 7:15:00 PM 10.15 50.27 0.071 7.15 1020.54 5.09
4/4/2021 7:30:00 PM 10 50 0.069 7.16 1016.83 4.81
4/4/2021 7:45:00 PM 9.86 49.748 0.069 7.04 1000.3 3.79
4/4/2021 8:00:00 PM 9.73 49.514 0.067 6.92 987.37 4.12
4/4/2021 8:15:00 PM 9.6 49.28 0.064 6.99 966.17 2.98
4/4/2021 8:30:00 PM 9.49 49.082 0.075 6.82 245.95 2.3
4/4/2021 8:45:00 PM 9.32 48.776 0.069 6.86 247.7 1.11
4/4/2021 9:00:00 PM 9.18 48.524 0.072 6.82 280.54 0.66
4/4/2021 9:15:00 PM 9.04 48.272 0.076 6.83 296.45 0.49
4/4/2021 9:30:00 PM 8.91 48.038 0.079 6.78 315.36 0.39
4/4/2021 9:45:00 PM 8.79 47.822 0.081 6.81 334.58 0.37
4/4/2021 10:00:00 PM 8.67 47.606 0.082 6.8 302.87 0.3
4/4/2021 10:15:00 PM 8.55 47.39 0.084 6.82 296.5 0.28
4/4/2021 10:30:00 PM 8.43 47.174 0.086 6.82 289.9 0.27
4/4/2021 10:45:00 PM 8.32 46.976 0.085 6.82 281.69 0.27
4/4/2021 11:00:00 PM 8.21 46.778 0.087 6.76 279.89 0.27
4/4/2021 11:15:00 PM 8.11 46.598 0.088 6.81 275.89 0.27
4/4/2021 11:30:00 PM 8 46.4 0.089 6.82 276.35 0.27
4/4/2021 11:45:00 PM 7.89 46.202 0.089 6.82 273.52 0.27
4/5/2021 12:00:00 AM 7.79 46.022 0.09 6.8 271.18 0.27
4/5/2021 12:15:00 AM 7.69 45.842 0.09 6.77 269.4 0.27
4/5/2021 12:30:00 AM 7.59 45.662 0.09 6.81 266.08 0.27
4/5/2021 12:45:00 AM 7.49 45.482 0.091 6.81 252.62 0.27
4/5/2021 1:00:00 AM 7.39 45.302 0.092 6.81 251.31 0.27
4/5/2021 1:15:00 AM 7.28 45.104 0.088 6.82 254.74 0.27
4/5/2021 1:30:00 AM 7.19 44.942 0.089 6.84 257.71 0.27
4/5/2021 1:45:00 AM 7.09 44.762 0.091 6.84 253.98 0.27
4/5/2021 2:00:00 AM 6.99 44.582 0.091 6.84 246.66 0.27
4/5/2021 2:15:00 AM 6.89 44.402 0.091 6.77 245.88 0.27
4/5/2021 2:30:00 AM 6.79 44.222 0.092 6.84 245.92 0.27
4/5/2021 2:45:00 AM 6.7 44.06 0.089 6.83 253.72 0.27
4/5/2021 3:00:00 AM 6.61 43.898 0.09 6.83 249.34 0.27
4/5/2021 3:15:00 AM 6.51 43.718 0.091 6.82 250.39 0.27
4/5/2021 3:30:00 AM 6.41 43.538 0.091 6.83 248.81 0.28
4/5/2021 3:45:00 AM 6.32 43.376 0.09 6.83 247.32 0.28
4/5/2021 4:00:00 AM 6.23 43.214 0.089 6.83 245.09 0.28
4/5/2021 4:15:00 AM 6.14 43.052 0.089 6.83 243.38 0.28
4/5/2021 4:30:00 AM 6.05 42.89 0.091 6.83 241.74 0.28
4/5/2021 4:45:00 AM 5.96 42.728 0.091 6.83 238.33 0.28
4/5/2021 5:00:00 AM 5.87 42.566 0.091 6.84 237.6 0.28
4/5/2021 5:15:00 AM 5.78 42.404 0.091 6.83 240.15 0.28
4/5/2021 5:30:00 AM 5.69 42.242 0.087 6.8 243.52 0.28
4/5/2021 5:45:00 AM 5.61 42.098 0.089 6.84 246.23 0.28
4/5/2021 6:00:00 AM 5.53 41.954 0.089 6.83 245.53 0.28
4/5/2021 6:15:00 AM 5.45 41.81 0.088 6.83 254.62 0.28
4/5/2021 6:30:00 AM 5.36 41.648 0.087 6.86 261.58 0.28
4/5/2021 6:45:00 AM 5.29 41.522 0.086 6.86 272.91 0.28
4/5/2021 7:00:00 AM 5.22 41.396 0.086 6.86 280.28 0.29
4/5/2021 7:15:00 AM 5.15 41.27 0.086 6.81 293.49 0.29
4/5/2021 7:30:00 AM 5.08 41.144 0.086 6.89 293.55 0.29
4/5/2021 7:45:00 AM 5.03 41.054 0.085 6.84 302.39 0.29
4/5/2021 8:00:00 AM 4.98 40.964 0.086 6.91 314.87 0.29
4/5/2021 8:15:00 AM 4.93 40.874 0.086 6.9 328.66 0.29
4/5/2021 8:30:00 AM 4.9 40.82 0.085 6.92 339.17 0.29
4/5/2021 8:45:00 AM 4.89 40.802 0.085 6.94 381.99 0.29
4/5/2021 9:00:00 AM 4.9 40.82 0.085 6.95 400.63 0.29
4/5/2021 9:15:00 AM 4.92 40.856 0.086 6.96 429.41 0.29
4/5/2021 9:30:00 AM 4.95 40.91 0.086 6.96 453.86 0.29
4/5/2021 9:45:00 AM 4.99 40.982 0.086 6.88 520.66 0.29
4/5/2021 10:00:00 AM 5.05 41.09 0.087 6.94 518.15 0.29
4/5/2021 10:15:00 AM 5.13 41.234 0.087 6.93 552.79 0.28
4/5/2021 10:30:00 AM 5.24 41.432 0.087 6.94 572.25 0.28
4/5/2021 10:45:00 AM 5.39 41.702 0.087 6.93 597.98 0.28
4/5/2021 11:00:00 AM 5.58 42.044 0.087 6.93 604.8 0.28
4/5/2021 11:15:00 AM 5.78 42.404 0.086 6.95 574.56 0.28
4/5/2021 11:30:00 AM 5.99 42.782 0.087 6.96 566.04 0.28
4/5/2021 11:45:00 AM 6.2 43.16 0.087 6.94 537.79 0.27
4/5/2021 12:00:00 PM 6.43 43.574 0.088 6.89 514.63 0.27
4/5/2021 12:15:00 PM 6.68 44.024 0.088 6.93 544.09 0.27
4/5/2021 12:30:00 PM 6.93 44.474 0.088 6.92 598.23 0.27
4/5/2021 12:45:00 PM 7.21 44.978 0.088 6.95 654.63 0.26
4/5/2021 1:00:00 PM 7.5 45.5 0.088 6.95 730.59 0.26
4/5/2021 1:15:00 PM 7.77 45.986 0.088 6.96 803.65 0.26
4/5/2021 1:30:00 PM 8.04 46.472 0.088 6.99 754.15 0.25
4/5/2021 1:45:00 PM 8.31 46.958 0.088 6.96 756.58 0.25
4/5/2021 2:00:00 PM 8.58 47.444 0.088 6.96 822.99 0.25
4/5/2021 2:15:00 PM 8.97 48.146 0.082 7.09 852.05 0.24
4/5/2021 2:30:00 PM 9.24 48.632 0.078 7.13 1023.39 0.24
4/5/2021 2:45:00 PM 9.45 49.01 0.074 7.16 1111.35 0.24
4/5/2021 3:00:00 PM 9.66 49.388 0.072 7.27 1112.89 0.24
4/5/2021 3:15:00 PM 9.88 49.784 0.071 7.26 1134.1 0.24
4/5/2021 3:30:00 PM 10.08 50.144 0.071 7.21 1216.77 0.24
4/5/2021 3:45:00 PM 10.23 50.414 0.071 7.33 1239.77 0.23
4/5/2021 4:00:00 PM 10.35 50.63 0.071 7.31 1173.95 0.23
4/5/2021 4:15:00 PM 10.44 50.792 0.071 7.33 1321.75 0.23
4/5/2021 4:30:00 PM 10.52 50.936 0.07 7.48 1441.69 0.23
4/5/2021 4:45:00 PM 10.55 50.99 0.07 7.55 1185.46 0.24
4/5/2021 5:00:00 PM 10.57 51.026 0.07 7.43 1329.65 0.24
4/5/2021 5:15:00 PM 10.56 51.008 0.071 7.42 1380.46 0.24
4/5/2021 5:30:00 PM 10.54 50.972 0.072 7.41 1843.15 0.23
4/5/2021 5:45:00 PM 10.49 50.882 0.073 7.52 2179.27 0.23
4/5/2021 6:00:00 PM 10.43 50.774 0.074 7.5 2508.14 0.25
4/5/2021 6:15:00 PM 10.37 50.666 0.076 7.5 2694.81 0.26
4/5/2021 6:30:00 PM 10.3 50.54 0.077 7.51 2981.89 0.27
4/5/2021 6:45:00 PM 10.23 50.414 0.077 7.51 3113.39 0.29
4/5/2021 7:00:00 PM 10.14 50.252 0.078 7.49 3199.94 0.26
4/5/2021 7:15:00 PM 10.05 50.09 0.078 7.41 3293.92 0.27
4/5/2021 7:30:00 PM 9.96 49.928 0.078 7.42 3372.39 0.28
4/5/2021 7:45:00 PM 9.88 49.784 0.078 7.38 3439.73 0.25
4/5/2021 8:00:00 PM 9.8 49.64 0.079 7.31 3505.81 0.29
4/5/2021 8:15:00 PM 9.73 49.514 0.079 7.28 3564.46 0.36
4/5/2021 8:30:00 PM 9.67 49.406 0.08 7.29 3581.87 0.28
4/5/2021 8:45:00 PM 9.61 49.298 0.079 7.23 3668.23 0.26
4/5/2021 9:00:00 PM 9.56 49.208 0.08 7.22 3719.64 0.35
4/5/2021 9:15:00 PM 9.51 49.118 0.081 7.18 3765.78 0.56
4/5/2021 9:30:00 PM 9.47 49.046 0.078 7.01 3845.2 0.58
4/5/2021 9:45:00 PM 9.42 48.956 0.076 6.96 3936.02 0.6
4/5/2021 10:00:00 PM 9.38 48.884 0.075 6.95 3964.66 0.74
4/5/2021 10:15:00 PM 9.33 48.794 0.074 6.95 3787.8 0.52
4/5/2021 10:30:00 PM 9.29 48.722 0.074 6.96 4023.05 1.18
4/5/2021 10:45:00 PM 9.24 48.632 0.073 6.96 4063.04 1.31
4/5/2021 11:00:00 PM 9.19 48.542 0.073 6.93 4120.63 1.13
4/5/2021 11:15:00 PM 9.15 48.47 0.073 6.94 4170.95 1.15
4/5/2021 11:30:00 PM 9.11 48.398 0.072 6.94 4207.91 1.15
4/5/2021 11:45:00 PM 9.07 48.326 0.072 6.95 4239.56 1.18
4/6/2021 12:00:00 AM 9.03 48.254 0.074 6.95 4269.4 1.67
4/6/2021 12:15:00 AM 9 48.2 0.076 6.95 4292.34 1.58
4/6/2021 12:30:00 AM 8.96 48.128 0.077 6.96 4303.45 1.52
4/6/2021 12:45:00 AM 8.92 48.056 0.077 6.97 4292.62 1.43
4/6/2021 1:00:00 AM 8.88 47.984 0.077 6.94 4297.19 1.62
4/6/2021 1:15:00 AM 8.84 47.912 0.076 6.91 4312.73 1.06
4/6/2021 1:30:00 AM 8.8 47.84 0.075 6.92 4334.7 1.16
4/6/2021 1:45:00 AM 8.77 47.786 0.075 6.91 4007.57 1.23
4/6/2021 2:00:00 AM 8.72 47.696 0.074 6.92 4315.93 1.52
4/6/2021 2:15:00 AM 8.69 47.642 0.074 6.92 4353.21 1.5
4/6/2021 2:30:00 AM 8.64 47.552 0.074 6.94 4476.74 1.8
4/6/2021 2:45:00 AM 8.6 47.48 0.073 6.96 4448.56 1.96
4/6/2021 3:00:00 AM 8.57 47.426 0.073 6.98 4501.67 1.97
4/6/2021 3:15:00 AM 8.52 47.336 0.072 6.94 4175.22 1.73
4/6/2021 3:30:00 AM 8.47 47.246 0.071 6.96 4563.74 1.57
4/6/2021 3:45:00 AM 8.42 47.156 0.069 6.95 4613.76 1.34
4/6/2021 4:00:00 AM 8.37 47.066 0.069 6.93 4619.73 1.64
4/6/2021 4:15:00 AM 8.31 46.958 0.068 6.97 4648.9 1.82
4/6/2021 4:30:00 AM 8.25 46.85 0.068 7 4579.02 2.06
4/6/2021 4:45:00 AM 8.18 46.724 0.068 7.01 4600.72 2.18
4/6/2021 5:00:00 AM 8.12 46.616 0.067 6.98 4310.41 2.24
4/6/2021 5:15:00 AM 8.04 46.472 0.067 7.02 4623.98 1.89
4/6/2021 5:30:00 AM 7.97 46.346 0.066 6.91 4587.17 1.48
4/6/2021 5:45:00 AM 7.91 46.238 0.066 6.98 4753.36 1.99
4/6/2021 6:00:00 AM 7.83 46.094 0.066 7 4757.87 2.16
4/6/2021 6:15:00 AM 7.76 45.968 0.065 6.95 4745.79 1.28
4/6/2021 6:30:00 AM 7.68 45.824 0.064 6.89 4731.08 0.49
4/6/2021 6:45:00 AM 7.62 45.716 0.062 6.89 4798.71 0.55
4/6/2021 7:00:00 AM 7.56 45.608 0.061 6.86 4801.33 0.72
4/6/2021 7:15:00 AM 7.51 45.518 0.06 6.87 4811 0.83
4/6/2021 7:30:00 AM 7.48 45.464 0.094 6.95 201.03 0.67
4/6/2021 7:45:00 AM 7.41 45.338 0.092 6.98 185.55 0.32
4/6/2021 8:00:00 AM 7.38 45.284 0.09 6.99 186.08 0.29
4/6/2021 8:15:00 AM 7.36 45.248 0.091 6.91 187.72 0.28
4/6/2021 8:30:00 AM 7.34 45.212 0.098 6.99 194.2 0.27
4/6/2021 8:45:00 AM 7.33 45.194 0.098 6.97 206.76 0.27
4/6/2021 9:00:00 AM 7.33 45.194 0.099 6.94 215.35 0.27
4/6/2021 9:15:00 AM 7.34 45.212 0.099 6.96 215.93 0.27
4/6/2021 9:30:00 AM 7.37 45.266 0.099 6.96 222 0.27
4/6/2021 9:45:00 AM 7.41 45.338 0.099 6.96 232.02 0.27
4/6/2021 10:00:00 AM 7.47 45.446 0.1 6.98 243.03 0.27
4/6/2021 10:15:00 AM 7.54 45.572 0.102 6.96 248.99 0.26
4/6/2021 10:30:00 AM 7.63 45.734 0.103 6.97 252.8 0.26
4/6/2021 10:45:00 AM 7.74 45.932 0.104 6.89 259.88 0.26
4/6/2021 11:00:00 AM 7.9 46.22 0.105 6.92 262.7 0.26
4/6/2021 11:15:00 AM 8.04 46.472 0.105 6.88 271.56 0.26
4/6/2021 11:30:00 AM 8.24 46.832 0.101 6.9 272.45 0.25
4/6/2021 11:45:00 AM 8.45 47.21 0.102 6.9 275.52 0.25
4/6/2021 12:00:00 PM 8.66 47.588 0.102 6.92 286.51 0.25
4/6/2021 12:15:00 PM 8.88 47.984 0.103 6.91 295.2 0.25
4/6/2021 12:30:00 PM 9.18 48.524 0.103 6.89 305.11 0.25
4/6/2021 12:45:00 PM 9.42 48.956 0.105 6.92 315.9 0.24
4/6/2021 1:00:00 PM 9.7 49.46 0.106 6.92 328.87 0.24
4/6/2021 1:15:00 PM 9.98 49.964 0.106 6.92 333 0.24
4/6/2021 1:30:00 PM 10.26 50.468 0.107 6.88 342.17 0.23
4/6/2021 1:45:00 PM 10.49 50.882 0.108 6.94 353.69 0.23
4/6/2021 2:00:00 PM 10.71 51.278 0.11 6.9 375.07 0.23
4/6/2021 2:15:00 PM 10.95 51.71 0.112 6.94 399.49 0.23
4/6/2021 2:30:00 PM 11.2 52.16 0.114 6.94 431.52 0.23
4/6/2021 2:45:00 PM 11.45 52.61 0.115 6.96 451.11 0.23
4/6/2021 3:00:00 PM 11.72 53.096 0.116 6.96 482.39 0.23
4/6/2021 3:15:00 PM 12.02 53.636 0.118 6.94 495.16 0.22
4/6/2021 3:30:00 PM 12.35 54.23 0.12 6.97 531.5 0.22
4/6/2021 3:45:00 PM 12.59 54.662 0.122 6.97 562.29 0.22
4/6/2021 4:00:00 PM 12.76 54.968 0.124 6.98 568.29 0.22
4/6/2021 4:15:00 PM 12.89 55.202 0.126 6.98 610.58 0.22
4/6/2021 4:30:00 PM 13.02 55.436 0.129 6.98 637.99 0.22
4/6/2021 4:45:00 PM 13.11 55.598 0.131 6.96 666.63 0.22
4/6/2021 5:00:00 PM 13.13 55.634 0.133 6.99 682.24 0.22
4/6/2021 5:15:00 PM 13.15 55.67 0.135 6.98 711.79 0.22
4/6/2021 5:30:00 PM 13.13 55.634 0.137 6.99 717.44 0.22
4/6/2021 5:45:00 PM 13.08 55.544 0.139 6.99 739.15 0.22
4/6/2021 6:00:00 PM 13.02 55.436 0.141 7 767.86 0.22
4/6/2021 6:15:00 PM 12.97 55.346 0.141 7 794.5 0.22
4/6/2021 6:30:00 PM 12.94 55.292 0.143 7.01 819.97 0.22
4/6/2021 6:45:00 PM 12.9 55.22 0.144 6.99 888 0.22
4/6/2021 7:00:00 PM 12.84 55.112 0.144 7 905.25 0.22
4/6/2021 7:15:00 PM 12.77 54.986 0.146 7 940.3 0.22
4/6/2021 7:30:00 PM 12.66 54.788 0.148 7.01 956.23 0.22
4/6/2021 7:45:00 PM 12.55 54.59 0.15 7.01 905.32 0.22
4/6/2021 8:00:00 PM 12.43 54.374 0.151 7.02 944.17 0.22
4/6/2021 8:15:00 PM 12.33 54.194 0.153 7.02 960.79 0.22
4/6/2021 8:30:00 PM 12.22 53.996 0.154 7.02 890.2 0.22
4/6/2021 8:45:00 PM 12.12 53.816 0.155 7.03 898.11 0.22
4/6/2021 9:00:00 PM 12.02 53.636 0.156 7.03 906.7 0.22
4/6/2021 9:15:00 PM 11.93 53.474 0.157 7.04 943.91 0.22
4/6/2021 9:30:00 PM 11.84 53.312 0.159 7.04 967.78 0.22
4/6/2021 9:45:00 PM 11.75 53.15 0.16 7.04 989.9 0.22
4/6/2021 10:00:00 PM 11.67 53.006 0.161 7.05 1008.03 0.23
4/6/2021 10:15:00 PM 11.58 52.844 0.161 7.05 1017.47 0.23
4/6/2021 10:30:00 PM 11.49 52.682 0.162 7.07 1037.99 0.23
4/6/2021 10:45:00 PM 11.41 52.538 0.162 7.07 1062.07 0.23
4/6/2021 11:00:00 PM 11.32 52.376 0.162 7.04 1096.03 0.23
4/6/2021 11:15:00 PM 11.23 52.214 0.162 7.07 1114.01 0.23
4/6/2021 11:30:00 PM 11.14 52.052 0.162 7.08 1120.3 0.23
4/6/2021 11:45:00 PM 11.06 51.908 0.162 7.09 1122.2 0.23
4/7/2021 12:00:00 AM 10.98 51.764 0.163 7.09 1116.75 0.23
4/7/2021 12:15:00 AM 10.9 51.62 0.163 7.06 1125.78 0.23
4/7/2021 12:30:00 AM 10.83 51.494 0.164 7.09 1127.03 0.23
4/7/2021 12:45:00 AM 10.76 51.368 0.164 7.1 1131.78 0.23
4/7/2021 1:00:00 AM 10.68 51.224 0.164 7.07 1130.81 0.23
4/7/2021 1:15:00 AM 10.61 51.098 0.164 7.11 1131.71 0.23
4/7/2021 1:30:00 AM 10.55 50.99 0.164 7.11 1141.66 0.23
4/7/2021 1:45:00 AM 10.48 50.864 0.164 7.11 1141.45 0.23
4/7/2021 2:00:00 AM 10.41 50.738 0.164 7.1 1143.95 0.23
4/7/2021 2:15:00 AM 10.33 50.594 0.164 7.11 1145.97 0.24
4/7/2021 2:30:00 AM 10.25 50.45 0.165 7.11 1147.55 0.24
4/7/2021 2:45:00 AM 10.17 50.306 0.165 7.12 1146.7 0.24
4/7/2021 3:00:00 AM 10.09 50.162 0.166 7.12 1150.85 0.24
4/7/2021 3:15:00 AM 10.01 50.018 0.166 7.09 1130.28 0.24
4/7/2021 3:30:00 AM 9.92 49.856 0.165 7.12 1129.22 0.24
4/7/2021 3:45:00 AM 9.84 49.712 0.164 7.14 1130.51 0.24
4/7/2021 4:00:00 AM 9.77 49.586 0.164 7.13 1140.4 0.24
4/7/2021 4:15:00 AM 9.71 49.478 0.164 7.14 1148.67 0.24
4/7/2021 4:30:00 AM 9.65 49.37 0.164 7.14 1144.15 0.24
4/7/2021 4:45:00 AM 9.59 49.262 0.164 7.14 1153.65 0.24
4/7/2021 5:00:00 AM 9.53 49.154 0.164 7.15 1155.37 0.24
4/7/2021 5:15:00 AM 9.48 49.064 0.165 7.14 1155.93 0.24
4/7/2021 5:30:00 AM 9.43 48.974 0.165 7.15 1156.7 0.24
4/7/2021 5:45:00 AM 9.39 48.902 0.165 7.15 1160.32 0.24
4/7/2021 6:00:00 AM 9.34 48.812 0.165 7.14 1161.64 0.24
4/7/2021 6:15:00 AM 9.3 48.74 0.166 7.14 1161.45 0.24
4/7/2021 6:30:00 AM 9.25 48.65 0.166 7.15 1147.7 0.24
4/7/2021 6:45:00 AM 9.2 48.56 0.166 7.15 1145.6 0.25
4/7/2021 7:00:00 AM 9.15 48.47 0.166 7.15 1148.56 0.25
4/7/2021 7:15:00 AM 9.1 48.38 0.166 7.15 1157.59 0.25
4/7/2021 7:30:00 AM 9.06 48.308 0.166 7.13 1164.29 0.25
4/7/2021 7:45:00 AM 9.02 48.236 0.166 7.15 1162.06 0.25
4/7/2021 8:00:00 AM 8.98 48.164 0.166 7.15 1162.81 0.25
4/7/2021 8:15:00 AM 8.95 48.11 0.166 7.16 1163.75 0.25
4/7/2021 8:30:00 AM 8.93 48.074 0.166 7.16 1158.9 0.25
4/7/2021 8:45:00 AM 8.93 48.074 0.166 7.16 1152.05 0.25
4/7/2021 9:00:00 AM 8.95 48.11 0.165 7.17 1133.34 0.25
4/7/2021 9:15:00 AM 8.97 48.146 0.163 7.18 1117.46 0.25
4/7/2021 9:30:00 AM 9.01 48.218 0.161 7.17 1119.42 0.25
4/7/2021 9:45:00 AM 9.07 48.326 0.162 7.18 1121.16 0.25
4/7/2021 10:00:00 AM 9.15 48.47 0.162 7.19 1109.98 0.24
4/7/2021 10:15:00 AM 9.24 48.632 0.161 7.19 1105.07 0.24
4/7/2021 10:30:00 AM 9.34 48.812 0.161 7.19 1057.06 0.24
4/7/2021 10:45:00 AM 9.46 49.028 0.16 7.18 1050.32 0.24
4/7/2021 11:00:00 AM 9.61 49.298 0.161 7.18 1091.84 0.24
4/7/2021 11:15:00 AM 9.79 49.622 0.16 7.17 1096.23 0.24
4/7/2021 11:30:00 AM 9.98 49.964 0.16 7.18 1049.69 0.24
4/7/2021 11:45:00 AM 10.21 50.378 0.161 7.19 1060.49 0.23
4/7/2021 12:00:00 PM 10.45 50.81 0.161 7.19 1070.9 0.24
4/7/2021 12:15:00 PM 10.7 51.26 0.162 7.19 1062.2 0.23
4/7/2021 12:30:00 PM 10.96 51.728 0.162 7.19 1055.86 0.23
4/7/2021 12:45:00 PM 11.23 52.214 0.162 7.17 1056.2 0.23
4/7/2021 1:00:00 PM 11.5 52.7 0.162 7.18 1042.25 0.22
4/7/2021 1:15:00 PM 11.7 53.06 0.162 7.18 1032.04 0.23
4/7/2021 1:30:00 PM 11.89 53.402 0.161 7.18 1040.66 0.22
4/7/2021 1:45:00 PM 11.99 53.582 0.162 7.18 1034.47 0.22
4/7/2021 2:00:00 PM 12.16 53.888 0.162 7.18 1046.3 0.22
4/7/2021 2:15:00 PM 12.39 54.302 0.162 7.16 1051.43 0.22
4/7/2021 2:30:00 PM 12.6 54.68 0.163 7.17 1061.13 0.22
4/7/2021 2:45:00 PM 12.81 55.058 0.163 7.16 1046.89 0.22
4/7/2021 3:00:00 PM 13.05 55.49 0.163 7.14 1124.15 0.22
4/7/2021 3:15:00 PM 13.21 55.778 0.164 7.14 1049.99 0.21
4/7/2021 3:30:00 PM 13.45 56.21 0.165 7.14 1147.91 0.21
4/7/2021 3:45:00 PM 13.57 56.426 0.166 7.14 1140.18 0.21
4/7/2021 4:00:00 PM 13.64 56.552 0.166 7.14 1144.81 0.21
4/7/2021 4:15:00 PM 13.7 56.66 0.167 7.14 1151.37 0.21
4/7/2021 4:30:00 PM 13.82 56.876 0.168 7.13 1159.52 0.21
4/7/2021 4:45:00 PM 13.94 57.092 0.169 7.13 1158.87 0.21
4/7/2021 5:00:00 PM 14.01 57.218 0.17 7.13 1179.73 0.21
4/7/2021 5:15:00 PM 14.1 57.38 0.171 7.12 1162.52 0.21
4/7/2021 5:30:00 PM 14.17 57.506 0.173 7.12 1120.72 0.21
4/7/2021 5:45:00 PM 14.18 57.524 0.174 7.12 1095.38 0.21
4/7/2021 6:00:00 PM 14.18 57.524 0.175 7.12 1065.48 0.21
4/7/2021 6:15:00 PM 14.18 57.524 0.176 7.12 1059.42 0.21
4/7/2021 6:30:00 PM 14.19 57.542 0.177 7.12 1117.87 0.21
4/7/2021 6:45:00 PM 14.18 57.524 0.178 7.11 1018.6 0.21
4/7/2021 7:00:00 PM 14.17 57.506 0.179 7.12 995.68 0.21
4/7/2021 7:15:00 PM 14.15 57.47 0.179 7.12 1003.1 0.21
4/7/2021 7:30:00 PM 14.11 57.398 0.179 7.12 999.94 0.21
4/7/2021 7:45:00 PM 14.03 57.254 0.18 7.11 980.6 0.21
4/7/2021 8:00:00 PM 13.95 57.11 0.181 7.11 986.39 0.21
4/7/2021 8:15:00 PM 13.85 56.93 0.181 7.12 979.58 0.21
4/7/2021 8:30:00 PM 13.76 56.768 0.182 7.11 981.67 0.21
4/7/2021 8:45:00 PM 13.65 56.57 0.183 7.12 992.34 0.21
4/7/2021 9:00:00 PM 13.54 56.372 0.184 7.11 993.18 0.21
4/7/2021 9:15:00 PM 13.42 56.156 0.184 7.11 990.81 0.21
4/7/2021 9:30:00 PM 13.29 55.922 0.185 7.12 992.29 0.21
4/7/2021 9:45:00 PM 13.16 55.688 0.185 7.11 991.81 0.21
4/7/2021 10:00:00 PM 13.03 55.454 0.186 7.12 993.58 0.22
4/7/2021 10:15:00 PM 12.89 55.202 0.186 7.12 991.2 0.22
4/7/2021 10:30:00 PM 12.77 54.986 0.187 7.13 985.85 0.22
4/7/2021 10:45:00 PM 12.65 54.77 0.187 7.12 982.74 0.22
4/7/2021 11:00:00 PM 12.53 54.554 0.188 7.12 979.81 0.22
4/7/2021 11:15:00 PM 12.42 54.356 0.189 7.12 976.14 0.22
4/7/2021 11:30:00 PM 12.32 54.176 0.189 7.13 974.16 0.22
4/7/2021 11:45:00 PM 12.22 53.996 0.19 7.13 970.75 0.22
4/8/2021 12:00:00 AM 12.12 53.816 0.19 7.14 963.79 0.22
4/8/2021 12:15:00 AM 12.03 53.654 0.19 7.13 947.49 0.22
4/8/2021 12:30:00 AM 11.93 53.474 0.191 7.14 957.04 0.22
4/8/2021 12:45:00 AM 11.84 53.312 0.191 7.14 956.22 0.22
4/8/2021 1:00:00 AM 11.74 53.132 0.191 7.14 960.69 0.23
4/8/2021 1:15:00 AM 11.65 52.97 0.191 7.13 946.15 0.23
4/8/2021 1:30:00 AM 11.57 52.826 0.191 7.14 948.17 0.23
4/8/2021 1:45:00 AM 11.48 52.664 0.192 7.14 946.04 0.23
4/8/2021 2:00:00 AM 11.39 52.502 0.192 7.14 946.46 0.23
4/8/2021 2:15:00 AM 11.3 52.34 0.193 7.13 944.27 0.23
4/8/2021 2:30:00 AM 11.22 52.196 0.193 7.14 944.95 0.23
4/8/2021 2:45:00 AM 11.11 51.998 0.193 7.14 947.61 0.23
4/8/2021 3:00:00 AM 11.02 51.836 0.193 7.15 914.89 0.23
4/8/2021 3:15:00 AM 10.93 51.674 0.193 7.15 923.48 0.23
4/8/2021 3:30:00 AM 10.84 51.512 0.193 7.16 933.31 0.23
4/8/2021 3:45:00 AM 10.76 51.368 0.193 7.15 939.7 0.23
4/8/2021 4:00:00 AM 10.67 51.206 0.193 7.16 934.41 0.23
4/8/2021 4:15:00 AM 10.59 51.062 0.193 7.17 933.32 0.23
4/8/2021 4:30:00 AM 10.51 50.918 0.192 7.16 920.21 0.24
4/8/2021 4:45:00 AM 10.43 50.774 0.192 7.16 913.41 0.24
4/8/2021 5:00:00 AM 10.35 50.63 0.192 7.17 794.05 0.24
4/8/2021 5:15:00 AM 10.27 50.486 0.191 7.17 805.59 0.24
4/8/2021 5:30:00 AM 10.2 50.36 0.191 7.17 810.47 0.24
4/8/2021 5:45:00 AM 10.14 50.252 0.191 7.16 807.23 0.24
4/8/2021 6:00:00 AM 10.06 50.108 0.19 7.17 806.73 0.24
4/8/2021 6:15:00 AM 9.97 49.946 0.19 7.17 804.69 0.24
4/8/2021 6:30:00 AM 9.89 49.802 0.19 7.16 808.69 0.24
4/8/2021 6:45:00 AM 9.81 49.658 0.19 7.17 828.65 0.24
4/8/2021 7:00:00 AM 9.73 49.514 0.19 7.18 844.59 0.24
4/8/2021 7:15:00 AM 9.66 49.388 0.189 7.19 841.28 0.24
4/8/2021 7:30:00 AM 9.58 49.244 0.188 7.19 803.55 0.24
4/8/2021 7:45:00 AM 9.52 49.136 0.188 7.19 786.23 0.24
4/8/2021 8:00:00 AM 9.45 49.01 0.188 7.18 782.25 0.24
4/8/2021 8:15:00 AM 9.39 48.902 0.187 7.18 781.03 0.24
4/8/2021 8:30:00 AM 9.35 48.83 0.187 7.18 782.89 0.24
4/8/2021 8:45:00 AM 9.33 48.794 0.186 7.19 786.17 0.24
4/8/2021 9:00:00 AM 9.33 48.794 0.186 7.18 789.24 0.24
4/8/2021 9:15:00 AM 9.34 48.812 0.186 7.19 791.54 0.24
4/8/2021 9:30:00 AM 9.37 48.866 0.185 7.19 793.25 0.24
4/8/2021 9:45:00 AM 9.42 48.956 0.185 7.19 795.65 0.25
4/8/2021 10:00:00 AM 9.49 49.082 0.185 7.19 802.48 0.24
4/8/2021 10:15:00 AM 9.57 49.226 0.185 7.19 809.17 0.24
4/8/2021 10:30:00 AM 9.67 49.406 0.185 7.19 806.88 0.24
4/8/2021 10:45:00 AM 9.79 49.622 0.184 7.19 809.3 0.24
4/8/2021 11:00:00 AM 9.95 49.91 0.184 7.18 805.21 0.24
4/8/2021 11:15:00 AM 10.15 50.27 0.184 7.19 803.49 0.24
4/8/2021 11:30:00 AM 10.37 50.666 0.185 7.19 806.12 0.24
4/8/2021 11:45:00 AM 10.6 51.08 0.185 7.19 810.59 0.23
4/8/2021 12:00:00 PM 10.86 51.548 0.185 7.19 812.48 0.23
4/8/2021 12:15:00 PM 11.12 52.016 0.185 7.19 814.38 0.23
4/8/2021 12:30:00 PM 11.39 52.502 0.186 7.18 817.27 0.22
4/8/2021 12:45:00 PM 11.66 52.988 0.186 7.17 822.23 0.23
4/8/2021 1:00:00 PM 11.94 53.492 0.186 7.18 825.38 0.22
4/8/2021 1:15:00 PM 12.21 53.978 0.187 7.16 831.66 0.22
4/8/2021 1:30:00 PM 12.48 54.464 0.188 7.17 832.19 0.22
4/8/2021 1:45:00 PM 12.77 54.986 0.188 7.16 836.97 0.22
4/8/2021 2:00:00 PM 13.05 55.49 0.189 7.15 855.13 0.21
4/8/2021 2:15:00 PM 13.33 55.994 0.189 7.15 868.28 0.21
4/8/2021 2:30:00 PM 13.61 56.498 0.19 7.15 867.15 0.21
4/8/2021 2:45:00 PM 13.9 57.02 0.191 7.14 836.19 0.21
4/8/2021 3:00:00 PM 14.17 57.506 0.191 7.15 788.6 0.21
4/8/2021 3:15:00 PM 14.4 57.92 0.192 7.14 779.7 0.21
4/8/2021 3:30:00 PM 14.62 58.316 0.192 7.14 782.68 0.21
4/8/2021 3:45:00 PM 14.82 58.676 0.193 7.13 779.09 0.21
4/8/2021 4:00:00 PM 15.02 59.036 0.194 7.13 776.62 0.21
4/8/2021 4:15:00 PM 15.21 59.378 0.194 7.12 774.33 0.2
4/8/2021 4:30:00 PM 15.36 59.648 0.195 7.1 943.1 0.2
4/8/2021 4:45:00 PM 15.47 59.846 0.196 7.11 932.24 0.2
4/8/2021 5:00:00 PM 15.55 59.99 0.197 7.11 951.55 0.2
4/8/2021 5:15:00 PM 15.61 60.098 0.198 7.11 943.71 0.2
4/8/2021 5:30:00 PM 15.64 60.152 0.198 7.1 949.32 0.2
4/8/2021 5:45:00 PM 15.64 60.152 0.199 7.1 972.63 0.2
4/8/2021 6:00:00 PM 15.62 60.116 0.2 7.1 966.02 0.2
4/8/2021 6:15:00 PM 15.6 60.08 0.2 7.1 958.96 0.2
4/8/2021 6:30:00 PM 15.56 60.008 0.201 7.1 986.32 0.2
4/8/2021 6:45:00 PM 15.51 59.918 0.201 7.09 953.83 0.2
4/8/2021 7:00:00 PM 15.45 59.81 0.201 7.1 906.96 0.2
4/8/2021 7:15:00 PM 15.37 59.666 0.201 7.09 887.27 0.2
4/8/2021 7:30:00 PM 15.28 59.504 0.202 7.09 869.87 0.2
4/8/2021 7:45:00 PM 15.16 59.288 0.202 7.09 867.95 0.2
4/8/2021 8:00:00 PM 15.03 59.054 0.204 7.1 850.76 0.2
4/8/2021 8:15:00 PM 14.89 58.802 0.204 7.1 847.53 0.2
4/8/2021 8:30:00 PM 14.75 58.55 0.204 7.1 811.34 0.2
4/8/2021 8:45:00 PM 14.61 58.298 0.204 7.1 767.45 0.21
4/8/2021 9:00:00 PM 14.46 58.028 0.203 7.1 745.81 0.21
4/8/2021 9:15:00 PM 14.31 57.758 0.203 7.11 714.94 0.21
4/8/2021 9:30:00 PM 14.17 57.506 0.202 7.11 716.34 0.21
4/8/2021 9:45:00 PM 14.02 57.236 0.202 7.11 717.5 0.21
4/8/2021 10:00:00 PM 13.88 56.984 0.202 7.11 715.6 0.21
4/8/2021 10:15:00 PM 13.74 56.732 0.201 7.11 711.89 0.21
4/8/2021 10:30:00 PM 13.61 56.498 0.201 7.11 704.07 0.21
4/8/2021 10:45:00 PM 13.48 56.264 0.201 7.12 702.28 0.21
4/8/2021 11:00:00 PM 13.37 56.066 0.201 7.11 706.39 0.21
4/8/2021 11:15:00 PM 13.26 55.868 0.201 7.12 709.1 0.21
4/8/2021 11:30:00 PM 13.15 55.67 0.201 7.14 717.54 0.21
4/8/2021 11:45:00 PM 13.04 55.472 0.201 7.14 725.62 0.22
4/9/2021 12:00:00 AM 12.95 55.31 0.201 7.13 721.32 0.22
4/9/2021 12:15:00 AM 12.85 55.13 0.201 7.13 719.93 0.22
4/9/2021 12:30:00 AM 12.76 54.968 0.2 7.13 721.63 0.22
4/9/2021 12:45:00 AM 12.68 54.824 0.2 7.13 720.32 0.22
4/9/2021 1:00:00 AM 12.6 54.68 0.2 7.13 722.12 0.22
4/9/2021 1:15:00 AM 12.52 54.536 0.2 7.13 723.92 0.22
4/9/2021 1:30:00 AM 12.45 54.41 0.2 7.13 721.66 0.22
4/9/2021 1:45:00 AM 12.38 54.284 0.199 7.13 719.37 0.22
4/9/2021 2:00:00 AM 12.31 54.158 0.199 7.13 718.16 0.22
4/9/2021 2:15:00 AM 12.24 54.032 0.199 7.13 718.15 0.22
4/9/2021 2:30:00 AM 12.17 53.906 0.199 7.13 718.55 0.22
4/9/2021 2:45:00 AM 12.1 53.78 0.199 7.13 719.95 0.22
4/9/2021 3:00:00 AM 12.04 53.672 0.199 7.13 718.62 0.22
4/9/2021 3:15:00 AM 11.99 53.582 0.198 7.13 719.14 0.22
4/9/2021 3:30:00 AM 11.93 53.474 0.198 7.13 717.68 0.22
4/9/2021 3:45:00 AM 11.87 53.366 0.198 7.14 715.06 0.22
4/9/2021 4:00:00 AM 11.82 53.276 0.197 7.14 715.38 0.22
4/9/2021 4:15:00 AM 11.77 53.186 0.197 7.14 713.53 0.23
4/9/2021 4:30:00 AM 11.71 53.078 0.197 7.13 715.48 0.23
4/9/2021 4:45:00 AM 11.67 53.006 0.196 7.13 713.45 0.23
4/9/2021 5:00:00 AM 11.62 52.916 0.196 7.14 709.93 0.23
4/9/2021 5:15:00 AM 11.58 52.844 0.196 7.14 708.43 0.23
4/9/2021 5:30:00 AM 11.54 52.772 0.195 7.14 706.09 0.23
4/9/2021 5:45:00 AM 11.5 52.7 0.195 7.14 708.38 0.23
4/9/2021 6:00:00 AM 11.46 52.628 0.195 7.14 700.13 0.23
4/9/2021 6:15:00 AM 11.42 52.556 0.195 7.14 694.95 0.23
4/9/2021 6:30:00 AM 11.39 52.502 0.194 7.13 696.57 0.23
4/9/2021 6:45:00 AM 11.35 52.43 0.194 7.14 696.18 0.23
4/9/2021 7:00:00 AM 11.31 52.358 0.193 7.14 696.21 0.23
4/9/2021 7:15:00 AM 11.28 52.304 0.192 7.14 694.99 0.23
4/9/2021 7:30:00 AM 11.24 52.232 0.192 7.14 695.48 0.23
4/9/2021 7:45:00 AM 11.2 52.16 0.191 7.14 697.24 0.23
4/9/2021 8:00:00 AM 11.17 52.106 0.191 7.14 697.21 0.23
4/9/2021 8:15:00 AM 11.13 52.034 0.19 7.14 693.31 0.23
4/9/2021 8:30:00 AM 11.1 51.98 0.19 7.14 689.53 0.23
4/9/2021 8:45:00 AM 11.08 51.944 0.189 7.14 680.79 0.23
4/9/2021 9:00:00 AM 11.06 51.908 0.189 7.14 677.27 0.23
4/9/2021 9:15:00 AM 11.04 51.872 0.188 7.14 662.49 0.23
4/9/2021 9:30:00 AM 11.03 51.854 0.188 7.14 649.47 0.23
4/9/2021 9:45:00 AM 11.02 51.836 0.187 7.15 646.15 0.23
4/9/2021 10:00:00 AM 11.01 51.818 0.187 7.14 640.91 0.23
4/9/2021 10:15:00 AM 11.01 51.818 0.187 7.14 639.8 0.23
4/9/2021 10:30:00 AM 11.01 51.818 0.187 7.14 636.8 0.23
4/9/2021 10:45:00 AM 11.01 51.818 0.187 7.14 636.79 0.23
4/9/2021 11:00:00 AM 11.03 51.854 0.188 7.14 633.88 0.23
4/9/2021 11:15:00 AM 11.02 51.836 0.188 7.14 633.04 0.23
4/9/2021 11:30:00 AM 11.01 51.818 0.188 7.14 630.48 0.23
4/9/2021 11:45:00 AM 11.01 51.818 0.189 7.15 630.14 0.23
4/9/2021 12:00:00 PM 11.03 51.854 0.188 7.15 629.46 0.23
4/9/2021 12:15:00 PM 11.05 51.89 0.188 7.16 628.36 0.23
4/9/2021 12:30:00 PM 11.08 51.944 0.187 7.16 626.92 0.23
4/9/2021 12:45:00 PM 11.13 52.034 0.187 7.16 628.38 0.23
4/9/2021 1:00:00 PM 11.19 52.142 0.188 7.16 628.45 0.23
4/9/2021 1:15:00 PM 11.22 52.196 0.188 7.16 629 0.23
4/9/2021 1:30:00 PM 11.25 52.25 0.188 7.15 629.36 0.23
4/9/2021 1:45:00 PM 11.29 52.322 0.187 7.15 630.22 0.23
4/9/2021 2:00:00 PM 11.33 52.394 0.188 7.15 633.53 0.23
4/9/2021 2:15:00 PM 11.38 52.484 0.187 7.15 634.55 0.23
4/9/2021 2:30:00 PM 11.42 52.556 0.187 7.15 635.71 0.23
4/9/2021 2:45:00 PM 11.45 52.61 0.187 7.15 634.61 0.23
4/9/2021 3:00:00 PM 11.49 52.682 0.187 7.15 635.38 0.23
4/9/2021 3:15:00 PM 11.54 52.772 0.187 7.16 635.42 0.23
4/9/2021 3:30:00 PM 11.58 52.844 0.187 7.16 634.65 0.23
4/9/2021 3:45:00 PM 11.6 52.88 0.187 7.15 634.25 0.23
4/9/2021 4:00:00 PM 11.62 52.916 0.187 7.16 634.44 0.22
4/9/2021 4:15:00 PM 11.63 52.934 0.187 7.16 634.31 0.23
4/9/2021 4:30:00 PM 11.64 52.952 0.185 7.15 633.96 0.23
4/9/2021 4:45:00 PM 11.65 52.97 0.183 7.15 634.01 0.22
4/9/2021 5:00:00 PM 11.66 52.988 0.182 7.15 633.71 0.22
4/9/2021 5:15:00 PM 11.69 53.042 0.18 7.15 632.89 0.23
4/9/2021 5:30:00 PM 11.71 53.078 0.179 7.16 632.08 0.22
4/9/2021 5:45:00 PM 11.74 53.132 0.178 7.16 631.66 0.22
4/9/2021 6:00:00 PM 11.77 53.186 0.177 7.17 631.79 0.22
4/9/2021 6:15:00 PM 11.79 53.222 0.176 7.16 631.16 0.22
4/9/2021 6:30:00 PM 11.82 53.276 0.176 7.17 631.13 0.22
4/9/2021 6:45:00 PM 11.84 53.312 0.175 7.16 630.76 0.22
4/9/2021 7:00:00 PM 11.85 53.33 0.175 7.16 630.6 0.22
4/9/2021 7:15:00 PM 11.84 53.312 0.174 7.17 630.54 0.22
4/9/2021 7:30:00 PM 11.82 53.276 0.174 7.16 629.93 0.22
4/9/2021 7:45:00 PM 11.8 53.24 0.173 7.17 629.1 0.22
4/9/2021 8:00:00 PM 11.76 53.168 0.172 7.17 629.37 0.22
4/9/2021 8:15:00 PM 11.73 53.114 0.171 7.16 630.17 0.22
4/9/2021 8:30:00 PM 11.69 53.042 0.171 7.17 629.55 0.22
4/9/2021 8:45:00 PM 11.66 52.988 0.172 7.16 630.09 0.22
4/9/2021 9:00:00 PM 11.62 52.916 0.171 7.16 629.82 0.23
4/9/2021 9:15:00 PM 11.58 52.844 0.171 7.17 630.12 0.23
4/9/2021 9:30:00 PM 11.54 52.772 0.171 7.17 629.5 0.23
4/9/2021 9:45:00 PM 11.5 52.7 0.171 7.17 628.25 0.23
4/9/2021 10:00:00 PM 11.46 52.628 0.17 7.17 628.34 0.23
4/9/2021 10:15:00 PM 11.42 52.556 0.17 7.17 628.96 0.23
4/9/2021 10:30:00 PM 11.38 52.484 0.17 7.17 628.92 0.23
4/9/2021 10:45:00 PM 11.35 52.43 0.17 7.18 627.06 0.23
4/9/2021 11:00:00 PM 11.31 52.358 0.169 7.18 626.32 0.23
4/9/2021 11:15:00 PM 11.28 52.304 0.169 7.18 625.09 0.23
4/9/2021 11:30:00 PM 11.25 52.25 0.168 7.18 625.71 0.23
4/9/2021 11:45:00 PM 11.22 52.196 0.168 7.18 625.65 0.23
4/10/2021 12:00:00 AM 11.19 52.142 0.168 7.18 625.94 0.23
4/10/2021 12:15:00 AM 11.17 52.106 0.168 7.18 626.53 0.23
4/10/2021 12:30:00 AM 11.14 52.052 0.167 7.18 625.65 0.23
4/10/2021 12:45:00 AM 11.12 52.016 0.167 7.18 625.44 0.23
4/10/2021 1:00:00 AM 11.1 51.98 0.167 7.18 625.47 0.23
4/10/2021 1:15:00 AM 11.07 51.926 0.167 7.18 624.58 0.23
4/10/2021 1:30:00 AM 11.05 51.89 0.167 7.18 624.36 0.23
4/10/2021 1:45:00 AM 11.03 51.854 0.167 7.18 623.83 0.23
4/10/2021 2:00:00 AM 11.01 51.818 0.167 7.18 623.76 0.23
4/10/2021 2:15:00 AM 10.98 51.764 0.167 7.18 623.81 0.23
4/10/2021 2:30:00 AM 10.96 51.728 0.167 7.18 623.49 0.23
4/10/2021 2:45:00 AM 10.94 51.692 0.166 7.18 623.08 0.23
4/10/2021 3:00:00 AM 10.92 51.656 0.166 7.18 623.71 0.23
4/10/2021 3:15:00 AM 10.9 51.62 0.166 7.18 623.25 0.23
4/10/2021 3:30:00 AM 10.87 51.566 0.166 7.18 623.98 0.23
4/10/2021 3:45:00 AM 10.85 51.53 0.166 7.19 622.75 0.23
4/10/2021 4:00:00 AM 10.83 51.494 0.166 7.19 622.57 0.23
4/10/2021 4:15:00 AM 10.81 51.458 0.166 7.19 621.64 0.23
4/10/2021 4:30:00 AM 10.79 51.422 0.166 7.2 620.95 0.23
4/10/2021 4:45:00 AM 10.77 51.386 0.166 7.19 620.42 0.23
4/10/2021 5:00:00 AM 10.75 51.35 0.166 7.19 620.25 0.23
4/10/2021 5:15:00 AM 10.73 51.314 0.166 7.2 619.55 0.23
4/10/2021 5:30:00 AM 10.72 51.296 0.166 7.2 620.21 0.23
4/10/2021 5:45:00 AM 10.7 51.26 0.166 7.2 620.02 0.23
4/10/2021 6:00:00 AM 10.68 51.224 0.166 7.19 620.12 0.23
4/10/2021 6:15:00 AM 10.66 51.188 0.166 7.2 619.74 0.23
4/10/2021 6:30:00 AM 10.65 51.17 0.167 7.2 622.15 0.23
4/10/2021 6:45:00 AM 10.63 51.134 0.167 7.2 621.25 0.23
4/10/2021 7:00:00 AM 10.61 51.098 0.166 7.2 621.85 0.23
4/10/2021 7:15:00 AM 10.6 51.08 0.166 7.2 622.09 0.23
4/10/2021 7:30:00 AM 10.58 51.044 0.166 7.2 620.21 0.23
4/10/2021 7:45:00 AM 10.57 51.026 0.166 7.2 620.03 0.23
4/10/2021 8:00:00 AM 10.57 51.026 0.165 7.2 621.57 0.23
4/10/2021 8:15:00 AM 10.57 51.026 0.165 7.2 621.63 0.23
4/10/2021 8:30:00 AM 10.57 51.026 0.165 7.2 621.92 0.23
4/10/2021 8:45:00 AM 10.59 51.062 0.165 7.21 622.03 0.23
4/10/2021 9:00:00 AM 10.61 51.098 0.165 7.2 621.86 0.23
4/10/2021 9:15:00 AM 10.64 51.152 0.165 7.21 622.72 0.23
4/10/2021 9:30:00 AM 10.68 51.224 0.165 7.2 622.03 0.23
4/10/2021 9:45:00 AM 10.73 51.314 0.165 7.2 622.37 0.23
4/10/2021 10:00:00 AM 10.79 51.422 0.165 7.2 622.95 0.23
4/10/2021 10:15:00 AM 10.87 51.566 0.165 7.21 622.91 0.23
4/10/2021 10:30:00 AM 10.97 51.746 0.164 7.2 622.37 0.23
4/10/2021 10:45:00 AM 11.09 51.962 0.164 7.2 622.82 0.23
4/10/2021 11:00:00 AM 11.23 52.214 0.165 7.2 624.4 0.23
4/10/2021 11:15:00 AM 11.4 52.52 0.165 7.19 625.42 0.22
4/10/2021 11:30:00 AM 11.58 52.844 0.165 7.19 626.7 0.22
4/10/2021 11:45:00 AM 11.79 53.222 0.165 7.19 628.42 0.22
4/10/2021 12:00:00 PM 12.02 53.636 0.165 7.19 628.7 0.22
4/10/2021 12:15:00 PM 12.26 54.068 0.165 7.19 630.82 0.22
4/10/2021 12:30:00 PM 12.52 54.536 0.165 7.19 632.72 0.22
4/10/2021 12:45:00 PM 12.77 54.986 0.165 7.18 636.11 0.21
4/10/2021 1:00:00 PM 13.07 55.526 0.165 7.17 636.54 0.21
4/10/2021 1:15:00 PM 13.32 55.976 0.165 7.17 639.53 0.21
4/10/2021 1:30:00 PM 13.61 56.498 0.166 7.16 641.01 0.21
4/10/2021 1:45:00 PM 13.85 56.93 0.166 7.15 641.08 0.21
4/10/2021 2:00:00 PM 14.09 57.362 0.167 7.15 641.57 0.21
4/10/2021 2:15:00 PM 14.33 57.794 0.167 7.15 641.52 0.21
4/10/2021 2:30:00 PM 14.55 58.19 0.168 7.14 642.6 0.2
4/10/2021 2:45:00 PM 14.75 58.55 0.168 7.13 643.63 0.2
4/10/2021 3:00:00 PM 14.95 58.91 0.168 7.13 646.59 0.2
4/10/2021 3:15:00 PM 15.13 59.234 0.168 7.13 657.42 0.2
4/10/2021 3:30:00 PM 15.28 59.504 0.169 7.13 642.61 0.2
4/10/2021 3:45:00 PM 15.42 59.756 0.17 7.12 675.37 0.2
4/10/2021 4:00:00 PM 15.54 59.972 0.17 7.1 819.39 0.2
4/10/2021 4:15:00 PM 15.65 60.17 0.17 7.11 823.81 0.2
4/10/2021 4:30:00 PM 15.75 60.35 0.171 7.11 829.25 0.2
4/10/2021 4:45:00 PM 15.84 60.512 0.171 7.11 834.65 0.2
4/10/2021 5:00:00 PM 15.92 60.656 0.172 7.11 840.29 0.2
4/10/2021 5:15:00 PM 15.98 60.764 0.173 7.1 844.01 0.2
4/10/2021 5:30:00 PM 16 60.8 0.173 7.09 846.92 0.2
4/10/2021 5:45:00 PM 16.01 60.818 0.174 7.1 851.65 0.2
4/10/2021 6:00:00 PM 16.01 60.818 0.174 7.1 853.54 0.2
4/10/2021 6:15:00 PM 16 60.8 0.175 7.1 855.51 0.2
4/10/2021 6:30:00 PM 15.98 60.764 0.176 7.1 857.82 0.2
4/10/2021 6:45:00 PM 15.95 60.71 0.176 7.1 859.51 0.2
4/10/2021 7:00:00 PM 15.89 60.602 0.177 7.1 862.13 0.2
4/10/2021 7:15:00 PM 15.82 60.476 0.178 7.11 864.91 0.19
4/10/2021 7:30:00 PM 15.73 60.314 0.179 7.1 866.1 0.2
4/10/2021 7:45:00 PM 15.64 60.152 0.18 7.1 868.22 0.2
4/10/2021 8:00:00 PM 15.52 59.936 0.181 7.1 867.78 0.2
4/10/2021 8:15:00 PM 15.4 59.72 0.181 7.09 867.17 0.2
4/10/2021 8:30:00 PM 15.27 59.486 0.182 7.1 865.65 0.2
4/10/2021 8:45:00 PM 15.15 59.27 0.183 7.09 870.67 0.2
4/10/2021 9:00:00 PM 15.02 59.036 0.184 7.09 873.05 0.2
4/10/2021 9:15:00 PM 14.88 58.784 0.184 7.09 872.08 0.2
4/10/2021 9:30:00 PM 14.74 58.532 0.185 7.07 870.44 0.2
4/10/2021 9:45:00 PM 14.62 58.316 0.186 7.08 868.68 0.2
4/10/2021 10:00:00 PM 14.5 58.1 0.187 7.09 868.23 0.2
4/10/2021 10:15:00 PM 14.38 57.884 0.187 7.1 868.42 0.2
4/10/2021 10:30:00 PM 14.28 57.704 0.188 7.1 868.81 0.21
4/10/2021 10:45:00 PM 14.19 57.542 0.188 7.1 871.47 0.21
4/10/2021 11:00:00 PM 14.09 57.362 0.188 7.1 871.82 0.21
4/10/2021 11:15:00 PM 14 57.2 0.189 7.1 872.19 0.21
4/10/2021 11:30:00 PM 13.92 57.056 0.19 7.11 871.83 0.21
4/10/2021 11:45:00 PM 13.84 56.912 0.19 7.11 871.87 0.21
4/11/2021 12:00:00 AM 13.77 56.786 0.191 7.11 872.39 0.21
4/11/2021 12:15:00 AM 13.7 56.66 0.192 7.11 872.04 0.21
4/11/2021 12:30:00 AM 13.64 56.552 0.192 7.11 870.45 0.21
4/11/2021 12:45:00 AM 13.58 56.444 0.193 7.11 872.13 0.21
4/11/2021 1:00:00 AM 13.52 56.336 0.193 7.11 873.69 0.21
4/11/2021 1:15:00 AM 13.46 56.228 0.194 7.1 872.15 0.21
4/11/2021 1:30:00 AM 13.41 56.138 0.194 7.1 872 0.21
4/11/2021 1:45:00 AM 13.36 56.048 0.194 7.1 873.85 0.21
4/11/2021 2:00:00 AM 13.3 55.94 0.195 7.1 873.24 0.21
4/11/2021 2:15:00 AM 13.25 55.85 0.196 7.1 873.04 0.21
4/11/2021 2:30:00 AM 13.21 55.778 0.196 7.11 872.82 0.21
4/11/2021 2:45:00 AM 13.16 55.688 0.196 7.1 871.57 0.21
4/11/2021 3:00:00 AM 13.11 55.598 0.197 7.11 871.13 0.21
4/11/2021 3:15:00 AM 13.06 55.508 0.197 7.11 871.48 0.21
4/11/2021 3:30:00 AM 13.01 55.418 0.198 7.11 871.28 0.21
4/11/2021 3:45:00 AM 12.97 55.346 0.198 7.11 871.46 0.22
4/11/2021 4:00:00 AM 12.93 55.274 0.198 7.11 871.86 0.22
4/11/2021 4:15:00 AM 12.88 55.184 0.198 7.11 870.09 0.22
4/11/2021 4:30:00 AM 12.84 55.112 0.198 7.11 869.47 0.22
4/11/2021 4:45:00 AM 12.79 55.022 0.199 7.11 868.2 0.22
4/11/2021 5:00:00 AM 12.75 54.95 0.199 7.12 868.07 0.22
4/11/2021 5:15:00 AM 12.71 54.878 0.199 7.12 867.82 0.22
4/11/2021 5:30:00 AM 12.68 54.824 0.199 7.12 868.93 0.22
4/11/2021 5:45:00 AM 12.64 54.752 0.199 7.12 867.99 0.22
4/11/2021 6:00:00 AM 12.61 54.698 0.2 7.12 858.54 0.22
4/11/2021 6:15:00 AM 12.57 54.626 0.2 7.12 856.95 0.22
4/11/2021 6:30:00 AM 12.54 54.572 0.2 7.13 858.47 0.22
4/11/2021 6:45:00 AM 12.51 54.518 0.2 7.13 860.58 0.22
4/11/2021 7:00:00 AM 12.48 54.464 0.199 7.13 860.95 0.22
4/11/2021 7:15:00 AM 12.45 54.41 0.199 7.13 862.83 0.22
4/11/2021 7:30:00 AM 12.42 54.356 0.199 7.13 863.42 0.22
4/11/2021 7:45:00 AM 12.39 54.302 0.199 7.13 862.9 0.22
4/11/2021 8:00:00 AM 12.36 54.248 0.199 7.14 857.07 0.22
4/11/2021 8:15:00 AM 12.33 54.194 0.198 7.14 861.07 0.22
4/11/2021 8:30:00 AM 12.31 54.158 0.198 7.14 856.07 0.22
4/11/2021 8:45:00 AM 12.28 54.104 0.198 7.15 856.47 0.22
4/11/2021 9:00:00 AM 12.26 54.068 0.198 7.15 861.95 0.22
4/11/2021 9:15:00 AM 12.24 54.032 0.197 7.15 861.61 0.22
4/11/2021 9:30:00 AM 12.23 54.014 0.197 7.15 861.03 0.22
4/11/2021 9:45:00 AM 12.21 53.978 0.197 7.16 863.98 0.22
4/11/2021 10:00:00 AM 12.2 53.96 0.197 7.16 862.98 0.22
4/11/2021 10:15:00 AM 12.2 53.96 0.197 7.17 863.93 0.22
4/11/2021 10:30:00 AM 12.2 53.96 0.197 7.18 864.42 0.22
4/11/2021 10:45:00 AM 12.21 53.978 0.196 7.18 864.96 0.22
4/11/2021 11:00:00 AM 12.24 54.032 0.196 7.18 867.92 0.22
4/11/2021 11:15:00 AM 12.28 54.104 0.196 7.18 868.58 0.22
4/11/2021 11:30:00 AM 12.35 54.23 0.196 7.19 870.23 0.22
4/11/2021 11:45:00 AM 12.44 54.392 0.195 7.19 872.53 0.22
4/11/2021 12:00:00 PM 12.53 54.554 0.195 7.2 874.41 0.22
4/11/2021 12:15:00 PM 12.64 54.752 0.195 7.2 876.04 0.22
4/11/2021 12:30:00 PM 12.75 54.95 0.195 7.2 876.28 0.22
4/11/2021 12:45:00 PM 12.88 55.184 0.195 7.2 874.77 0.21
4/11/2021 1:00:00 PM 13.03 55.454 0.194 7.2 876.45 0.21
4/11/2021 1:15:00 PM 13.19 55.742 0.193 7.2 877.63 0.21
4/11/2021 1:30:00 PM 13.37 56.066 0.193 7.2 876.92 0.21
4/11/2021 1:45:00 PM 13.53 56.354 0.192 7.2 877.87 0.21
4/11/2021 2:00:00 PM 13.66 56.588 0.191 7.2 880.23 0.21
4/11/2021 2:15:00 PM 13.73 56.714 0.191 7.19 880.72 0.21
4/11/2021 2:30:00 PM 13.76 56.768 0.19 7.19 885.07 0.21
4/11/2021 2:45:00 PM 13.75 56.75 0.189 7.19 890.36 0.21
4/11/2021 3:00:00 PM 13.76 56.768 0.188 7.19 894.7 0.21
4/11/2021 3:15:00 PM 13.74 56.732 0.187 7.19 892 0.21
4/11/2021 3:30:00 PM 13.7 56.66 0.186 7.18 889.64 0.21
4/11/2021 3:45:00 PM 13.66 56.588 0.186 7.19 886.57 0.21
4/11/2021 4:00:00 PM 13.64 56.552 0.186 7.19 886.02 0.21
4/11/2021 4:15:00 PM 13.65 56.57 0.185 7.2 884.75 0.21
4/11/2021 4:30:00 PM 13.68 56.624 0.185 7.2 885.79 0.21
4/11/2021 4:45:00 PM 13.72 56.696 0.185 7.2 885.17 0.21
4/11/2021 5:00:00 PM 13.75 56.75 0.184 7.2 890.78 0.21
4/11/2021 5:15:00 PM 13.77 56.786 0.183 7.2 892.8 0.21
4/11/2021 5:30:00 PM 13.78 56.804 0.183 7.2 893.68 0.21
4/11/2021 5:45:00 PM 13.8 56.84 0.183 7.2 891.22 0.21
4/11/2021 6:00:00 PM 13.81 56.858 0.183 7.2 891.38 0.21
4/11/2021 6:15:00 PM 13.8 56.84 0.183 7.2 891.06 0.21
4/11/2021 6:30:00 PM 13.78 56.804 0.183 7.2 889.99 0.21
4/11/2021 6:45:00 PM 13.76 56.768 0.182 7.2 888.15 0.21
4/11/2021 7:00:00 PM 13.74 56.732 0.181 7.2 887.22 0.21
4/11/2021 7:15:00 PM 13.7 56.66 0.181 7.21 888.09 0.21
4/11/2021 7:30:00 PM 13.67 56.606 0.181 7.2 893.44 0.21
4/11/2021 7:45:00 PM 13.63 56.534 0.18 7.2 899.63 0.21
4/11/2021 8:00:00 PM 13.58 56.444 0.18 7.2 896.5 0.21
4/11/2021 8:15:00 PM 13.53 56.354 0.18 7.2 899.46 0.21
4/11/2021 8:30:00 PM 13.47 56.246 0.179 7.2 895.77 0.21
4/11/2021 8:45:00 PM 13.41 56.138 0.178 7.2 892.99 0.21
4/11/2021 9:00:00 PM 13.35 56.03 0.178 7.2 893.65 0.21
4/11/2021 9:15:00 PM 13.28 55.904 0.178 7.2 894.7 0.21
4/11/2021 9:30:00 PM 13.21 55.778 0.178 7.2 893.83 0.21
4/11/2021 9:45:00 PM 13.15 55.67 0.178 7.19 896.86 0.21
4/11/2021 10:00:00 PM 13.08 55.544 0.178 7.19 896.05 0.21
4/11/2021 10:15:00 PM 13.01 55.418 0.177 7.19 892.61 0.21
4/11/2021 10:30:00 PM 12.96 55.328 0.177 7.18 895.63 0.21
4/11/2021 10:45:00 PM 12.9 55.22 0.177 7.19 895.36 0.22
4/11/2021 11:00:00 PM 12.84 55.112 0.176 7.19 898.96 0.22
4/11/2021 11:15:00 PM 12.79 55.022 0.176 7.19 900.02 0.22
4/11/2021 11:30:00 PM 12.73 54.914 0.175 7.2 953.82 0.22
4/11/2021 11:45:00 PM 12.68 54.824 0.175 7.2 946.11 0.22
4/12/2021 12:00:00 AM 12.62 54.716 0.175 7.2 950.66 0.22
4/12/2021 12:15:00 AM 12.57 54.626 0.175 7.2 938.78 0.22
4/12/2021 12:30:00 AM 12.52 54.536 0.175 7.2 904.86 0.22
4/12/2021 12:45:00 AM 12.46 54.428 0.174 7.2 901.05 0.22
4/12/2021 1:00:00 AM 12.4 54.32 0.174 7.2 901.17 0.22
4/12/2021 1:15:00 AM 12.35 54.23 0.173 7.2 900.85 0.22
4/12/2021 1:30:00 AM 12.3 54.14 0.172 7.2 898.52 0.22
4/12/2021 1:45:00 AM 12.25 54.05 0.172 7.2 895.17 0.22
4/12/2021 2:00:00 AM 12.19 53.942 0.171 7.2 896.32 0.22
4/12/2021 2:15:00 AM 12.13 53.834 0.171 7.2 896.36 0.22
4/12/2021 2:30:00 AM 12.08 53.744 0.171 7.2 895.74 0.22
4/12/2021 2:45:00 AM 12.02 53.636 0.171 7.2 892.86 0.22
4/12/2021 3:00:00 AM 11.97 53.546 0.17 7.2 892.05 0.22
4/12/2021 3:15:00 AM 11.92 53.456 0.17 7.19 895.38 0.22
4/12/2021 3:30:00 AM 11.88 53.384 0.17 7.19 899.26 0.22
4/12/2021 3:45:00 AM 11.83 53.294 0.17 7.19 905.47 0.22
4/12/2021 4:00:00 AM 11.78 53.204 0.17 7.2 903.61 0.22
4/12/2021 4:15:00 AM 11.73 53.114 0.17 7.2 907.4 0.22
4/12/2021 4:30:00 AM 11.68 53.024 0.17 7.2 909.45 0.22
4/12/2021 4:45:00 AM 11.63 52.934 0.17 7.19 911.05 0.23
4/12/2021 5:00:00 AM 11.58 52.844 0.169 7.19 913.55 0.23
4/12/2021 5:15:00 AM 11.53 52.754 0.169 7.19 914 0.23
4/12/2021 5:30:00 AM 11.48 52.664 0.169 7.19 918.02 0.23
4/12/2021 5:45:00 AM 11.43 52.574 0.169 7.19 917.66 0.22
4/12/2021 6:00:00 AM 11.39 52.502 0.169 7.19 926.15 0.23
4/12/2021 6:15:00 AM 11.34 52.412 0.169 7.19 925.46 0.23
4/12/2021 6:30:00 AM 11.3 52.34 0.168 7.19 926.07 0.23
4/12/2021 6:45:00 AM 11.26 52.268 0.168 7.19 930.6 0.23
4/12/2021 7:00:00 AM 11.21 52.178 0.168 7.19 936.44 0.23
4/12/2021 7:15:00 AM 11.17 52.106 0.168 7.19 940.77 0.23
4/12/2021 7:30:00 AM 11.13 52.034 0.167 7.19 940.63 0.23
4/12/2021 7:45:00 AM 11.09 51.962 0.167 7.19 943.5 0.23
4/12/2021 8:00:00 AM 11.05 51.89 0.167 7.19 941.52 0.23
4/12/2021 8:15:00 AM 11.02 51.836 0.167 7.19 943.48 0.23
4/12/2021 8:30:00 AM 10.99 51.782 0.167 7.2 944.77 0.23
4/12/2021 8:45:00 AM 10.97 51.746 0.167 7.2 946.28 0.23
4/12/2021 9:00:00 AM 10.94 51.692 0.167 7.2 947.36 0.23
4/12/2021 9:15:00 AM 10.92 51.656 0.166 7.2 943.85 0.23
4/12/2021 9:30:00 AM 10.9 51.62 0.167 7.2 945.32 0.23
4/12/2021 9:45:00 AM 10.89 51.602 0.167 7.2 948.98 0.23
4/12/2021 10:00:00 AM 10.88 51.584 0.166 7.2 949.46 0.23
4/12/2021 10:15:00 AM 10.87 51.566 0.167 7.2 953.56 0.23
4/12/2021 10:30:00 AM 10.86 51.548 0.167 7.2 957.41 0.23
4/12/2021 10:45:00 AM 10.86 51.548 0.166 7.2 958.54 0.23
4/12/2021 11:00:00 AM 10.87 51.566 0.166 7.2 953.21 0.23
4/12/2021 11:15:00 AM 10.89 51.602 0.166 7.2 953.28 0.23
4/12/2021 11:30:00 AM 10.93 51.674 0.165 7.2 951.71 0.23
4/12/2021 11:45:00 AM 11 51.8 0.165 7.2 955.07 0.23
4/12/2021 12:00:00 PM 11.05 51.89 0.165 7.2 960.53 0.23
4/12/2021 12:15:00 PM 11.1 51.98 0.165 7.2 959.07 0.23
4/12/2021 12:30:00 PM 11.14 52.052 0.164 7.2 962.59 0.23
4/12/2021 12:45:00 PM 11.19 52.142 0.164 7.2 962.85 0.23
4/12/2021 1:00:00 PM 11.24 52.232 0.164 7.2 964.82 0.23
4/12/2021 1:15:00 PM 11.29 52.322 0.164 7.2 964.14 0.23
4/12/2021 1:30:00 PM 11.33 52.394 0.163 7.2 965.3 0.23
4/12/2021 1:45:00 PM 11.35 52.43 0.163 7.2 965.86 0.23
4/12/2021 2:00:00 PM 11.37 52.466 0.163 7.2 968.33 0.23
4/12/2021 2:15:00 PM 11.41 52.538 0.163 7.2 967.13 0.23
4/12/2021 2:30:00 PM 11.44 52.592 0.163 7.21 967.93 0.23
4/12/2021 2:45:00 PM 11.48 52.664 0.163 7.21 968.13 0.22
4/12/2021 3:00:00 PM 11.52 52.736 0.163 7.2 970.51 0.22
4/12/2021 3:15:00 PM 11.55 52.79 0.162 7.2 972.13 0.22
4/12/2021 3:30:00 PM 11.58 52.844 0.162 7.2 971.65 0.22
4/12/2021 3:45:00 PM 11.59 52.862 0.162 7.2 971.58 0.22
4/12/2021 4:00:00 PM 11.6 52.88 0.162 7.2 972.8 0.22
4/12/2021 4:15:00 PM 11.61 52.898 0.162 7.2 972.04 0.22
4/12/2021 4:30:00 PM 11.63 52.934 0.162 7.2 972.54 0.22
4/12/2021 4:45:00 PM 11.69 53.042 0.163 7.21 972.85 0.22
4/12/2021 5:00:00 PM 11.75 53.15 0.163 7.2 975.88 0.22
4/12/2021 5:15:00 PM 11.78 53.204 0.162 7.2 979.59 0.22
4/12/2021 5:30:00 PM 11.78 53.204 0.162 7.2 981.55 0.22
4/12/2021 5:45:00 PM 11.79 53.222 0.162 7.2 982.63 0.22
4/12/2021 6:00:00 PM 11.8 53.24 0.162 7.2 981.02 0.22
4/12/2021 6:15:00 PM 11.8 53.24 0.161 7.2 981.41 0.22
4/12/2021 6:30:00 PM 11.8 53.24 0.161 7.2 981.63 0.22
4/12/2021 6:45:00 PM 11.78 53.204 0.161 7.2 981.53 0.22
4/12/2021 7:00:00 PM 11.77 53.186 0.16 7.2 983.51 0.22
4/12/2021 7:15:00 PM 11.75 53.15 0.16 7.2 984.54 0.22
4/12/2021 7:30:00 PM 11.73 53.114 0.159 7.2 985.14 0.22
4/12/2021 7:45:00 PM 11.7 53.06 0.158 7.2 986.42 0.22
4/12/2021 8:00:00 PM 11.67 53.006 0.158 7.2 989.11 0.22
4/12/2021 8:15:00 PM 11.63 52.934 0.157 7.2 994.29 0.22
4/12/2021 8:30:00 PM 11.58 52.844 0.157 7.2 995.16 0.22
4/12/2021 8:45:00 PM 11.52 52.736 0.157 7.2 995.01 0.22
4/12/2021 9:00:00 PM 11.45 52.61 0.156 7.2 994.56 0.22
4/12/2021 9:15:00 PM 11.39 52.502 0.156 7.2 993.77 0.22
4/12/2021 9:30:00 PM 11.32 52.376 0.156 7.2 1000.41 0.22
4/12/2021 9:45:00 PM 11.26 52.268 0.156 7.2 1009.71 0.22
4/12/2021 10:00:00 PM 11.2 52.16 0.155 7.2 1013.62 0.22
4/12/2021 10:15:00 PM 11.15 52.07 0.155 7.2 1015.13 0.23
4/12/2021 10:30:00 PM 11.09 51.962 0.155 7.2 1016.14 0.23
4/12/2021 10:45:00 PM 11.04 51.872 0.155 7.2 1030.08 0.23
4/12/2021 11:00:00 PM 11 51.8 0.155 7.2 1031.46 0.23
4/12/2021 11:15:00 PM 10.95 51.71 0.154 7.2 1031.53 0.23
4/12/2021 11:30:00 PM 10.9 51.62 0.154 7.2 1040.71 0.23
4/12/2021 11:45:00 PM 10.86 51.548 0.153 7.2 1052.55 0.23
4/13/2021 12:00:00 AM 10.81 51.458 0.153 7.2 1059.59 0.23
4/13/2021 12:15:00 AM 10.76 51.368 0.153 7.2 1062.92 0.23
4/13/2021 12:30:00 AM 10.71 51.278 0.153 7.2 1066.69 0.23
4/13/2021 12:45:00 AM 10.67 51.206 0.152 7.21 1065.86 0.23
4/13/2021 1:00:00 AM 10.63 51.134 0.152 7.21 1068.86 0.23
4/13/2021 1:15:00 AM 10.58 51.044 0.152 7.21 1071.27 0.23
4/13/2021 1:30:00 AM 10.54 50.972 0.153 7.21 1068.68 0.23
4/13/2021 1:45:00 AM 10.5 50.9 0.152 7.22 1070.14 0.23
4/13/2021 2:00:00 AM 10.47 50.846 0.153 7.22 1071.35 0.23
4/13/2021 2:15:00 AM 10.42 50.756 0.152 7.22 1072 0.23
4/13/2021 2:30:00 AM 10.37 50.666 0.152 7.22 1070.67 0.23
4/13/2021 2:45:00 AM 10.33 50.594 0.152 7.22 1071.59 0.23
4/13/2021 3:00:00 AM 10.29 50.522 0.152 7.22 1074.86 0.23
4/13/2021 3:15:00 AM 10.25 50.45 0.151 7.22 1077.85 0.23
4/13/2021 3:30:00 AM 10.21 50.378 0.151 7.22 1072.97 0.23
4/13/2021 3:45:00 AM 10.17 50.306 0.151 7.22 1077.98 0.23
4/13/2021 4:00:00 AM 10.14 50.252 0.151 7.22 1080.85 0.23
4/13/2021 4:15:00 AM 10.1 50.18 0.15 7.23 1083.55 0.23
4/13/2021 4:30:00 AM 10.08 50.144 0.15 7.23 1088.35 0.23
4/13/2021 4:45:00 AM 10.05 50.09 0.15 7.23 1088.24 0.23
4/13/2021 5:00:00 AM 10.02 50.036 0.149 7.23 1087.68 0.23
4/13/2021 5:15:00 AM 10 50 0.149 7.23 1095.29 0.23
4/13/2021 5:30:00 AM 9.97 49.946 0.149 7.23 1099.85 0.23
4/13/2021 5:45:00 AM 9.94 49.892 0.148 7.23 1095.93 0.23
4/13/2021 6:00:00 AM 9.91 49.838 0.147 7.23 1094.25 0.23
4/13/2021 6:15:00 AM 9.88 49.784 0.147 7.23 1096.16 0.23
4/13/2021 6:30:00 AM 9.86 49.748 0.146 7.23 1110.35 0.23
4/13/2021 6:45:00 AM 9.84 49.712 0.146 7.23 1109.68 0.23
4/13/2021 7:00:00 AM 9.81 49.658 0.145 7.23 1118.22 0.23
4/13/2021 7:15:00 AM 9.79 49.622 0.145 7.23 1117.33 0.23
4/13/2021 7:30:00 AM 9.77 49.586 0.145 7.23 1099.89 0.23
4/13/2021 7:45:00 AM 9.75 49.55 0.144 7.23 1102.96 0.23
4/13/2021 8:00:00 AM 9.74 49.532 0.144 7.23 1108.83 0.23
4/13/2021 8:15:00 AM 9.73 49.514 0.143 7.23 1116.23 0.23
4/13/2021 8:30:00 AM 9.73 49.514 0.143 7.23 1115.91 0.23
4/13/2021 8:45:00 AM 9.74 49.532 0.142 7.23 1122.73 0.23
4/13/2021 9:00:00 AM 9.75 49.55 0.142 7.23 1127.76 0.23
4/13/2021 9:15:00 AM 9.76 49.568 0.141 7.23 1135.28 0.23
4/13/2021 9:30:00 AM 9.79 49.622 0.141 7.24 1141.42 0.23
4/13/2021 9:45:00 AM 9.84 49.712 0.141 7.24 1146.22 0.23
4/13/2021 10:00:00 AM 9.91 49.838 0.14 7.24 1153.8 0.23
4/13/2021 10:15:00 AM 9.99 49.982 0.14 7.24 1158.95 0.23
4/13/2021 10:30:00 AM 10.09 50.162 0.139 7.24 1166.22 0.23
4/13/2021 10:45:00 AM 10.2 50.36 0.139 7.23 1171.56 0.23
4/13/2021 11:00:00 AM 10.29 50.522 0.138 7.23 1178.41 0.23
4/13/2021 11:15:00 AM 10.38 50.684 0.138 7.23 1185.77 0.23
4/13/2021 11:30:00 AM 10.48 50.864 0.137 7.23 1193.33 0.23
4/13/2021 11:45:00 AM 10.57 51.026 0.137 7.23 1198.78 0.23
4/13/2021 12:00:00 PM 10.65 51.17 0.137 7.23 1205.08 0.23
4/13/2021 12:15:00 PM 10.73 51.314 0.137 7.22 1206.45 0.23
4/13/2021 12:30:00 PM 10.83 51.494 0.136 7.22 1206.93 0.23
4/13/2021 12:45:00 PM 10.96 51.728 0.136 7.22 1210.78 0.23
4/13/2021 1:00:00 PM 11.09 51.962 0.135 7.23 1210.93 0.23
4/13/2021 1:15:00 PM 11.22 52.196 0.135 7.23 1210.29 0.22
4/13/2021 1:30:00 PM 11.32 52.376 0.134 7.22 1209.9 0.22
4/13/2021 1:45:00 PM 11.4 52.52 0.134 7.22 1209.7 0.22
4/13/2021 2:00:00 PM 11.44 52.592 0.133 7.22 1211.72 0.22
4/13/2021 2:15:00 PM 11.47 52.646 0.133 7.22 1210.62 0.22
4/13/2021 2:30:00 PM 11.52 52.736 0.132 7.22 1209.01 0.22
4/13/2021 2:45:00 PM 11.6 52.88 0.132 7.22 1207.86 0.22
4/13/2021 3:00:00 PM 11.64 52.952 0.132 7.22 1207.78 0.22
4/13/2021 3:15:00 PM 11.69 53.042 0.131 7.22 1205.31 0.22
4/13/2021 3:30:00 PM 11.82 53.276 0.131 7.22 1207.73 0.22
4/13/2021 3:45:00 PM 11.96 53.528 0.13 7.22 1210.05 0.22
4/13/2021 4:00:00 PM 12.06 53.708 0.13 7.22 1214.73 0.22
4/13/2021 4:15:00 PM 12.13 53.834 0.13 7.22 1207.18 0.22
4/13/2021 4:30:00 PM 12.2 53.96 0.13 7.22 1206.8 0.22
4/13/2021 4:45:00 PM 12.28 54.104 0.13 7.22 1204.19 0.21
4/13/2021 5:00:00 PM 12.39 54.302 0.129 7.22 1203.42 0.22
4/13/2021 5:15:00 PM 12.53 54.554 0.129 7.22 1201.74 0.22
4/13/2021 5:30:00 PM 12.67 54.806 0.129 7.22 1199.42 0.21
4/13/2021 5:45:00 PM 12.77 54.986 0.128 7.22 1198.9 0.22
4/13/2021 6:00:00 PM 12.83 55.094 0.128 7.21 1196.15 0.22
4/13/2021 6:15:00 PM 12.87 55.166 0.128 7.22 1195.31 0.22
4/13/2021 6:30:00 PM 12.89 55.202 0.127 7.21 1198.6 0.22
4/13/2021 6:45:00 PM 12.88 55.184 0.127 7.21 1201.5 0.22
4/13/2021 7:00:00 PM 12.85 55.13 0.127 7.21 1201.69 0.22
4/13/2021 7:15:00 PM 12.82 55.076 0.126 7.21 1205.26 0.23
4/13/2021 7:30:00 PM 12.77 54.986 0.125 7.21 1203.25 0.22
4/13/2021 7:45:00 PM 12.73 54.914 0.125 7.2 1203.48 0.22
4/13/2021 8:00:00 PM 12.67 54.806 0.124 7.2 1203.14 0.22
4/13/2021 8:15:00 PM 12.61 54.698 0.124 7.2 1201.3 0.22
4/13/2021 8:30:00 PM 12.54 54.572 0.124 7.2 1200.54 0.21
4/13/2021 8:45:00 PM 12.46 54.428 0.124 7.2 1200.09 0.21
4/13/2021 9:00:00 PM 12.37 54.266 0.123 7.2 1199.6 0.21
4/13/2021 9:15:00 PM 12.28 54.104 0.123 7.2 1199.46 0.22
4/13/2021 9:30:00 PM 12.19 53.942 0.122 7.2 1197.04 0.22
4/13/2021 9:45:00 PM 12.11 53.798 0.122 7.2 1192.77 0.22
4/13/2021 10:00:00 PM 12.03 53.654 0.122 7.2 1192.69 0.22
4/13/2021 10:15:00 PM 11.95 53.51 0.121 7.2 1187.36 0.22
4/13/2021 10:30:00 PM 11.87 53.366 0.121 7.2 1185.73 0.22
4/13/2021 10:45:00 PM 11.78 53.204 0.12 7.2 1182.38 0.22
4/13/2021 11:00:00 PM 11.69 53.042 0.12 7.21 1181.08 0.24
4/13/2021 11:15:00 PM 11.6 52.88 0.12 7.21 1171.78 0.25
4/13/2021 11:30:00 PM 11.52 52.736 0.119 7.2 1171.13 0.24
4/13/2021 11:45:00 PM 11.43 52.574 0.119 7.2 1171.21 0.22
4/14/2021 12:00:00 AM 11.35 52.43 0.118 7.2 1171.6 0.22
4/14/2021 12:15:00 AM 11.27 52.286 0.117 7.2 1172.3 0.22
4/14/2021 12:30:00 AM 11.18 52.124 0.117 7.2 1171.61 0.22
4/14/2021 12:45:00 AM 11.1 51.98 0.116 7.2 1169.61 0.23
4/14/2021 1:00:00 AM 11.01 51.818 0.115 7.21 1169.17 0.23
4/14/2021 1:15:00 AM 10.93 51.674 0.114 7.21 1166.68 0.23
4/14/2021 1:30:00 AM 10.85 51.53 0.114 7.21 1166.45 0.23
4/14/2021 1:45:00 AM 10.76 51.368 0.113 7.21 1167.52 0.23
4/14/2021 2:00:00 AM 10.68 51.224 0.112 7.21 1171.5 0.23
4/14/2021 2:15:00 AM 10.61 51.098 0.111 7.22 1173.22 0.23
4/14/2021 2:30:00 AM 10.55 50.99 0.11 7.22 1175.48 0.23
4/14/2021 2:45:00 AM 10.48 50.864 0.11 7.23 1176.08 0.23
4/14/2021 3:00:00 AM 10.42 50.756 0.11 7.22 1172.09 0.23
4/14/2021 3:15:00 AM 10.36 50.648 0.109 7.22 1171.9 0.23
4/14/2021 3:30:00 AM 10.3 50.54 0.108 7.23 1170.59 0.23
4/14/2021 3:45:00 AM 10.24 50.432 0.107 7.23 1171.23 0.23
4/14/2021 4:00:00 AM 10.17 50.306 0.104 7.23 1159.59 0.23
4/14/2021 4:15:00 AM 10.11 50.198 0.102 7.23 1156.11 0.23
4/14/2021 4:30:00 AM 10.04 50.072 0.099 7.23 1158.28 0.23
4/14/2021 4:45:00 AM 9.98 49.964 0.096 7.23 1161.04 0.23
4/14/2021 5:00:00 AM 9.91 49.838 0.094 7.23 1161.31 0.23
4/14/2021 5:15:00 AM 9.87 49.766 0.115 7.22 82.35 0.23
4/14/2021 5:30:00 AM 9.78 49.604 0.119 7.25 84.68 0.24
4/14/2021 5:45:00 AM 9.72 49.496 0.121 7.24 99.11 0.24
4/14/2021 6:00:00 AM 9.65 49.37 0.12 7.23 132.26 0.24
4/14/2021 6:15:00 AM 9.59 49.262 0.117 7.22 208 0.24
4/14/2021 6:30:00 AM 9.54 49.172 0.113 7.21 260.38 0.24
4/14/2021 6:45:00 AM 9.47 49.046 0.105 7.21 325.88 0.24
4/14/2021 7:00:00 AM 9.41 48.938 0.096 7.2 380.38 0.24
4/14/2021 7:15:00 AM 9.36 48.848 0.091 7.19 432.57 0.24
4/14/2021 7:30:00 AM 9.3 48.74 0.092 7.2 478.42 0.24
4/14/2021 7:45:00 AM 9.26 48.668 0.095 7.21 519.74 0.24
4/14/2021 8:00:00 AM 9.22 48.596 0.096 7.21 561.77 0.24
4/14/2021 8:15:00 AM 9.17 48.506 0.095 7.21 603.99 0.24
4/14/2021 8:30:00 AM 9.14 48.452 0.097 7.21 643.15 0.24
4/14/2021 8:45:00 AM 9.12 48.416 0.1 7.22 679.96 0.24
4/14/2021 9:00:00 AM 9.11 48.398 0.103 7.22 731.31 0.24
4/14/2021 9:15:00 AM 9.11 48.398 0.105 7.22 757.52 0.24
4/14/2021 9:30:00 AM 9.12 48.416 0.105 7.23 775.32 0.24
4/14/2021 9:45:00 AM 9.14 48.452 0.106 7.23 789.31 0.24
4/14/2021 10:00:00 AM 9.15 48.47 0.106 7.22 803.14 0.24
4/14/2021 10:15:00 AM 9.18 48.524 0.107 7.23 822.24 0.24
4/14/2021 10:30:00 AM 9.22 48.596 0.108 7.23 841.8 0.24
4/14/2021 10:45:00 AM 9.29 48.722 0.108 7.23 846.79 0.24
4/14/2021 11:00:00 AM 9.37 48.866 0.108 7.23 855.82 0.24
4/14/2021 11:15:00 AM 9.48 49.064 0.109 7.23 880.06 0.24
4/14/2021 11:30:00 AM 9.62 49.316 0.109 7.24 896.95 0.23
4/14/2021 11:45:00 AM 9.79 49.622 0.108 7.24 909.98 0.24
4/14/2021 12:00:00 PM 9.9 49.82 0.114 7.22 65.2 0.23
4/14/2021 12:15:00 PM 10.04 50.072 0.116 7.23 72.75 0.23
4/14/2021 12:30:00 PM 10.16 50.288 0.114 7.2 78.9 0.23
4/14/2021 12:45:00 PM 10.3 50.54 0.113 7.18 81.58 0.23
4/14/2021 1:00:00 PM 10.48 50.864 0.113 7.18 82.49 0.23
4/14/2021 1:15:00 PM 10.71 51.278 0.114 7.16 84.34 0.23
4/14/2021 1:30:00 PM 10.93 51.674 0.114 7.16 86.19 0.22
4/14/2021 1:45:00 PM 11.17 52.106 0.114 7.16 86.94 0.22
4/14/2021 2:00:00 PM 11.43 52.574 0.115 7.17 88.1 0.22
4/14/2021 2:15:00 PM 11.65 52.97 0.116 7.16 89.15 0.22
4/14/2021 2:30:00 PM 11.89 53.402 0.117 7.17 90.61 0.22
4/14/2021 2:45:00 PM 12.11 53.798 0.118 7.17 92.47 0.21
4/14/2021 3:00:00 PM 12.31 54.158 0.118 7.17 89.39 0.21
4/14/2021 3:15:00 PM 12.46 54.428 0.119 7.17 88.92 0.21
4/14/2021 3:30:00 PM 12.61 54.698 0.119 7.17 90.57 0.21
4/14/2021 3:45:00 PM 12.77 54.986 0.12 7.17 90.07 0.21
4/14/2021 4:00:00 PM 12.92 55.256 0.119 7.17 91.2 0.21
4/14/2021 4:15:00 PM 13.06 55.508 0.12 7.17 92.94 0.21
4/14/2021 4:30:00 PM 13.19 55.742 0.12 7.17 94.06 0.21
4/14/2021 4:45:00 PM 13.27 55.886 0.12 7.18 92.53 0.21
4/14/2021 5:00:00 PM 13.27 55.886 0.12 7.17 92.83 0.21
4/14/2021 5:15:00 PM 13.27 55.886 0.12 7.17 92.85 0.21
4/14/2021 5:30:00 PM 13.29 55.922 0.12 7.17 88.87 0.21
4/14/2021 5:45:00 PM 13.36 56.048 0.12 7.17 88.61 0.21
4/14/2021 6:00:00 PM 13.41 56.138 0.121 7.16 91.96 0.21
4/14/2021 6:15:00 PM 13.41 56.138 0.121 7.15 91.51 0.21
4/14/2021 6:30:00 PM 13.39 56.102 0.121 7.14 91.14 0.21
4/14/2021 6:45:00 PM 13.34 56.012 0.121 7.14 91.43 0.21
4/14/2021 7:00:00 PM 13.26 55.868 0.121 7.15 91.4 0.21
4/14/2021 7:15:00 PM 13.16 55.688 0.12 7.14 91.61 0.21
4/14/2021 7:30:00 PM 13.05 55.49 0.119 7.13 92.55 0.21
4/14/2021 7:45:00 PM 12.94 55.292 0.119 7.13 93.67 0.21
4/14/2021 8:00:00 PM 12.82 55.076 0.118 7.12 94.27 0.22
4/14/2021 8:15:00 PM 12.69 54.842 0.117 7.12 94.28 0.21
4/14/2021 8:30:00 PM 12.56 54.608 0.117 7.12 95.48 0.23
4/14/2021 8:45:00 PM 12.42 54.356 0.116 7.11 94.97 0.24
4/14/2021 9:00:00 PM 12.3 54.14 0.115 7.1 95.57 0.25
4/14/2021 9:15:00 PM 12.18 53.924 0.114 7.09 96.35 0.29
4/14/2021 9:30:00 PM 12.05 53.69 0.114 7.07 97.76 0.3
4/14/2021 9:45:00 PM 11.93 53.474 0.113 7.05 97.81 0.3
4/14/2021 10:00:00 PM 11.81 53.258 0.113 7.04 98.44 0.32
4/14/2021 10:15:00 PM 11.69 53.042 0.112 7.03 99.26 0.37
4/14/2021 10:30:00 PM 11.58 52.844 0.112 7.02 99.93 0.38
4/14/2021 10:45:00 PM 11.46 52.628 0.111 7.02 100.3 0.36
4/14/2021 11:00:00 PM 11.36 52.448 0.11 7.02 101.09 0.38
4/14/2021 11:15:00 PM 11.27 52.286 0.11 7.01 101.54 0.39
4/14/2021 11:30:00 PM 11.17 52.106 0.11 7.01 102.4 0.38
4/14/2021 11:45:00 PM 11.09 51.962 0.109 7 101.94 0.44
4/15/2021 12:00:00 AM 11.02 51.836 0.109 7 103.31 0.45
4/15/2021 12:15:00 AM 10.95 51.71 0.108 6.99 102.87 0.46
4/15/2021 12:30:00 AM 10.88 51.584 0.107 6.99 103.69 0.45
4/15/2021 12:45:00 AM 10.81 51.458 0.107 6.99 102.61 0.45
4/15/2021 1:00:00 AM 10.75 51.35 0.107 6.99 102.75 0.43
4/15/2021 1:15:00 AM 10.69 51.242 0.107 6.98 103.25 0.45
4/15/2021 1:30:00 AM 10.62 51.116 0.107 6.98 103.68 0.44
4/15/2021 1:45:00 AM 10.55 50.99 0.107 6.99 105.22 0.44
4/15/2021 2:00:00 AM 10.48 50.864 0.107 6.99 105.47 0.43
4/15/2021 2:15:00 AM 10.41 50.738 0.107 6.98 106.46 0.4
4/15/2021 2:30:00 AM 10.34 50.612 0.107 6.98 107.31 0.36
4/15/2021 2:45:00 AM 10.28 50.504 0.107 6.98 108.26 0.37
4/15/2021 3:00:00 AM 10.21 50.378 0.106 6.97 107.96 0.47
4/15/2021 3:15:00 AM 10.15 50.27 0.106 6.96 108.55 0.37
4/15/2021 3:30:00 AM 10.09 50.162 0.106 6.96 109.89 0.33
4/15/2021 3:45:00 AM 10.03 50.054 0.106 6.95 110.56 0.37
4/15/2021 4:00:00 AM 9.97 49.946 0.106 6.95 111.34 0.36
4/15/2021 4:15:00 AM 9.91 49.838 0.105 6.93 111.7 0.4
4/15/2021 4:30:00 AM 9.85 49.73 0.105 6.93 110.85 0.38
4/15/2021 4:45:00 AM 9.79 49.622 0.104 6.92 111.14 0.39
4/15/2021 5:00:00 AM 9.73 49.514 0.104 6.92 111.25 0.41
4/15/2021 5:15:00 AM 9.67 49.406 0.104 6.91 111.57 0.51
4/15/2021 5:30:00 AM 9.61 49.298 0.104 6.9 111.76 0.55
4/15/2021 5:45:00 AM 9.55 49.19 0.103 6.9 111.97 0.66
4/15/2021 6:00:00 AM 9.5 49.1 0.103 6.89 112.06 0.72
4/15/2021 6:15:00 AM 9.44 48.992 0.103 6.89 112.81 0.76
4/15/2021 6:30:00 AM 9.39 48.902 0.103 6.89 112.83 0.83
4/15/2021 6:45:00 AM 9.35 48.83 0.102 6.88 113.06 0.93
4/15/2021 7:00:00 AM 9.3 48.74 0.103 6.88 113.44 0.78
4/15/2021 7:15:00 AM 9.25 48.65 0.102 6.87 114.05 0.82
4/15/2021 7:30:00 AM 9.21 48.578 0.102 6.87 114.41 0.86
4/15/2021 7:45:00 AM 9.16 48.488 0.102 6.87 114.76 0.68
4/15/2021 8:00:00 AM 9.11 48.398 0.102 6.87 114.75 0.6
4/15/2021 8:15:00 AM 9.07 48.326 0.102 6.87 115.5 0.66
4/15/2021 8:30:00 AM 9.03 48.254 0.102 6.87 115.64 0.7
4/15/2021 8:45:00 AM 8.99 48.182 0.101 6.88 115.39 0.84
4/15/2021 9:00:00 AM 8.95 48.11 0.101 6.85 115.96 1.11
4/15/2021 9:15:00 AM 8.92 48.056 0.101 6.82 116.24 1.11
4/15/2021 9:30:00 AM 8.88 47.984 0.1 6.83 116.69 1.18
4/15/2021 9:45:00 AM 8.85 47.93 0.1 6.85 115.53 1.04
4/15/2021 10:00:00 AM 8.83 47.894 0.1 6.85 112.23 1
4/15/2021 10:15:00 AM 8.82 47.876 0.1 6.85 118.77 0.93
4/15/2021 10:30:00 AM 8.86 47.948 0.1 6.85 115.55 0.92
4/15/2021 10:45:00 AM 8.9 48.02 0.099 6.85 120.31 0.91
4/15/2021 11:00:00 AM 8.95 48.11 0.099 6.83 120.78 0.81
4/15/2021 11:15:00 AM 9.01 48.218 0.099 6.82 121.33 0.85
4/15/2021 11:30:00 AM 9.39 48.902 0.056 7.52 2.98 11.6
4/15/2021 11:45:00 AM 9.32 48.776 0.056 7.38 2.77 11.46
4/15/2021 12:00:00 PM 9.27 48.686 0.056 7.32 3.15 11.34
4/15/2021 12:15:00 PM 9.23 48.614 0.056 7.29 2.66 11.31
4/15/2021 12:30:00 PM 9.21 48.578 0.056 7.31 2.28 11.38
4/15/2021 12:45:00 PM 9.19 48.542 0.056 7.33 2.22 11.43
4/15/2021 1:00:00 PM 9.16 48.488 0.056 7.34 2.36 11.47
4/15/2021 1:15:00 PM 9.13 48.434 0.056 7.35 2.27 11.49
4/15/2021 1:30:00 PM 9.1 48.38 0.056 7.36 2.22 11.51
4/15/2021 1:45:00 PM 9.08 48.344 0.055 7.36 2.01 11.5
4/15/2021 2:00:00 PM 9.05 48.29 0.056 7.37 2.27 11.52
4/15/2021 2:15:00 PM 9.02 48.236 0.055 7.37 2.86 11.51
4/15/2021 2:30:00 PM 9.02 48.236 0.055 7.36 2.36 11.51
4/15/2021 2:45:00 PM 8.98 48.164 0.056 7.36 2.12 11.5
4/15/2021 3:00:00 PM 8.96 48.128 0.055 7.36 2.06 11.52
4/15/2021 3:15:00 PM 8.97 48.146 0.055 7.38 2.14 11.55
4/15/2021 3:30:00 PM 8.96 48.128 0.055 7.39 2.14 11.57
4/15/2021 3:45:00 PM 8.95 48.11 0.055 7.38 2.11 11.55
4/15/2021 4:00:00 PM 8.99 48.182 0.055 7.39 2.77 11.58
4/15/2021 4:15:00 PM 9.04 48.272 0.055 7.41 2.19 11.6
4/15/2021 4:30:00 PM 9.05 48.29 0.055 7.43 2.27 11.61
4/15/2021 4:45:00 PM 9.1 48.38 0.055 7.44 2.25 11.61
4/15/2021 5:00:00 PM 9.09 48.362 0.055 7.43 2.31 11.59
4/15/2021 5:15:00 PM 9.08 48.344 0.055 7.43 2.1 11.56
4/15/2021 5:30:00 PM 9.1 48.38 0.055 7.42 2.2 11.55
4/15/2021 5:45:00 PM 9.1 48.38 0.055 7.43 3.48 11.55
4/15/2021 6:00:00 PM 9.06 48.308 0.055 7.41 2.1 11.51
4/15/2021 6:15:00 PM 9.05 48.29 0.055 7.39 2.33 11.47
4/15/2021 6:30:00 PM 9.03 48.254 0.055 7.34 2.3 11.38
4/15/2021 6:45:00 PM 9.03 48.254 0.055 7.34 2.1 11.36
4/15/2021 7:00:00 PM 8.95 48.11 0.055 7.3 2 11.33
4/15/2021 7:15:00 PM 8.85 47.93 0.055 7.26 2.29 11.28
4/15/2021 7:30:00 PM 8.75 47.75 0.055 7.22 2.15 11.23
4/15/2021 7:45:00 PM 8.65 47.57 0.055 7.19 2.26 11.18
4/15/2021 8:00:00 PM 8.56 47.408 0.056 7.15 2.46 11.12
4/15/2021 8:15:00 PM 8.49 47.282 0.056 7.11 2.47 11.04
4/15/2021 8:30:00 PM 8.41 47.138 0.056 7.09 2.61 11.02
4/15/2021 8:45:00 PM 8.36 47.048 0.056 7.07 2.47 10.99
4/15/2021 9:00:00 PM 8.29 46.922 0.056 7.05 2.5 10.98
4/15/2021 9:15:00 PM 8.24 46.832 0.056 7.03 2.51 10.96
4/15/2021 9:30:00 PM 8.18 46.724 0.056 7.02 2.5 10.95
4/15/2021 9:45:00 PM 8.13 46.634 0.057 7 2.46 10.95
4/15/2021 10:00:00 PM 8.07 46.526 0.057 6.99 2.61 10.96
4/15/2021 10:15:00 PM 8.01 46.418 0.057 6.99 2.82 10.96
4/15/2021 10:30:00 PM 7.96 46.328 0.057 6.98 2.42 10.98
4/15/2021 10:45:00 PM 7.91 46.238 0.057 6.98 2.54 10.97
4/15/2021 11:00:00 PM 7.87 46.166 0.057 6.97 2.58 11
4/15/2021 11:15:00 PM 7.82 46.076 0.057 6.97 2.62 11.01
4/15/2021 11:30:00 PM 7.78 46.004 0.057 6.96 2.21 11.01
4/15/2021 11:45:00 PM 7.73 45.914 0.057 6.96 2.23 11.02
4/16/2021 12:00:00 AM 7.69 45.842 0.057 6.96 2.18 11.03
4/16/2021 12:15:00 AM 7.65 45.77 0.057 6.96 2.15 11.03
4/16/2021 12:30:00 AM 7.61 45.698 0.057 6.95 2.22 11.05
4/16/2021 12:45:00 AM 7.57 45.626 0.057 6.95 2.15 11.05
4/16/2021 1:00:00 AM 7.53 45.554 0.057 6.95 2.18 11.09
4/16/2021 1:15:00 AM 7.49 45.482 0.057 6.95 2.12 11.09
4/16/2021 1:30:00 AM 7.45 45.41 0.057 6.95 2.1 11.1
4/16/2021 1:45:00 AM 7.41 45.338 0.057 6.95 2.1 11.12
4/16/2021 2:00:00 AM 7.38 45.284 0.057 6.95 2.29 11.12
4/16/2021 2:15:00 AM 7.35 45.23 0.057 6.95 2.13 11.12
4/16/2021 2:30:00 AM 7.31 45.158 0.056 6.94 2.47 11.12
4/16/2021 2:45:00 AM 7.27 45.086 0.057 6.94 2.15 11.14
4/16/2021 3:00:00 AM 7.24 45.032 0.056 6.95 2.47 11.16
4/16/2021 3:15:00 AM 7.19 44.942 0.057 6.95 2.12 11.16
4/16/2021 3:30:00 AM 7.14 44.852 0.056 6.95 2.16 11.18
4/16/2021 3:45:00 AM 7.11 44.798 0.056 6.94 2.25 11.19
4/16/2021 4:00:00 AM 7.08 44.744 0.057 6.94 2.16 11.19
4/16/2021 4:15:00 AM 7.05 44.69 0.057 6.94 2.16 11.2
4/16/2021 4:30:00 AM 7.02 44.636 0.057 6.94 2.15 11.21
4/16/2021 4:45:00 AM 7 44.6 0.057 6.94 2.17 11.21
4/16/2021 5:00:00 AM 6.97 44.546 0.056 6.95 2.08 11.23
4/16/2021 5:15:00 AM 6.95 44.51 0.057 6.95 2.25 11.25
4/16/2021 5:30:00 AM 6.94 44.492 0.057 6.95 2.29 11.24
4/16/2021 5:45:00 AM 6.92 44.456 0.057 6.95 2.26 11.25
4/16/2021 6:00:00 AM 6.91 44.438 0.057 6.95 2.13 11.25
4/16/2021 6:15:00 AM 6.89 44.402 0.057 6.95 2.18 11.25
4/16/2021 6:30:00 AM 6.87 44.366 0.057 6.95 2.18 11.27
4/16/2021 6:45:00 AM 6.84 44.312 0.057 6.95 2.14 11.29
4/16/2021 7:00:00 AM 6.83 44.294 0.057 6.96 2.3 11.3
4/16/2021 7:15:00 AM 6.82 44.276 0.057 6.97 2.15 11.34
4/16/2021 7:30:00 AM 6.82 44.276 0.056 6.98 2.23 11.42
4/16/2021 7:45:00 AM 6.81 44.258 0.056 7 2.18 11.48
4/16/2021 8:00:00 AM 6.82 44.276 0.056 7.01 2.13 11.54